<?xml version="1.0" encoding="UTF-8" standalone="no" ?>
<gpx xmlns="http://www.topografix.com/GPX/1/1" xmlns:xsi="http://www.w3.org/2001/XMLSchema-instance" xsi:schemaLocation="http://www.topografix.com/GPX/1/1 http://www.topografix.com/GPX/1/1/gpx.xsd" version="1.1" creator="VisuGPX - https://www.visugpx.com">
  <metadata>
    <name>VTT - Vallon Fauge Vercors</name>
    <desc><![CDATA[Sortie vtt entre potes et potesse vraiment sympa. Beaux paysages, beaux singles ;)]]></desc>
  </metadata>
  <trk>
    <name><![CDATA[15-AOU-13 16:28:22]]></name>
    <trkseg>
      <trkpt lat="45.07763" lon="5.55883">
        <ele>897.53</ele>
        <time>2013-08-15T10:31:49Z</time>
      </trkpt>
      <trkpt lat="45.07761" lon="5.55883">
        <ele>898.49</ele>
        <time>2013-08-15T10:32:29Z</time>
      </trkpt>
      <trkpt lat="45.0776" lon="5.55882">
        <ele>897.05</ele>
        <time>2013-08-15T10:32:30Z</time>
      </trkpt>
      <trkpt lat="45.07761" lon="5.55883">
        <ele>896.09</ele>
        <time>2013-08-15T10:32:52Z</time>
      </trkpt>
      <trkpt lat="45.07763" lon="5.55883">
        <ele>898.01</ele>
        <time>2013-08-15T10:35:34Z</time>
      </trkpt>
      <trkpt lat="45.07764" lon="5.55882">
        <ele>897.53</ele>
        <time>2013-08-15T10:35:35Z</time>
      </trkpt>
      <trkpt lat="45.07761" lon="5.5588">
        <ele>903.78</ele>
        <time>2013-08-15T10:35:42Z</time>
      </trkpt>
      <trkpt lat="45.07759" lon="5.55881">
        <ele>903.78</ele>
        <time>2013-08-15T10:35:43Z</time>
      </trkpt>
      <trkpt lat="45.07758" lon="5.55885">
        <ele>909.54</ele>
        <time>2013-08-15T10:35:47Z</time>
      </trkpt>
      <trkpt lat="45.07758" lon="5.55884">
        <ele>914.83</ele>
        <time>2013-08-15T10:35:49Z</time>
      </trkpt>
      <trkpt lat="45.07758" lon="5.55884">
        <ele>920.12</ele>
        <time>2013-08-15T10:35:51Z</time>
      </trkpt>
      <trkpt lat="45.07758" lon="5.55883">
        <ele>922.52</ele>
        <time>2013-08-15T10:35:52Z</time>
      </trkpt>
      <trkpt lat="45.07754" lon="5.55881">
        <ele>929.25</ele>
        <time>2013-08-15T10:35:55Z</time>
      </trkpt>
      <trkpt lat="45.07751" lon="5.55883">
        <ele>935.5</ele>
        <time>2013-08-15T10:35:58Z</time>
      </trkpt>
      <trkpt lat="45.07747" lon="5.55884">
        <ele>939.35</ele>
        <time>2013-08-15T10:36:00Z</time>
      </trkpt>
      <trkpt lat="45.07741" lon="5.55882">
        <ele>944.63</ele>
        <time>2013-08-15T10:36:03Z</time>
      </trkpt>
      <trkpt lat="45.07737" lon="5.55881">
        <ele>948</ele>
        <time>2013-08-15T10:36:05Z</time>
      </trkpt>
      <trkpt lat="45.07731" lon="5.55875">
        <ele>952.32</ele>
        <time>2013-08-15T10:36:08Z</time>
      </trkpt>
      <trkpt lat="45.07729" lon="5.55861">
        <ele>955.69</ele>
        <time>2013-08-15T10:36:11Z</time>
      </trkpt>
      <trkpt lat="45.07728" lon="5.55845">
        <ele>959.05</ele>
        <time>2013-08-15T10:36:14Z</time>
      </trkpt>
      <trkpt lat="45.07726" lon="5.55827">
        <ele>961.94</ele>
        <time>2013-08-15T10:36:17Z</time>
      </trkpt>
      <trkpt lat="45.07724" lon="5.55805">
        <ele>965.3</ele>
        <time>2013-08-15T10:36:21Z</time>
      </trkpt>
      <trkpt lat="45.07728" lon="5.55797">
        <ele>966.74</ele>
        <time>2013-08-15T10:36:23Z</time>
      </trkpt>
      <trkpt lat="45.07731" lon="5.55794">
        <ele>967.7</ele>
        <time>2013-08-15T10:36:24Z</time>
      </trkpt>
      <trkpt lat="45.07735" lon="5.55793">
        <ele>968.18</ele>
        <time>2013-08-15T10:36:25Z</time>
      </trkpt>
      <trkpt lat="45.07739" lon="5.55794">
        <ele>969.15</ele>
        <time>2013-08-15T10:36:26Z</time>
      </trkpt>
      <trkpt lat="45.07743" lon="5.55795">
        <ele>969.63</ele>
        <time>2013-08-15T10:36:27Z</time>
      </trkpt>
      <trkpt lat="45.07747" lon="5.55796">
        <ele>970.11</ele>
        <time>2013-08-15T10:36:28Z</time>
      </trkpt>
      <trkpt lat="45.07766" lon="5.55797">
        <ele>973.47</ele>
        <time>2013-08-15T10:36:33Z</time>
      </trkpt>
      <trkpt lat="45.07769" lon="5.55795">
        <ele>973.47</ele>
        <time>2013-08-15T10:36:34Z</time>
      </trkpt>
      <trkpt lat="45.07773" lon="5.55793">
        <ele>973.95</ele>
        <time>2013-08-15T10:36:35Z</time>
      </trkpt>
      <trkpt lat="45.07776" lon="5.5579">
        <ele>974.43</ele>
        <time>2013-08-15T10:36:36Z</time>
      </trkpt>
      <trkpt lat="45.07779" lon="5.55786">
        <ele>974.91</ele>
        <time>2013-08-15T10:36:37Z</time>
      </trkpt>
      <trkpt lat="45.07781" lon="5.55781">
        <ele>975.39</ele>
        <time>2013-08-15T10:36:38Z</time>
      </trkpt>
      <trkpt lat="45.07784" lon="5.55776">
        <ele>975.88</ele>
        <time>2013-08-15T10:36:39Z</time>
      </trkpt>
      <trkpt lat="45.07786" lon="5.55771">
        <ele>976.36</ele>
        <time>2013-08-15T10:36:40Z</time>
      </trkpt>
      <trkpt lat="45.07788" lon="5.55766">
        <ele>976.36</ele>
        <time>2013-08-15T10:36:41Z</time>
      </trkpt>
      <trkpt lat="45.07789" lon="5.5576">
        <ele>976.36</ele>
        <time>2013-08-15T10:36:42Z</time>
      </trkpt>
      <trkpt lat="45.07791" lon="5.55755">
        <ele>976.84</ele>
        <time>2013-08-15T10:36:43Z</time>
      </trkpt>
      <trkpt lat="45.07791" lon="5.55751">
        <ele>976.84</ele>
        <time>2013-08-15T10:36:44Z</time>
      </trkpt>
      <trkpt lat="45.0779" lon="5.55748">
        <ele>977.32</ele>
        <time>2013-08-15T10:36:45Z</time>
      </trkpt>
      <trkpt lat="45.0779" lon="5.55746">
        <ele>977.8</ele>
        <time>2013-08-15T10:36:46Z</time>
      </trkpt>
      <trkpt lat="45.0779" lon="5.55744">
        <ele>977.8</ele>
        <time>2013-08-15T10:36:47Z</time>
      </trkpt>
      <trkpt lat="45.07786" lon="5.55704">
        <ele>978.28</ele>
        <time>2013-08-15T10:36:55Z</time>
      </trkpt>
      <trkpt lat="45.07781" lon="5.55689">
        <ele>979.72</ele>
        <time>2013-08-15T10:36:59Z</time>
      </trkpt>
      <trkpt lat="45.07776" lon="5.55682">
        <ele>979.72</ele>
        <time>2013-08-15T10:37:02Z</time>
      </trkpt>
      <trkpt lat="45.07775" lon="5.55677">
        <ele>979.72</ele>
        <time>2013-08-15T10:37:03Z</time>
      </trkpt>
      <trkpt lat="45.07774" lon="5.55672">
        <ele>980.2</ele>
        <time>2013-08-15T10:37:04Z</time>
      </trkpt>
      <trkpt lat="45.07773" lon="5.55668">
        <ele>980.2</ele>
        <time>2013-08-15T10:37:05Z</time>
      </trkpt>
      <trkpt lat="45.0777" lon="5.55663">
        <ele>980.68</ele>
        <time>2013-08-15T10:37:06Z</time>
      </trkpt>
      <trkpt lat="45.07767" lon="5.5566">
        <ele>980.68</ele>
        <time>2013-08-15T10:37:07Z</time>
      </trkpt>
      <trkpt lat="45.07764" lon="5.55657">
        <ele>981.16</ele>
        <time>2013-08-15T10:37:08Z</time>
      </trkpt>
      <trkpt lat="45.0775" lon="5.55643">
        <ele>982.6</ele>
        <time>2013-08-15T10:37:14Z</time>
      </trkpt>
      <trkpt lat="45.07749" lon="5.55639">
        <ele>982.6</ele>
        <time>2013-08-15T10:37:15Z</time>
      </trkpt>
      <trkpt lat="45.07749" lon="5.55635">
        <ele>982.6</ele>
        <time>2013-08-15T10:37:16Z</time>
      </trkpt>
      <trkpt lat="45.0775" lon="5.55632">
        <ele>983.09</ele>
        <time>2013-08-15T10:37:17Z</time>
      </trkpt>
      <trkpt lat="45.07752" lon="5.55629">
        <ele>983.57</ele>
        <time>2013-08-15T10:37:18Z</time>
      </trkpt>
      <trkpt lat="45.07753" lon="5.55626">
        <ele>983.57</ele>
        <time>2013-08-15T10:37:19Z</time>
      </trkpt>
      <trkpt lat="45.0776" lon="5.55615">
        <ele>985.01</ele>
        <time>2013-08-15T10:37:29Z</time>
      </trkpt>
      <trkpt lat="45.07761" lon="5.55613">
        <ele>985.01</ele>
        <time>2013-08-15T10:37:30Z</time>
      </trkpt>
      <trkpt lat="45.07761" lon="5.55611">
        <ele>985.01</ele>
        <time>2013-08-15T10:37:31Z</time>
      </trkpt>
      <trkpt lat="45.0776" lon="5.55607">
        <ele>985.49</ele>
        <time>2013-08-15T10:37:32Z</time>
      </trkpt>
      <trkpt lat="45.07758" lon="5.55604">
        <ele>985.01</ele>
        <time>2013-08-15T10:37:33Z</time>
      </trkpt>
      <trkpt lat="45.07756" lon="5.556">
        <ele>984.53</ele>
        <time>2013-08-15T10:37:34Z</time>
      </trkpt>
      <trkpt lat="45.07743" lon="5.55557">
        <ele>986.93</ele>
        <time>2013-08-15T10:37:47Z</time>
      </trkpt>
      <trkpt lat="45.07741" lon="5.55518">
        <ele>988.85</ele>
        <time>2013-08-15T10:37:58Z</time>
      </trkpt>
      <trkpt lat="45.07741" lon="5.55469">
        <ele>990.3</ele>
        <time>2013-08-15T10:38:10Z</time>
      </trkpt>
      <trkpt lat="45.0774" lon="5.55425">
        <ele>993.66</ele>
        <time>2013-08-15T10:38:20Z</time>
      </trkpt>
      <trkpt lat="45.07726" lon="5.55348">
        <ele>995.58</ele>
        <time>2013-08-15T10:38:38Z</time>
      </trkpt>
      <trkpt lat="45.07702" lon="5.55315">
        <ele>997.51</ele>
        <time>2013-08-15T10:38:50Z</time>
      </trkpt>
      <trkpt lat="45.07656" lon="5.55278">
        <ele>1000.39</ele>
        <time>2013-08-15T10:39:06Z</time>
      </trkpt>
      <trkpt lat="45.07638" lon="5.55263">
        <ele>1004.23</ele>
        <time>2013-08-15T10:39:13Z</time>
      </trkpt>
      <trkpt lat="45.07635" lon="5.55261">
        <ele>1000.87</ele>
        <time>2013-08-15T10:39:14Z</time>
      </trkpt>
      <trkpt lat="45.0762" lon="5.55255">
        <ele>1004.23</ele>
        <time>2013-08-15T10:39:20Z</time>
      </trkpt>
      <trkpt lat="45.0758" lon="5.55254">
        <ele>1005.2</ele>
        <time>2013-08-15T10:39:35Z</time>
      </trkpt>
      <trkpt lat="45.07533" lon="5.55283">
        <ele>1008.08</ele>
        <time>2013-08-15T10:39:52Z</time>
      </trkpt>
      <trkpt lat="45.07489" lon="5.55317">
        <ele>1010.48</ele>
        <time>2013-08-15T10:40:07Z</time>
      </trkpt>
      <trkpt lat="45.07443" lon="5.55348">
        <ele>1012.89</ele>
        <time>2013-08-15T10:40:23Z</time>
      </trkpt>
      <trkpt lat="45.07396" lon="5.55386">
        <ele>1013.85</ele>
        <time>2013-08-15T10:40:39Z</time>
      </trkpt>
      <trkpt lat="45.07357" lon="5.55401">
        <ele>1014.81</ele>
        <time>2013-08-15T10:40:51Z</time>
      </trkpt>
      <trkpt lat="45.07323" lon="5.55372">
        <ele>1015.29</ele>
        <time>2013-08-15T10:41:04Z</time>
      </trkpt>
      <trkpt lat="45.07292" lon="5.55328">
        <ele>1016.25</ele>
        <time>2013-08-15T10:41:19Z</time>
      </trkpt>
      <trkpt lat="45.07264" lon="5.55283">
        <ele>1016.73</ele>
        <time>2013-08-15T10:41:31Z</time>
      </trkpt>
      <trkpt lat="45.07234" lon="5.55241">
        <ele>1017.21</ele>
        <time>2013-08-15T10:41:43Z</time>
      </trkpt>
      <trkpt lat="45.07198" lon="5.55189">
        <ele>1019.13</ele>
        <time>2013-08-15T10:42:00Z</time>
      </trkpt>
      <trkpt lat="45.07168" lon="5.55159">
        <ele>1020.58</ele>
        <time>2013-08-15T10:42:13Z</time>
      </trkpt>
      <trkpt lat="45.07138" lon="5.55148">
        <ele>1020.58</ele>
        <time>2013-08-15T10:42:23Z</time>
      </trkpt>
      <trkpt lat="45.07135" lon="5.55148">
        <ele>1021.06</ele>
        <time>2013-08-15T10:42:24Z</time>
      </trkpt>
      <trkpt lat="45.07132" lon="5.55147">
        <ele>1021.06</ele>
        <time>2013-08-15T10:42:25Z</time>
      </trkpt>
      <trkpt lat="45.07087" lon="5.55116">
        <ele>1020.58</ele>
        <time>2013-08-15T10:42:39Z</time>
      </trkpt>
      <trkpt lat="45.07083" lon="5.5511">
        <ele>1020.58</ele>
        <time>2013-08-15T10:42:41Z</time>
      </trkpt>
      <trkpt lat="45.07082" lon="5.55107">
        <ele>1020.58</ele>
        <time>2013-08-15T10:42:42Z</time>
      </trkpt>
      <trkpt lat="45.07082" lon="5.55102">
        <ele>1020.1</ele>
        <time>2013-08-15T10:42:43Z</time>
      </trkpt>
      <trkpt lat="45.07084" lon="5.55096">
        <ele>1019.62</ele>
        <time>2013-08-15T10:42:44Z</time>
      </trkpt>
      <trkpt lat="45.07087" lon="5.5509">
        <ele>1019.13</ele>
        <time>2013-08-15T10:42:45Z</time>
      </trkpt>
      <trkpt lat="45.07089" lon="5.55084">
        <ele>1019.13</ele>
        <time>2013-08-15T10:42:46Z</time>
      </trkpt>
      <trkpt lat="45.07096" lon="5.55063">
        <ele>1017.69</ele>
        <time>2013-08-15T10:42:49Z</time>
      </trkpt>
      <trkpt lat="45.07103" lon="5.55039">
        <ele>1016.73</ele>
        <time>2013-08-15T10:42:52Z</time>
      </trkpt>
      <trkpt lat="45.07104" lon="5.55031">
        <ele>1016.73</ele>
        <time>2013-08-15T10:42:53Z</time>
      </trkpt>
      <trkpt lat="45.07103" lon="5.55023">
        <ele>1016.25</ele>
        <time>2013-08-15T10:42:54Z</time>
      </trkpt>
      <trkpt lat="45.07101" lon="5.55015">
        <ele>1016.25</ele>
        <time>2013-08-15T10:42:55Z</time>
      </trkpt>
      <trkpt lat="45.07098" lon="5.55008">
        <ele>1015.77</ele>
        <time>2013-08-15T10:42:56Z</time>
      </trkpt>
      <trkpt lat="45.07094" lon="5.55003">
        <ele>1015.77</ele>
        <time>2013-08-15T10:42:57Z</time>
      </trkpt>
      <trkpt lat="45.07089" lon="5.54998">
        <ele>1015.29</ele>
        <time>2013-08-15T10:42:58Z</time>
      </trkpt>
      <trkpt lat="45.07085" lon="5.54994">
        <ele>1015.77</ele>
        <time>2013-08-15T10:42:59Z</time>
      </trkpt>
      <trkpt lat="45.07046" lon="5.5496">
        <ele>1015.77</ele>
        <time>2013-08-15T10:43:11Z</time>
      </trkpt>
      <trkpt lat="45.07031" lon="5.54949">
        <ele>1015.29</ele>
        <time>2013-08-15T10:43:18Z</time>
      </trkpt>
      <trkpt lat="45.0703" lon="5.54948">
        <ele>1015.77</ele>
        <time>2013-08-15T10:43:31Z</time>
      </trkpt>
      <trkpt lat="45.0703" lon="5.54948">
        <ele>1015.77</ele>
        <time>2013-08-15T10:43:54Z</time>
      </trkpt>
      <trkpt lat="45.07028" lon="5.54948">
        <ele>1015.77</ele>
        <time>2013-08-15T10:44:00Z</time>
      </trkpt>
      <trkpt lat="45.07024" lon="5.54947">
        <ele>1015.29</ele>
        <time>2013-08-15T10:44:02Z</time>
      </trkpt>
      <trkpt lat="45.07022" lon="5.54945">
        <ele>1015.29</ele>
        <time>2013-08-15T10:44:03Z</time>
      </trkpt>
      <trkpt lat="45.07016" lon="5.54941">
        <ele>1015.29</ele>
        <time>2013-08-15T10:44:05Z</time>
      </trkpt>
      <trkpt lat="45.07006" lon="5.54932">
        <ele>1014.81</ele>
        <time>2013-08-15T10:44:08Z</time>
      </trkpt>
      <trkpt lat="45.06998" lon="5.54926">
        <ele>1014.81</ele>
        <time>2013-08-15T10:44:10Z</time>
      </trkpt>
      <trkpt lat="45.06994" lon="5.54923">
        <ele>1015.29</ele>
        <time>2013-08-15T10:44:11Z</time>
      </trkpt>
      <trkpt lat="45.06957" lon="5.54907">
        <ele>1014.81</ele>
        <time>2013-08-15T10:44:20Z</time>
      </trkpt>
      <trkpt lat="45.06952" lon="5.54906">
        <ele>1014.81</ele>
        <time>2013-08-15T10:44:21Z</time>
      </trkpt>
      <trkpt lat="45.06948" lon="5.54905">
        <ele>1014.33</ele>
        <time>2013-08-15T10:44:22Z</time>
      </trkpt>
      <trkpt lat="45.06914" lon="5.54896">
        <ele>1012.89</ele>
        <time>2013-08-15T10:44:32Z</time>
      </trkpt>
      <trkpt lat="45.06911" lon="5.54898">
        <ele>1012.89</ele>
        <time>2013-08-15T10:44:33Z</time>
      </trkpt>
      <trkpt lat="45.06909" lon="5.54903">
        <ele>1012.89</ele>
        <time>2013-08-15T10:44:34Z</time>
      </trkpt>
      <trkpt lat="45.06907" lon="5.5491">
        <ele>1012.41</ele>
        <time>2013-08-15T10:44:35Z</time>
      </trkpt>
      <trkpt lat="45.06905" lon="5.54917">
        <ele>1011.44</ele>
        <time>2013-08-15T10:44:36Z</time>
      </trkpt>
      <trkpt lat="45.06903" lon="5.54926">
        <ele>1010.48</ele>
        <time>2013-08-15T10:44:37Z</time>
      </trkpt>
      <trkpt lat="45.06894" lon="5.54954">
        <ele>1008.08</ele>
        <time>2013-08-15T10:44:40Z</time>
      </trkpt>
      <trkpt lat="45.06888" lon="5.54984">
        <ele>1005.2</ele>
        <time>2013-08-15T10:44:43Z</time>
      </trkpt>
      <trkpt lat="45.06884" lon="5.54993">
        <ele>1003.75</ele>
        <time>2013-08-15T10:44:44Z</time>
      </trkpt>
      <trkpt lat="45.0687" lon="5.55023">
        <ele>999.91</ele>
        <time>2013-08-15T10:44:47Z</time>
      </trkpt>
      <trkpt lat="45.06854" lon="5.55058">
        <ele>996.06</ele>
        <time>2013-08-15T10:44:50Z</time>
      </trkpt>
      <trkpt lat="45.06839" lon="5.55098">
        <ele>993.66</ele>
        <time>2013-08-15T10:44:53Z</time>
      </trkpt>
      <trkpt lat="45.06827" lon="5.55133">
        <ele>993.66</ele>
        <time>2013-08-15T10:44:56Z</time>
      </trkpt>
      <trkpt lat="45.06822" lon="5.55141">
        <ele>993.66</ele>
        <time>2013-08-15T10:44:57Z</time>
      </trkpt>
      <trkpt lat="45.06818" lon="5.55146">
        <ele>993.66</ele>
        <time>2013-08-15T10:44:58Z</time>
      </trkpt>
      <trkpt lat="45.06814" lon="5.55148">
        <ele>994.14</ele>
        <time>2013-08-15T10:44:59Z</time>
      </trkpt>
      <trkpt lat="45.0681" lon="5.55149">
        <ele>994.62</ele>
        <time>2013-08-15T10:45:00Z</time>
      </trkpt>
      <trkpt lat="45.06806" lon="5.55152">
        <ele>994.62</ele>
        <time>2013-08-15T10:45:01Z</time>
      </trkpt>
      <trkpt lat="45.06804" lon="5.55155">
        <ele>994.62</ele>
        <time>2013-08-15T10:45:02Z</time>
      </trkpt>
      <trkpt lat="45.06803" lon="5.55158">
        <ele>995.1</ele>
        <time>2013-08-15T10:45:03Z</time>
      </trkpt>
      <trkpt lat="45.06802" lon="5.5516">
        <ele>995.1</ele>
        <time>2013-08-15T10:45:04Z</time>
      </trkpt>
      <trkpt lat="45.06803" lon="5.55162">
        <ele>995.1</ele>
        <time>2013-08-15T10:45:16Z</time>
      </trkpt>
      <trkpt lat="45.06805" lon="5.55164">
        <ele>995.1</ele>
        <time>2013-08-15T10:45:18Z</time>
      </trkpt>
      <trkpt lat="45.06805" lon="5.55166">
        <ele>995.1</ele>
        <time>2013-08-15T10:45:19Z</time>
      </trkpt>
      <trkpt lat="45.06799" lon="5.55211">
        <ele>996.06</ele>
        <time>2013-08-15T10:45:29Z</time>
      </trkpt>
      <trkpt lat="45.06774" lon="5.55233">
        <ele>997.51</ele>
        <time>2013-08-15T10:45:39Z</time>
      </trkpt>
      <trkpt lat="45.06752" lon="5.5523">
        <ele>997.99</ele>
        <time>2013-08-15T10:45:45Z</time>
      </trkpt>
      <trkpt lat="45.06751" lon="5.55227">
        <ele>998.47</ele>
        <time>2013-08-15T10:45:46Z</time>
      </trkpt>
      <trkpt lat="45.0675" lon="5.55222">
        <ele>997.99</ele>
        <time>2013-08-15T10:45:47Z</time>
      </trkpt>
      <trkpt lat="45.06751" lon="5.55216">
        <ele>997.99</ele>
        <time>2013-08-15T10:45:48Z</time>
      </trkpt>
      <trkpt lat="45.06751" lon="5.55211">
        <ele>997.99</ele>
        <time>2013-08-15T10:45:49Z</time>
      </trkpt>
      <trkpt lat="45.06751" lon="5.55204">
        <ele>997.51</ele>
        <time>2013-08-15T10:45:50Z</time>
      </trkpt>
      <trkpt lat="45.06751" lon="5.55165">
        <ele>995.58</ele>
        <time>2013-08-15T10:45:55Z</time>
      </trkpt>
      <trkpt lat="45.06753" lon="5.55087">
        <ele>992.7</ele>
        <time>2013-08-15T10:46:04Z</time>
      </trkpt>
      <trkpt lat="45.06754" lon="5.55002">
        <ele>989.81</ele>
        <time>2013-08-15T10:46:12Z</time>
      </trkpt>
      <trkpt lat="45.06756" lon="5.54934">
        <ele>986.45</ele>
        <time>2013-08-15T10:46:18Z</time>
      </trkpt>
      <trkpt lat="45.06756" lon="5.54912">
        <ele>985.97</ele>
        <time>2013-08-15T10:46:20Z</time>
      </trkpt>
      <trkpt lat="45.06758" lon="5.54829">
        <ele>983.09</ele>
        <time>2013-08-15T10:46:28Z</time>
      </trkpt>
      <trkpt lat="45.06755" lon="5.54738">
        <ele>979.24</ele>
        <time>2013-08-15T10:46:37Z</time>
      </trkpt>
      <trkpt lat="45.06753" lon="5.54716">
        <ele>978.28</ele>
        <time>2013-08-15T10:46:39Z</time>
      </trkpt>
      <trkpt lat="45.06744" lon="5.54675">
        <ele>976.84</ele>
        <time>2013-08-15T10:46:43Z</time>
      </trkpt>
      <trkpt lat="45.06741" lon="5.54665">
        <ele>976.84</ele>
        <time>2013-08-15T10:46:44Z</time>
      </trkpt>
      <trkpt lat="45.0673" lon="5.5462">
        <ele>975.39</ele>
        <time>2013-08-15T10:46:49Z</time>
      </trkpt>
      <trkpt lat="45.0673" lon="5.54611">
        <ele>975.39</ele>
        <time>2013-08-15T10:46:50Z</time>
      </trkpt>
      <trkpt lat="45.06728" lon="5.54603">
        <ele>975.39</ele>
        <time>2013-08-15T10:46:51Z</time>
      </trkpt>
      <trkpt lat="45.06724" lon="5.54597">
        <ele>975.39</ele>
        <time>2013-08-15T10:46:52Z</time>
      </trkpt>
      <trkpt lat="45.06719" lon="5.54596">
        <ele>975.39</ele>
        <time>2013-08-15T10:46:53Z</time>
      </trkpt>
      <trkpt lat="45.06714" lon="5.54599">
        <ele>975.88</ele>
        <time>2013-08-15T10:46:54Z</time>
      </trkpt>
      <trkpt lat="45.06709" lon="5.54602">
        <ele>975.39</ele>
        <time>2013-08-15T10:46:55Z</time>
      </trkpt>
      <trkpt lat="45.06704" lon="5.54606">
        <ele>975.39</ele>
        <time>2013-08-15T10:46:56Z</time>
      </trkpt>
      <trkpt lat="45.06698" lon="5.54609">
        <ele>975.39</ele>
        <time>2013-08-15T10:46:57Z</time>
      </trkpt>
      <trkpt lat="45.06693" lon="5.54611">
        <ele>975.39</ele>
        <time>2013-08-15T10:46:58Z</time>
      </trkpt>
      <trkpt lat="45.06612" lon="5.54638">
        <ele>975.39</ele>
        <time>2013-08-15T10:47:12Z</time>
      </trkpt>
      <trkpt lat="45.06595" lon="5.54637">
        <ele>975.88</ele>
        <time>2013-08-15T10:47:16Z</time>
      </trkpt>
      <trkpt lat="45.06527" lon="5.54621">
        <ele>977.32</ele>
        <time>2013-08-15T10:47:31Z</time>
      </trkpt>
      <trkpt lat="45.06484" lon="5.54611">
        <ele>980.2</ele>
        <time>2013-08-15T10:47:44Z</time>
      </trkpt>
      <trkpt lat="45.0644" lon="5.54602">
        <ele>983.09</ele>
        <time>2013-08-15T10:47:56Z</time>
      </trkpt>
      <trkpt lat="45.06394" lon="5.54596">
        <ele>985.97</ele>
        <time>2013-08-15T10:48:09Z</time>
      </trkpt>
      <trkpt lat="45.06342" lon="5.54605">
        <ele>988.85</ele>
        <time>2013-08-15T10:48:23Z</time>
      </trkpt>
      <trkpt lat="45.06278" lon="5.5465">
        <ele>988.37</ele>
        <time>2013-08-15T10:48:38Z</time>
      </trkpt>
      <trkpt lat="45.06205" lon="5.5469">
        <ele>989.33</ele>
        <time>2013-08-15T10:48:53Z</time>
      </trkpt>
      <trkpt lat="45.06168" lon="5.54689">
        <ele>989.33</ele>
        <time>2013-08-15T10:49:00Z</time>
      </trkpt>
      <trkpt lat="45.06163" lon="5.54687">
        <ele>989.33</ele>
        <time>2013-08-15T10:49:01Z</time>
      </trkpt>
      <trkpt lat="45.06084" lon="5.54648">
        <ele>990.78</ele>
        <time>2013-08-15T10:49:17Z</time>
      </trkpt>
      <trkpt lat="45.06058" lon="5.54632">
        <ele>991.74</ele>
        <time>2013-08-15T10:49:23Z</time>
      </trkpt>
      <trkpt lat="45.05973" lon="5.54562">
        <ele>994.14</ele>
        <time>2013-08-15T10:49:43Z</time>
      </trkpt>
      <trkpt lat="45.05906" lon="5.54528">
        <ele>996.06</ele>
        <time>2013-08-15T10:49:58Z</time>
      </trkpt>
      <trkpt lat="45.05844" lon="5.54526">
        <ele>997.02</ele>
        <time>2013-08-15T10:50:12Z</time>
      </trkpt>
      <trkpt lat="45.05771" lon="5.54529">
        <ele>997.02</ele>
        <time>2013-08-15T10:50:28Z</time>
      </trkpt>
      <trkpt lat="45.0571" lon="5.54531">
        <ele>999.43</ele>
        <time>2013-08-15T10:50:43Z</time>
      </trkpt>
      <trkpt lat="45.05679" lon="5.54534">
        <ele>1002.79</ele>
        <time>2013-08-15T10:50:55Z</time>
      </trkpt>
      <trkpt lat="45.05662" lon="5.54537">
        <ele>1004.72</ele>
        <time>2013-08-15T10:51:02Z</time>
      </trkpt>
      <trkpt lat="45.05645" lon="5.54539">
        <ele>1006.16</ele>
        <time>2013-08-15T10:51:09Z</time>
      </trkpt>
      <trkpt lat="45.05618" lon="5.54547">
        <ele>1009.04</ele>
        <time>2013-08-15T10:51:21Z</time>
      </trkpt>
      <trkpt lat="45.05597" lon="5.54554">
        <ele>1011.44</ele>
        <time>2013-08-15T10:51:34Z</time>
      </trkpt>
      <trkpt lat="45.05595" lon="5.54556">
        <ele>1011.44</ele>
        <time>2013-08-15T10:51:36Z</time>
      </trkpt>
      <trkpt lat="45.05574" lon="5.54563">
        <ele>1013.85</ele>
        <time>2013-08-15T10:51:49Z</time>
      </trkpt>
      <trkpt lat="45.05554" lon="5.54572">
        <ele>1016.25</ele>
        <time>2013-08-15T10:52:02Z</time>
      </trkpt>
      <trkpt lat="45.05532" lon="5.54577">
        <ele>1018.17</ele>
        <time>2013-08-15T10:52:15Z</time>
      </trkpt>
      <trkpt lat="45.05524" lon="5.54578">
        <ele>1019.13</ele>
        <time>2013-08-15T10:52:20Z</time>
      </trkpt>
      <trkpt lat="45.05507" lon="5.54581">
        <ele>1021.06</ele>
        <time>2013-08-15T10:52:31Z</time>
      </trkpt>
      <trkpt lat="45.05486" lon="5.54588">
        <ele>1022.98</ele>
        <time>2013-08-15T10:52:43Z</time>
      </trkpt>
      <trkpt lat="45.05465" lon="5.54595">
        <ele>1026.34</ele>
        <time>2013-08-15T10:52:57Z</time>
      </trkpt>
      <trkpt lat="45.05447" lon="5.54601">
        <ele>1028.27</ele>
        <time>2013-08-15T10:53:09Z</time>
      </trkpt>
      <trkpt lat="45.05427" lon="5.5461">
        <ele>1030.67</ele>
        <time>2013-08-15T10:53:22Z</time>
      </trkpt>
      <trkpt lat="45.05405" lon="5.54622">
        <ele>1033.55</ele>
        <time>2013-08-15T10:53:37Z</time>
      </trkpt>
      <trkpt lat="45.05388" lon="5.5463">
        <ele>1035</ele>
        <time>2013-08-15T10:53:48Z</time>
      </trkpt>
      <trkpt lat="45.05365" lon="5.54645">
        <ele>1037.88</ele>
        <time>2013-08-15T10:54:03Z</time>
      </trkpt>
      <trkpt lat="45.05342" lon="5.54659">
        <ele>1040.76</ele>
        <time>2013-08-15T10:54:18Z</time>
      </trkpt>
      <trkpt lat="45.05334" lon="5.54666">
        <ele>1041.73</ele>
        <time>2013-08-15T10:54:24Z</time>
      </trkpt>
      <trkpt lat="45.05333" lon="5.54668">
        <ele>1041.73</ele>
        <time>2013-08-15T10:54:25Z</time>
      </trkpt>
      <trkpt lat="45.05312" lon="5.5469">
        <ele>1044.61</ele>
        <time>2013-08-15T10:54:41Z</time>
      </trkpt>
      <trkpt lat="45.05292" lon="5.54709">
        <ele>1046.53</ele>
        <time>2013-08-15T10:54:56Z</time>
      </trkpt>
      <trkpt lat="45.05267" lon="5.54719">
        <ele>1049.42</ele>
        <time>2013-08-15T10:55:13Z</time>
      </trkpt>
      <trkpt lat="45.05244" lon="5.54714">
        <ele>1051.82</ele>
        <time>2013-08-15T10:55:27Z</time>
      </trkpt>
      <trkpt lat="45.05227" lon="5.547">
        <ele>1050.86</ele>
        <time>2013-08-15T10:55:40Z</time>
      </trkpt>
      <trkpt lat="45.05225" lon="5.54698">
        <ele>1054.22</ele>
        <time>2013-08-15T10:55:41Z</time>
      </trkpt>
      <trkpt lat="45.05224" lon="5.54697">
        <ele>1054.22</ele>
        <time>2013-08-15T10:55:42Z</time>
      </trkpt>
      <trkpt lat="45.05206" lon="5.5468">
        <ele>1056.63</ele>
        <time>2013-08-15T10:55:55Z</time>
      </trkpt>
      <trkpt lat="45.0518" lon="5.54671">
        <ele>1058.55</ele>
        <time>2013-08-15T10:56:11Z</time>
      </trkpt>
      <trkpt lat="45.05155" lon="5.54676">
        <ele>1059.99</ele>
        <time>2013-08-15T10:56:26Z</time>
      </trkpt>
      <trkpt lat="45.05133" lon="5.54685">
        <ele>1061.91</ele>
        <time>2013-08-15T10:56:40Z</time>
      </trkpt>
      <trkpt lat="45.0513" lon="5.54686">
        <ele>1061.91</ele>
        <time>2013-08-15T10:56:42Z</time>
      </trkpt>
      <trkpt lat="45.05129" lon="5.54687">
        <ele>1061.91</ele>
        <time>2013-08-15T10:56:43Z</time>
      </trkpt>
      <trkpt lat="45.051" lon="5.54699">
        <ele>1063.84</ele>
        <time>2013-08-15T10:57:00Z</time>
      </trkpt>
      <trkpt lat="45.05072" lon="5.54711">
        <ele>1065.76</ele>
        <time>2013-08-15T10:57:17Z</time>
      </trkpt>
      <trkpt lat="45.05071" lon="5.54712">
        <ele>1065.76</ele>
        <time>2013-08-15T10:57:18Z</time>
      </trkpt>
      <trkpt lat="45.05069" lon="5.54712">
        <ele>1066.24</ele>
        <time>2013-08-15T10:57:19Z</time>
      </trkpt>
      <trkpt lat="45.05068" lon="5.54713">
        <ele>1066.24</ele>
        <time>2013-08-15T10:57:20Z</time>
      </trkpt>
      <trkpt lat="45.05066" lon="5.54714">
        <ele>1066.24</ele>
        <time>2013-08-15T10:57:21Z</time>
      </trkpt>
      <trkpt lat="45.05065" lon="5.54715">
        <ele>1066.72</ele>
        <time>2013-08-15T10:57:22Z</time>
      </trkpt>
      <trkpt lat="45.05063" lon="5.54715">
        <ele>1066.72</ele>
        <time>2013-08-15T10:57:23Z</time>
      </trkpt>
      <trkpt lat="45.05061" lon="5.54716">
        <ele>1066.72</ele>
        <time>2013-08-15T10:57:24Z</time>
      </trkpt>
      <trkpt lat="45.0506" lon="5.54717">
        <ele>1066.72</ele>
        <time>2013-08-15T10:57:25Z</time>
      </trkpt>
      <trkpt lat="45.05036" lon="5.54727">
        <ele>1068.16</ele>
        <time>2013-08-15T10:57:40Z</time>
      </trkpt>
      <trkpt lat="45.05008" lon="5.54739">
        <ele>1070.57</ele>
        <time>2013-08-15T10:57:56Z</time>
      </trkpt>
      <trkpt lat="45.0498" lon="5.54751">
        <ele>1072.49</ele>
        <time>2013-08-15T10:58:12Z</time>
      </trkpt>
      <trkpt lat="45.0496" lon="5.5476">
        <ele>1073.45</ele>
        <time>2013-08-15T10:58:23Z</time>
      </trkpt>
      <trkpt lat="45.04935" lon="5.54773">
        <ele>1075.37</ele>
        <time>2013-08-15T10:58:36Z</time>
      </trkpt>
      <trkpt lat="45.04905" lon="5.5479">
        <ele>1076.81</ele>
        <time>2013-08-15T10:58:50Z</time>
      </trkpt>
      <trkpt lat="45.04883" lon="5.54806">
        <ele>1078.74</ele>
        <time>2013-08-15T10:59:03Z</time>
      </trkpt>
      <trkpt lat="45.04861" lon="5.54822">
        <ele>1080.18</ele>
        <time>2013-08-15T10:59:16Z</time>
      </trkpt>
      <trkpt lat="45.04836" lon="5.5484">
        <ele>1082.1</ele>
        <time>2013-08-15T10:59:31Z</time>
      </trkpt>
      <trkpt lat="45.04815" lon="5.54863">
        <ele>1083.54</ele>
        <time>2013-08-15T10:59:46Z</time>
      </trkpt>
      <trkpt lat="45.04799" lon="5.54901">
        <ele>1085.47</ele>
        <time>2013-08-15T11:00:03Z</time>
      </trkpt>
      <trkpt lat="45.04781" lon="5.54944">
        <ele>1087.39</ele>
        <time>2013-08-15T11:00:22Z</time>
      </trkpt>
      <trkpt lat="45.04768" lon="5.54976">
        <ele>1089.31</ele>
        <time>2013-08-15T11:00:36Z</time>
      </trkpt>
      <trkpt lat="45.04759" lon="5.55016">
        <ele>1091.23</ele>
        <time>2013-08-15T11:00:53Z</time>
      </trkpt>
      <trkpt lat="45.04759" lon="5.5504">
        <ele>1092.68</ele>
        <time>2013-08-15T11:01:02Z</time>
      </trkpt>
      <trkpt lat="45.0476" lon="5.55042">
        <ele>1092.68</ele>
        <time>2013-08-15T11:01:03Z</time>
      </trkpt>
      <trkpt lat="45.04763" lon="5.55078">
        <ele>1094.6</ele>
        <time>2013-08-15T11:01:18Z</time>
      </trkpt>
      <trkpt lat="45.04767" lon="5.55116">
        <ele>1097</ele>
        <time>2013-08-15T11:01:33Z</time>
      </trkpt>
      <trkpt lat="45.04771" lon="5.55153">
        <ele>1098.44</ele>
        <time>2013-08-15T11:01:48Z</time>
      </trkpt>
      <trkpt lat="45.04775" lon="5.55186">
        <ele>1100.37</ele>
        <time>2013-08-15T11:02:02Z</time>
      </trkpt>
      <trkpt lat="45.04778" lon="5.55223">
        <ele>1103.25</ele>
        <time>2013-08-15T11:02:17Z</time>
      </trkpt>
      <trkpt lat="45.04782" lon="5.55254">
        <ele>1104.69</ele>
        <time>2013-08-15T11:02:30Z</time>
      </trkpt>
      <trkpt lat="45.04783" lon="5.55256">
        <ele>1104.69</ele>
        <time>2013-08-15T11:02:31Z</time>
      </trkpt>
      <trkpt lat="45.04787" lon="5.55299">
        <ele>1107.58</ele>
        <time>2013-08-15T11:02:49Z</time>
      </trkpt>
      <trkpt lat="45.04791" lon="5.55332">
        <ele>1109.5</ele>
        <time>2013-08-15T11:03:03Z</time>
      </trkpt>
      <trkpt lat="45.04795" lon="5.55367">
        <ele>1111.9</ele>
        <time>2013-08-15T11:03:17Z</time>
      </trkpt>
      <trkpt lat="45.04797" lon="5.5538">
        <ele>1112.86</ele>
        <time>2013-08-15T11:03:22Z</time>
      </trkpt>
      <trkpt lat="45.04802" lon="5.55422">
        <ele>1114.79</ele>
        <time>2013-08-15T11:03:39Z</time>
      </trkpt>
      <trkpt lat="45.04806" lon="5.55457">
        <ele>1117.19</ele>
        <time>2013-08-15T11:03:53Z</time>
      </trkpt>
      <trkpt lat="45.04812" lon="5.55494">
        <ele>1119.11</ele>
        <time>2013-08-15T11:04:08Z</time>
      </trkpt>
      <trkpt lat="45.04818" lon="5.5553">
        <ele>1120.55</ele>
        <time>2013-08-15T11:04:22Z</time>
      </trkpt>
      <trkpt lat="45.04829" lon="5.55563">
        <ele>1123.44</ele>
        <time>2013-08-15T11:04:37Z</time>
      </trkpt>
      <trkpt lat="45.04843" lon="5.55596">
        <ele>1126.32</ele>
        <time>2013-08-15T11:04:53Z</time>
      </trkpt>
      <trkpt lat="45.04856" lon="5.55627">
        <ele>1129.21</ele>
        <time>2013-08-15T11:05:08Z</time>
      </trkpt>
      <trkpt lat="45.04856" lon="5.55659">
        <ele>1132.09</ele>
        <time>2013-08-15T11:05:22Z</time>
      </trkpt>
      <trkpt lat="45.04836" lon="5.55667">
        <ele>1133.53</ele>
        <time>2013-08-15T11:05:34Z</time>
      </trkpt>
      <trkpt lat="45.04814" lon="5.55666">
        <ele>1134.97</ele>
        <time>2013-08-15T11:05:46Z</time>
      </trkpt>
      <trkpt lat="45.04785" lon="5.55675">
        <ele>1135.94</ele>
        <time>2013-08-15T11:05:58Z</time>
      </trkpt>
      <trkpt lat="45.04749" lon="5.55684">
        <ele>1138.82</ele>
        <time>2013-08-15T11:06:12Z</time>
      </trkpt>
      <trkpt lat="45.04708" lon="5.55689">
        <ele>1141.22</ele>
        <time>2013-08-15T11:06:28Z</time>
      </trkpt>
      <trkpt lat="45.04701" lon="5.55687">
        <ele>1141.7</ele>
        <time>2013-08-15T11:06:32Z</time>
      </trkpt>
      <trkpt lat="45.04685" lon="5.55685">
        <ele>1142.18</ele>
        <time>2013-08-15T11:06:42Z</time>
      </trkpt>
      <trkpt lat="45.04683" lon="5.55683">
        <ele>1142.66</ele>
        <time>2013-08-15T11:06:43Z</time>
      </trkpt>
      <trkpt lat="45.04655" lon="5.55664">
        <ele>1144.11</ele>
        <time>2013-08-15T11:06:57Z</time>
      </trkpt>
      <trkpt lat="45.04626" lon="5.55654">
        <ele>1145.07</ele>
        <time>2013-08-15T11:07:10Z</time>
      </trkpt>
      <trkpt lat="45.04608" lon="5.55674">
        <ele>1145.55</ele>
        <time>2013-08-15T11:07:22Z</time>
      </trkpt>
      <trkpt lat="45.04605" lon="5.55685">
        <ele>1146.03</ele>
        <time>2013-08-15T11:07:27Z</time>
      </trkpt>
      <trkpt lat="45.04605" lon="5.55687">
        <ele>1145.55</ele>
        <time>2013-08-15T11:07:28Z</time>
      </trkpt>
      <trkpt lat="45.04605" lon="5.55689">
        <ele>1145.55</ele>
        <time>2013-08-15T11:07:29Z</time>
      </trkpt>
      <trkpt lat="45.04605" lon="5.5569">
        <ele>1145.55</ele>
        <time>2013-08-15T11:07:30Z</time>
      </trkpt>
      <trkpt lat="45.04605" lon="5.55692">
        <ele>1145.55</ele>
        <time>2013-08-15T11:07:31Z</time>
      </trkpt>
      <trkpt lat="45.04605" lon="5.55694">
        <ele>1145.55</ele>
        <time>2013-08-15T11:07:32Z</time>
      </trkpt>
      <trkpt lat="45.04606" lon="5.55696">
        <ele>1145.55</ele>
        <time>2013-08-15T11:07:33Z</time>
      </trkpt>
      <trkpt lat="45.04606" lon="5.55697">
        <ele>1145.55</ele>
        <time>2013-08-15T11:07:34Z</time>
      </trkpt>
      <trkpt lat="45.04607" lon="5.55699">
        <ele>1146.03</ele>
        <time>2013-08-15T11:07:35Z</time>
      </trkpt>
      <trkpt lat="45.04624" lon="5.55717">
        <ele>1146.03</ele>
        <time>2013-08-15T11:07:49Z</time>
      </trkpt>
      <trkpt lat="45.04629" lon="5.55722">
        <ele>1146.03</ele>
        <time>2013-08-15T11:07:53Z</time>
      </trkpt>
      <trkpt lat="45.0463" lon="5.55722">
        <ele>1146.51</ele>
        <time>2013-08-15T11:07:54Z</time>
      </trkpt>
      <trkpt lat="45.04632" lon="5.55722">
        <ele>1146.03</ele>
        <time>2013-08-15T11:07:55Z</time>
      </trkpt>
      <trkpt lat="45.04633" lon="5.55721">
        <ele>1146.51</ele>
        <time>2013-08-15T11:07:56Z</time>
      </trkpt>
      <trkpt lat="45.04635" lon="5.55721">
        <ele>1146.51</ele>
        <time>2013-08-15T11:07:57Z</time>
      </trkpt>
      <trkpt lat="45.04636" lon="5.5572">
        <ele>1146.51</ele>
        <time>2013-08-15T11:07:58Z</time>
      </trkpt>
      <trkpt lat="45.04645" lon="5.55719">
        <ele>1146.99</ele>
        <time>2013-08-15T11:08:03Z</time>
      </trkpt>
      <trkpt lat="45.04646" lon="5.55719">
        <ele>1147.47</ele>
        <time>2013-08-15T11:08:04Z</time>
      </trkpt>
      <trkpt lat="45.04648" lon="5.55719">
        <ele>1147.47</ele>
        <time>2013-08-15T11:08:05Z</time>
      </trkpt>
      <trkpt lat="45.04649" lon="5.55719">
        <ele>1147.47</ele>
        <time>2013-08-15T11:08:06Z</time>
      </trkpt>
      <trkpt lat="45.04651" lon="5.55719">
        <ele>1147.47</ele>
        <time>2013-08-15T11:08:07Z</time>
      </trkpt>
      <trkpt lat="45.04652" lon="5.55717">
        <ele>1147.47</ele>
        <time>2013-08-15T11:08:08Z</time>
      </trkpt>
      <trkpt lat="45.04653" lon="5.55716">
        <ele>1147.95</ele>
        <time>2013-08-15T11:08:09Z</time>
      </trkpt>
      <trkpt lat="45.04654" lon="5.55714">
        <ele>1147.47</ele>
        <time>2013-08-15T11:08:10Z</time>
      </trkpt>
      <trkpt lat="45.04655" lon="5.55712">
        <ele>1147.95</ele>
        <time>2013-08-15T11:08:11Z</time>
      </trkpt>
      <trkpt lat="45.04654" lon="5.55709">
        <ele>1147.95</ele>
        <time>2013-08-15T11:08:12Z</time>
      </trkpt>
      <trkpt lat="45.04652" lon="5.55707">
        <ele>1147.95</ele>
        <time>2013-08-15T11:08:13Z</time>
      </trkpt>
      <trkpt lat="45.04649" lon="5.55706">
        <ele>1147.47</ele>
        <time>2013-08-15T11:08:14Z</time>
      </trkpt>
      <trkpt lat="45.04645" lon="5.55705">
        <ele>1147.47</ele>
        <time>2013-08-15T11:08:15Z</time>
      </trkpt>
      <trkpt lat="45.04641" lon="5.55703">
        <ele>1146.99</ele>
        <time>2013-08-15T11:08:16Z</time>
      </trkpt>
      <trkpt lat="45.04637" lon="5.557">
        <ele>1146.51</ele>
        <time>2013-08-15T11:08:17Z</time>
      </trkpt>
      <trkpt lat="45.04632" lon="5.55697">
        <ele>1145.55</ele>
        <time>2013-08-15T11:08:18Z</time>
      </trkpt>
      <trkpt lat="45.04627" lon="5.55692">
        <ele>1145.07</ele>
        <time>2013-08-15T11:08:19Z</time>
      </trkpt>
      <trkpt lat="45.04623" lon="5.55686">
        <ele>1145.07</ele>
        <time>2013-08-15T11:08:20Z</time>
      </trkpt>
      <trkpt lat="45.04619" lon="5.55681">
        <ele>1144.59</ele>
        <time>2013-08-15T11:08:21Z</time>
      </trkpt>
      <trkpt lat="45.04614" lon="5.5568">
        <ele>1144.59</ele>
        <time>2013-08-15T11:08:22Z</time>
      </trkpt>
      <trkpt lat="45.0461" lon="5.55681">
        <ele>1145.07</ele>
        <time>2013-08-15T11:08:23Z</time>
      </trkpt>
      <trkpt lat="45.04607" lon="5.55686">
        <ele>1145.55</ele>
        <time>2013-08-15T11:08:24Z</time>
      </trkpt>
      <trkpt lat="45.04605" lon="5.55692">
        <ele>1145.55</ele>
        <time>2013-08-15T11:08:25Z</time>
      </trkpt>
      <trkpt lat="45.04605" lon="5.55698">
        <ele>1145.55</ele>
        <time>2013-08-15T11:08:26Z</time>
      </trkpt>
      <trkpt lat="45.04604" lon="5.55703">
        <ele>1145.55</ele>
        <time>2013-08-15T11:08:27Z</time>
      </trkpt>
      <trkpt lat="45.04604" lon="5.55707">
        <ele>1146.03</ele>
        <time>2013-08-15T11:08:28Z</time>
      </trkpt>
      <trkpt lat="45.04605" lon="5.55711">
        <ele>1146.03</ele>
        <time>2013-08-15T11:08:29Z</time>
      </trkpt>
      <trkpt lat="45.04605" lon="5.55714">
        <ele>1146.03</ele>
        <time>2013-08-15T11:08:30Z</time>
      </trkpt>
      <trkpt lat="45.04607" lon="5.55717">
        <ele>1146.03</ele>
        <time>2013-08-15T11:08:31Z</time>
      </trkpt>
      <trkpt lat="45.04612" lon="5.55723">
        <ele>1146.51</ele>
        <time>2013-08-15T11:08:34Z</time>
      </trkpt>
      <trkpt lat="45.04611" lon="5.55725">
        <ele>1146.51</ele>
        <time>2013-08-15T11:08:45Z</time>
      </trkpt>
      <trkpt lat="45.04611" lon="5.55726">
        <ele>1146.51</ele>
        <time>2013-08-15T11:09:03Z</time>
      </trkpt>
      <trkpt lat="45.04611" lon="5.55735">
        <ele>1146.51</ele>
        <time>2013-08-15T11:09:06Z</time>
      </trkpt>
      <trkpt lat="45.04612" lon="5.55757">
        <ele>1146.99</ele>
        <time>2013-08-15T11:09:13Z</time>
      </trkpt>
      <trkpt lat="45.04612" lon="5.5576">
        <ele>1146.99</ele>
        <time>2013-08-15T11:09:14Z</time>
      </trkpt>
      <trkpt lat="45.04612" lon="5.55763">
        <ele>1146.99</ele>
        <time>2013-08-15T11:09:15Z</time>
      </trkpt>
      <trkpt lat="45.04611" lon="5.55767">
        <ele>1146.99</ele>
        <time>2013-08-15T11:09:16Z</time>
      </trkpt>
      <trkpt lat="45.0461" lon="5.55771">
        <ele>1146.99</ele>
        <time>2013-08-15T11:09:17Z</time>
      </trkpt>
      <trkpt lat="45.04599" lon="5.55811">
        <ele>1148.43</ele>
        <time>2013-08-15T11:09:29Z</time>
      </trkpt>
      <trkpt lat="45.04585" lon="5.55847">
        <ele>1149.87</ele>
        <time>2013-08-15T11:09:41Z</time>
      </trkpt>
      <trkpt lat="45.04575" lon="5.55892">
        <ele>1150.84</ele>
        <time>2013-08-15T11:09:56Z</time>
      </trkpt>
      <trkpt lat="45.04559" lon="5.5594">
        <ele>1152.76</ele>
        <time>2013-08-15T11:10:11Z</time>
      </trkpt>
      <trkpt lat="45.0455" lon="5.55987">
        <ele>1154.2</ele>
        <time>2013-08-15T11:10:26Z</time>
      </trkpt>
      <trkpt lat="45.04534" lon="5.56009">
        <ele>1155.16</ele>
        <time>2013-08-15T11:10:36Z</time>
      </trkpt>
      <trkpt lat="45.04511" lon="5.5602">
        <ele>1155.64</ele>
        <time>2013-08-15T11:10:47Z</time>
      </trkpt>
      <trkpt lat="45.0451" lon="5.56024">
        <ele>1155.64</ele>
        <time>2013-08-15T11:10:59Z</time>
      </trkpt>
      <trkpt lat="45.0451" lon="5.56024">
        <ele>1155.16</ele>
        <time>2013-08-15T11:11:26Z</time>
      </trkpt>
      <trkpt lat="45.0451" lon="5.56024">
        <ele>1155.64</ele>
        <time>2013-08-15T11:11:54Z</time>
      </trkpt>
      <trkpt lat="45.0451" lon="5.56024">
        <ele>1155.64</ele>
        <time>2013-08-15T11:12:21Z</time>
      </trkpt>
      <trkpt lat="45.04511" lon="5.56024">
        <ele>1155.64</ele>
        <time>2013-08-15T11:12:36Z</time>
      </trkpt>
      <trkpt lat="45.04537" lon="5.56021">
        <ele>1158.05</ele>
        <time>2013-08-15T11:12:48Z</time>
      </trkpt>
      <trkpt lat="45.04539" lon="5.56019">
        <ele>1158.53</ele>
        <time>2013-08-15T11:12:50Z</time>
      </trkpt>
      <trkpt lat="45.04547" lon="5.56013">
        <ele>1158.53</ele>
        <time>2013-08-15T11:12:58Z</time>
      </trkpt>
      <trkpt lat="45.04564" lon="5.55998">
        <ele>1158.53</ele>
        <time>2013-08-15T11:13:12Z</time>
      </trkpt>
      <trkpt lat="45.04563" lon="5.55998">
        <ele>1158.53</ele>
        <time>2013-08-15T11:13:24Z</time>
      </trkpt>
      <trkpt lat="45.04559" lon="5.56004">
        <ele>1158.53</ele>
        <time>2013-08-15T11:13:39Z</time>
      </trkpt>
      <trkpt lat="45.04559" lon="5.56004">
        <ele>1159.01</ele>
        <time>2013-08-15T11:14:01Z</time>
      </trkpt>
      <trkpt lat="45.0456" lon="5.56004">
        <ele>1159.01</ele>
        <time>2013-08-15T11:14:23Z</time>
      </trkpt>
      <trkpt lat="45.04563" lon="5.56002">
        <ele>1159.01</ele>
        <time>2013-08-15T11:14:40Z</time>
      </trkpt>
      <trkpt lat="45.04564" lon="5.56003">
        <ele>1159.01</ele>
        <time>2013-08-15T11:14:49Z</time>
      </trkpt>
      <trkpt lat="45.04441" lon="5.5602">
        <ele>1155.64</ele>
        <time>2013-08-15T12:05:18Z</time>
      </trkpt>
      <trkpt lat="45.04441" lon="5.5602">
        <ele>1155.64</ele>
        <time>2013-08-15T12:05:19Z</time>
      </trkpt>
      <trkpt lat="45.0444" lon="5.56003">
        <ele>1155.64</ele>
        <time>2013-08-15T12:05:42Z</time>
      </trkpt>
      <trkpt lat="45.04444" lon="5.56008">
        <ele>1156.12</ele>
        <time>2013-08-15T12:05:59Z</time>
      </trkpt>
      <trkpt lat="45.04477" lon="5.56018">
        <ele>1156.12</ele>
        <time>2013-08-15T12:06:01Z</time>
      </trkpt>
      <trkpt lat="45.04502" lon="5.56023">
        <ele>1156.12</ele>
        <time>2013-08-15T12:06:02Z</time>
      </trkpt>
      <trkpt lat="45.04494" lon="5.56028">
        <ele>1156.12</ele>
        <time>2013-08-15T12:06:05Z</time>
      </trkpt>
      <trkpt lat="45.04483" lon="5.56037">
        <ele>1159.01</ele>
        <time>2013-08-15T12:06:08Z</time>
      </trkpt>
      <trkpt lat="45.04474" lon="5.56047">
        <ele>1163.81</ele>
        <time>2013-08-15T12:06:10Z</time>
      </trkpt>
      <trkpt lat="45.04472" lon="5.56048">
        <ele>1163.81</ele>
        <time>2013-08-15T12:06:11Z</time>
      </trkpt>
      <trkpt lat="45.04441" lon="5.5605">
        <ele>1169.1</ele>
        <time>2013-08-15T12:06:14Z</time>
      </trkpt>
      <trkpt lat="45.04432" lon="5.56052">
        <ele>1170.06</ele>
        <time>2013-08-15T12:06:15Z</time>
      </trkpt>
      <trkpt lat="45.04425" lon="5.56053">
        <ele>1171.5</ele>
        <time>2013-08-15T12:06:16Z</time>
      </trkpt>
      <trkpt lat="45.04406" lon="5.56057">
        <ele>1175.35</ele>
        <time>2013-08-15T12:06:19Z</time>
      </trkpt>
      <trkpt lat="45.04392" lon="5.56061">
        <ele>1179.67</ele>
        <time>2013-08-15T12:06:22Z</time>
      </trkpt>
      <trkpt lat="45.04383" lon="5.56064">
        <ele>1184.48</ele>
        <time>2013-08-15T12:06:24Z</time>
      </trkpt>
      <trkpt lat="45.04373" lon="5.56067">
        <ele>1189.29</ele>
        <time>2013-08-15T12:06:26Z</time>
      </trkpt>
      <trkpt lat="45.04364" lon="5.56069">
        <ele>1193.13</ele>
        <time>2013-08-15T12:06:28Z</time>
      </trkpt>
      <trkpt lat="45.04355" lon="5.56072">
        <ele>1197.46</ele>
        <time>2013-08-15T12:06:30Z</time>
      </trkpt>
      <trkpt lat="45.04346" lon="5.56075">
        <ele>1201.3</ele>
        <time>2013-08-15T12:06:32Z</time>
      </trkpt>
      <trkpt lat="45.04338" lon="5.56079">
        <ele>1205.15</ele>
        <time>2013-08-15T12:06:34Z</time>
      </trkpt>
      <trkpt lat="45.04329" lon="5.56082">
        <ele>1208.51</ele>
        <time>2013-08-15T12:06:36Z</time>
      </trkpt>
      <trkpt lat="45.04322" lon="5.56085">
        <ele>1211.88</ele>
        <time>2013-08-15T12:06:38Z</time>
      </trkpt>
      <trkpt lat="45.04318" lon="5.56088">
        <ele>1212.84</ele>
        <time>2013-08-15T12:06:39Z</time>
      </trkpt>
      <trkpt lat="45.04314" lon="5.5609">
        <ele>1213.32</ele>
        <time>2013-08-15T12:06:40Z</time>
      </trkpt>
      <trkpt lat="45.04298" lon="5.56096">
        <ele>1218.13</ele>
        <time>2013-08-15T12:06:44Z</time>
      </trkpt>
      <trkpt lat="45.04287" lon="5.56101">
        <ele>1221.97</ele>
        <time>2013-08-15T12:06:47Z</time>
      </trkpt>
      <trkpt lat="45.04279" lon="5.56105">
        <ele>1223.42</ele>
        <time>2013-08-15T12:06:49Z</time>
      </trkpt>
      <trkpt lat="45.04269" lon="5.56112">
        <ele>1226.78</ele>
        <time>2013-08-15T12:06:52Z</time>
      </trkpt>
      <trkpt lat="45.04263" lon="5.56116">
        <ele>1229.66</ele>
        <time>2013-08-15T12:06:54Z</time>
      </trkpt>
      <trkpt lat="45.04252" lon="5.56124">
        <ele>1233.51</ele>
        <time>2013-08-15T12:06:57Z</time>
      </trkpt>
      <trkpt lat="45.04241" lon="5.56132">
        <ele>1236.87</ele>
        <time>2013-08-15T12:07:00Z</time>
      </trkpt>
      <trkpt lat="45.04232" lon="5.56138">
        <ele>1240.72</ele>
        <time>2013-08-15T12:07:03Z</time>
      </trkpt>
      <trkpt lat="45.04222" lon="5.56144">
        <ele>1244.56</ele>
        <time>2013-08-15T12:07:06Z</time>
      </trkpt>
      <trkpt lat="45.04211" lon="5.56151">
        <ele>1248.89</ele>
        <time>2013-08-15T12:07:09Z</time>
      </trkpt>
      <trkpt lat="45.042" lon="5.56157">
        <ele>1253.7</ele>
        <time>2013-08-15T12:07:12Z</time>
      </trkpt>
      <trkpt lat="45.0419" lon="5.56163">
        <ele>1257.54</ele>
        <time>2013-08-15T12:07:15Z</time>
      </trkpt>
      <trkpt lat="45.04181" lon="5.56169">
        <ele>1262.35</ele>
        <time>2013-08-15T12:07:18Z</time>
      </trkpt>
      <trkpt lat="45.0417" lon="5.56176">
        <ele>1266.67</ele>
        <time>2013-08-15T12:07:21Z</time>
      </trkpt>
      <trkpt lat="45.04161" lon="5.56183">
        <ele>1270.52</ele>
        <time>2013-08-15T12:07:24Z</time>
      </trkpt>
      <trkpt lat="45.04152" lon="5.56189">
        <ele>1274.36</ele>
        <time>2013-08-15T12:07:27Z</time>
      </trkpt>
      <trkpt lat="45.04142" lon="5.56195">
        <ele>1278.69</ele>
        <time>2013-08-15T12:07:30Z</time>
      </trkpt>
      <trkpt lat="45.04134" lon="5.562">
        <ele>1281.57</ele>
        <time>2013-08-15T12:07:32Z</time>
      </trkpt>
      <trkpt lat="45.04127" lon="5.56204">
        <ele>1284.94</ele>
        <time>2013-08-15T12:07:34Z</time>
      </trkpt>
      <trkpt lat="45.0412" lon="5.56208">
        <ele>1290.23</ele>
        <time>2013-08-15T12:07:36Z</time>
      </trkpt>
      <trkpt lat="45.0411" lon="5.56214">
        <ele>1294.55</ele>
        <time>2013-08-15T12:07:39Z</time>
      </trkpt>
      <trkpt lat="45.041" lon="5.5622">
        <ele>1298.88</ele>
        <time>2013-08-15T12:07:42Z</time>
      </trkpt>
      <trkpt lat="45.04093" lon="5.56225">
        <ele>1302.24</ele>
        <time>2013-08-15T12:07:44Z</time>
      </trkpt>
      <trkpt lat="45.04086" lon="5.56229">
        <ele>1305.61</ele>
        <time>2013-08-15T12:07:46Z</time>
      </trkpt>
      <trkpt lat="45.0408" lon="5.56233">
        <ele>1308.49</ele>
        <time>2013-08-15T12:07:48Z</time>
      </trkpt>
      <trkpt lat="45.04074" lon="5.56236">
        <ele>1311.86</ele>
        <time>2013-08-15T12:07:50Z</time>
      </trkpt>
      <trkpt lat="45.04067" lon="5.5624">
        <ele>1315.22</ele>
        <time>2013-08-15T12:07:52Z</time>
      </trkpt>
      <trkpt lat="45.0406" lon="5.56244">
        <ele>1318.59</ele>
        <time>2013-08-15T12:07:54Z</time>
      </trkpt>
      <trkpt lat="45.04053" lon="5.56248">
        <ele>1321.95</ele>
        <time>2013-08-15T12:07:56Z</time>
      </trkpt>
      <trkpt lat="45.0405" lon="5.56253">
        <ele>1325.31</ele>
        <time>2013-08-15T12:07:58Z</time>
      </trkpt>
      <trkpt lat="45.04044" lon="5.56257">
        <ele>1328.68</ele>
        <time>2013-08-15T12:08:00Z</time>
      </trkpt>
      <trkpt lat="45.04042" lon="5.56259">
        <ele>1332.52</ele>
        <time>2013-08-15T12:08:01Z</time>
      </trkpt>
      <trkpt lat="45.04036" lon="5.56264">
        <ele>1335.89</ele>
        <time>2013-08-15T12:08:03Z</time>
      </trkpt>
      <trkpt lat="45.04029" lon="5.56269">
        <ele>1340.22</ele>
        <time>2013-08-15T12:08:05Z</time>
      </trkpt>
      <trkpt lat="45.04024" lon="5.56274">
        <ele>1343.58</ele>
        <time>2013-08-15T12:08:07Z</time>
      </trkpt>
      <trkpt lat="45.04015" lon="5.56281">
        <ele>1348.39</ele>
        <time>2013-08-15T12:08:10Z</time>
      </trkpt>
      <trkpt lat="45.04005" lon="5.56286">
        <ele>1352.71</ele>
        <time>2013-08-15T12:08:13Z</time>
      </trkpt>
      <trkpt lat="45.03996" lon="5.56291">
        <ele>1357.04</ele>
        <time>2013-08-15T12:08:16Z</time>
      </trkpt>
      <trkpt lat="45.0399" lon="5.56294">
        <ele>1360.4</ele>
        <time>2013-08-15T12:08:18Z</time>
      </trkpt>
      <trkpt lat="45.03983" lon="5.56298">
        <ele>1363.77</ele>
        <time>2013-08-15T12:08:20Z</time>
      </trkpt>
      <trkpt lat="45.03977" lon="5.56302">
        <ele>1367.13</ele>
        <time>2013-08-15T12:08:22Z</time>
      </trkpt>
      <trkpt lat="45.0397" lon="5.56306">
        <ele>1370.5</ele>
        <time>2013-08-15T12:08:24Z</time>
      </trkpt>
      <trkpt lat="45.03967" lon="5.56308">
        <ele>1373.86</ele>
        <time>2013-08-15T12:08:25Z</time>
      </trkpt>
      <trkpt lat="45.03961" lon="5.56312">
        <ele>1377.23</ele>
        <time>2013-08-15T12:08:27Z</time>
      </trkpt>
      <trkpt lat="45.03955" lon="5.56316">
        <ele>1381.07</ele>
        <time>2013-08-15T12:08:29Z</time>
      </trkpt>
      <trkpt lat="45.03949" lon="5.56319">
        <ele>1384.44</ele>
        <time>2013-08-15T12:08:31Z</time>
      </trkpt>
      <trkpt lat="45.03937" lon="5.56324">
        <ele>1387.8</ele>
        <time>2013-08-15T12:08:35Z</time>
      </trkpt>
      <trkpt lat="45.03924" lon="5.56331">
        <ele>1391.65</ele>
        <time>2013-08-15T12:08:39Z</time>
      </trkpt>
      <trkpt lat="45.03914" lon="5.56338">
        <ele>1394.53</ele>
        <time>2013-08-15T12:08:42Z</time>
      </trkpt>
      <trkpt lat="45.03899" lon="5.56346">
        <ele>1398.86</ele>
        <time>2013-08-15T12:08:46Z</time>
      </trkpt>
      <trkpt lat="45.03889" lon="5.56355">
        <ele>1402.22</ele>
        <time>2013-08-15T12:08:49Z</time>
      </trkpt>
      <trkpt lat="45.03882" lon="5.56359">
        <ele>1405.58</ele>
        <time>2013-08-15T12:08:51Z</time>
      </trkpt>
      <trkpt lat="45.03872" lon="5.56366">
        <ele>1408.95</ele>
        <time>2013-08-15T12:08:54Z</time>
      </trkpt>
      <trkpt lat="45.03862" lon="5.56372">
        <ele>1412.31</ele>
        <time>2013-08-15T12:08:57Z</time>
      </trkpt>
      <trkpt lat="45.03852" lon="5.56378">
        <ele>1415.68</ele>
        <time>2013-08-15T12:09:00Z</time>
      </trkpt>
      <trkpt lat="45.03841" lon="5.56386">
        <ele>1419.04</ele>
        <time>2013-08-15T12:09:03Z</time>
      </trkpt>
      <trkpt lat="45.03831" lon="5.56392">
        <ele>1422.89</ele>
        <time>2013-08-15T12:09:06Z</time>
      </trkpt>
      <trkpt lat="45.03821" lon="5.564">
        <ele>1426.73</ele>
        <time>2013-08-15T12:09:09Z</time>
      </trkpt>
      <trkpt lat="45.03811" lon="5.56406">
        <ele>1430.58</ele>
        <time>2013-08-15T12:09:12Z</time>
      </trkpt>
      <trkpt lat="45.03804" lon="5.56411">
        <ele>1434.91</ele>
        <time>2013-08-15T12:09:14Z</time>
      </trkpt>
      <trkpt lat="45.03794" lon="5.56418">
        <ele>1438.75</ele>
        <time>2013-08-15T12:09:17Z</time>
      </trkpt>
      <trkpt lat="45.03785" lon="5.56424">
        <ele>1443.08</ele>
        <time>2013-08-15T12:09:20Z</time>
      </trkpt>
      <trkpt lat="45.03772" lon="5.56434">
        <ele>1446.44</ele>
        <time>2013-08-15T12:09:24Z</time>
      </trkpt>
      <trkpt lat="45.03759" lon="5.56443">
        <ele>1449.81</ele>
        <time>2013-08-15T12:09:28Z</time>
      </trkpt>
      <trkpt lat="45.03745" lon="5.56452">
        <ele>1453.17</ele>
        <time>2013-08-15T12:09:32Z</time>
      </trkpt>
      <trkpt lat="45.03732" lon="5.56462">
        <ele>1457.02</ele>
        <time>2013-08-15T12:09:36Z</time>
      </trkpt>
      <trkpt lat="45.03721" lon="5.56469">
        <ele>1460.86</ele>
        <time>2013-08-15T12:09:39Z</time>
      </trkpt>
      <trkpt lat="45.03711" lon="5.56476">
        <ele>1463.74</ele>
        <time>2013-08-15T12:09:42Z</time>
      </trkpt>
      <trkpt lat="45.03701" lon="5.56482">
        <ele>1467.11</ele>
        <time>2013-08-15T12:09:45Z</time>
      </trkpt>
      <trkpt lat="45.03691" lon="5.56489">
        <ele>1470.47</ele>
        <time>2013-08-15T12:09:48Z</time>
      </trkpt>
      <trkpt lat="45.03681" lon="5.56495">
        <ele>1473.84</ele>
        <time>2013-08-15T12:09:51Z</time>
      </trkpt>
      <trkpt lat="45.03671" lon="5.56501">
        <ele>1477.2</ele>
        <time>2013-08-15T12:09:54Z</time>
      </trkpt>
      <trkpt lat="45.03661" lon="5.56508">
        <ele>1480.57</ele>
        <time>2013-08-15T12:09:57Z</time>
      </trkpt>
      <trkpt lat="45.03651" lon="5.56514">
        <ele>1483.93</ele>
        <time>2013-08-15T12:10:00Z</time>
      </trkpt>
      <trkpt lat="45.03644" lon="5.56518">
        <ele>1487.78</ele>
        <time>2013-08-15T12:10:02Z</time>
      </trkpt>
      <trkpt lat="45.03634" lon="5.56525">
        <ele>1491.14</ele>
        <time>2013-08-15T12:10:05Z</time>
      </trkpt>
      <trkpt lat="45.03624" lon="5.5653">
        <ele>1494.99</ele>
        <time>2013-08-15T12:10:08Z</time>
      </trkpt>
      <trkpt lat="45.03614" lon="5.56536">
        <ele>1499.31</ele>
        <time>2013-08-15T12:10:11Z</time>
      </trkpt>
      <trkpt lat="45.03605" lon="5.56543">
        <ele>1503.16</ele>
        <time>2013-08-15T12:10:14Z</time>
      </trkpt>
      <trkpt lat="45.03594" lon="5.5655">
        <ele>1507</ele>
        <time>2013-08-15T12:10:17Z</time>
      </trkpt>
      <trkpt lat="45.03587" lon="5.56554">
        <ele>1510.37</ele>
        <time>2013-08-15T12:10:19Z</time>
      </trkpt>
      <trkpt lat="45.03577" lon="5.56559">
        <ele>1514.69</ele>
        <time>2013-08-15T12:10:22Z</time>
      </trkpt>
      <trkpt lat="45.03567" lon="5.56564">
        <ele>1519.02</ele>
        <time>2013-08-15T12:10:25Z</time>
      </trkpt>
      <trkpt lat="45.03561" lon="5.56568">
        <ele>1523.35</ele>
        <time>2013-08-15T12:10:27Z</time>
      </trkpt>
      <trkpt lat="45.03554" lon="5.56572">
        <ele>1526.23</ele>
        <time>2013-08-15T12:10:29Z</time>
      </trkpt>
      <trkpt lat="45.03544" lon="5.56577">
        <ele>1530.08</ele>
        <time>2013-08-15T12:10:32Z</time>
      </trkpt>
      <trkpt lat="45.03538" lon="5.5658">
        <ele>1533.44</ele>
        <time>2013-08-15T12:10:34Z</time>
      </trkpt>
      <trkpt lat="45.03528" lon="5.56586">
        <ele>1537.77</ele>
        <time>2013-08-15T12:10:37Z</time>
      </trkpt>
      <trkpt lat="45.03518" lon="5.56591">
        <ele>1542.57</ele>
        <time>2013-08-15T12:10:40Z</time>
      </trkpt>
      <trkpt lat="45.03512" lon="5.56594">
        <ele>1545.46</ele>
        <time>2013-08-15T12:10:42Z</time>
      </trkpt>
      <trkpt lat="45.03505" lon="5.56599">
        <ele>1549.3</ele>
        <time>2013-08-15T12:10:44Z</time>
      </trkpt>
      <trkpt lat="45.03495" lon="5.56607">
        <ele>1552.67</ele>
        <time>2013-08-15T12:10:47Z</time>
      </trkpt>
      <trkpt lat="45.03485" lon="5.56614">
        <ele>1557.47</ele>
        <time>2013-08-15T12:10:50Z</time>
      </trkpt>
      <trkpt lat="45.03475" lon="5.56619">
        <ele>1560.36</ele>
        <time>2013-08-15T12:10:53Z</time>
      </trkpt>
      <trkpt lat="45.03464" lon="5.56625">
        <ele>1564.2</ele>
        <time>2013-08-15T12:10:56Z</time>
      </trkpt>
      <trkpt lat="45.03454" lon="5.56632">
        <ele>1567.57</ele>
        <time>2013-08-15T12:10:59Z</time>
      </trkpt>
      <trkpt lat="45.03444" lon="5.56638">
        <ele>1571.41</ele>
        <time>2013-08-15T12:11:02Z</time>
      </trkpt>
      <trkpt lat="45.03433" lon="5.56644">
        <ele>1575.26</ele>
        <time>2013-08-15T12:11:05Z</time>
      </trkpt>
      <trkpt lat="45.03423" lon="5.5665">
        <ele>1579.1</ele>
        <time>2013-08-15T12:11:08Z</time>
      </trkpt>
      <trkpt lat="45.03413" lon="5.56656">
        <ele>1582.95</ele>
        <time>2013-08-15T12:11:11Z</time>
      </trkpt>
      <trkpt lat="45.03403" lon="5.56663">
        <ele>1587.27</ele>
        <time>2013-08-15T12:11:14Z</time>
      </trkpt>
      <trkpt lat="45.03397" lon="5.56667">
        <ele>1591.12</ele>
        <time>2013-08-15T12:11:16Z</time>
      </trkpt>
      <trkpt lat="45.03387" lon="5.56673">
        <ele>1594.96</ele>
        <time>2013-08-15T12:11:19Z</time>
      </trkpt>
      <trkpt lat="45.03377" lon="5.56679">
        <ele>1599.29</ele>
        <time>2013-08-15T12:11:22Z</time>
      </trkpt>
      <trkpt lat="45.03367" lon="5.56685">
        <ele>1602.66</ele>
        <time>2013-08-15T12:11:25Z</time>
      </trkpt>
      <trkpt lat="45.03357" lon="5.56691">
        <ele>1606.02</ele>
        <time>2013-08-15T12:11:28Z</time>
      </trkpt>
      <trkpt lat="45.03347" lon="5.56697">
        <ele>1608.9</ele>
        <time>2013-08-15T12:11:31Z</time>
      </trkpt>
      <trkpt lat="45.03337" lon="5.56703">
        <ele>1612.27</ele>
        <time>2013-08-15T12:11:34Z</time>
      </trkpt>
      <trkpt lat="45.03327" lon="5.5671">
        <ele>1616.59</ele>
        <time>2013-08-15T12:11:37Z</time>
      </trkpt>
      <trkpt lat="45.03316" lon="5.56716">
        <ele>1620.44</ele>
        <time>2013-08-15T12:11:40Z</time>
      </trkpt>
      <trkpt lat="45.03306" lon="5.56723">
        <ele>1624.77</ele>
        <time>2013-08-15T12:11:43Z</time>
      </trkpt>
      <trkpt lat="45.03296" lon="5.56729">
        <ele>1628.61</ele>
        <time>2013-08-15T12:11:46Z</time>
      </trkpt>
      <trkpt lat="45.03287" lon="5.56736">
        <ele>1632.46</ele>
        <time>2013-08-15T12:11:49Z</time>
      </trkpt>
      <trkpt lat="45.03277" lon="5.56742">
        <ele>1636.3</ele>
        <time>2013-08-15T12:11:52Z</time>
      </trkpt>
      <trkpt lat="45.03267" lon="5.56749">
        <ele>1640.15</ele>
        <time>2013-08-15T12:11:55Z</time>
      </trkpt>
      <trkpt lat="45.03254" lon="5.56758">
        <ele>1643.03</ele>
        <time>2013-08-15T12:11:59Z</time>
      </trkpt>
      <trkpt lat="45.03233" lon="5.56772">
        <ele>1646.4</ele>
        <time>2013-08-15T12:12:05Z</time>
      </trkpt>
      <trkpt lat="45.03213" lon="5.56786">
        <ele>1649.76</ele>
        <time>2013-08-15T12:12:11Z</time>
      </trkpt>
      <trkpt lat="45.03195" lon="5.56797">
        <ele>1653.6</ele>
        <time>2013-08-15T12:12:16Z</time>
      </trkpt>
      <trkpt lat="45.03192" lon="5.56799">
        <ele>1654.09</ele>
        <time>2013-08-15T12:12:17Z</time>
      </trkpt>
      <trkpt lat="45.03178" lon="5.56808">
        <ele>1656.97</ele>
        <time>2013-08-15T12:12:21Z</time>
      </trkpt>
      <trkpt lat="45.03164" lon="5.56816">
        <ele>1659.85</ele>
        <time>2013-08-15T12:12:25Z</time>
      </trkpt>
      <trkpt lat="45.03154" lon="5.56823">
        <ele>1663.22</ele>
        <time>2013-08-15T12:12:28Z</time>
      </trkpt>
      <trkpt lat="45.0314" lon="5.56831">
        <ele>1666.1</ele>
        <time>2013-08-15T12:12:32Z</time>
      </trkpt>
      <trkpt lat="45.03126" lon="5.5684">
        <ele>1668.99</ele>
        <time>2013-08-15T12:12:36Z</time>
      </trkpt>
      <trkpt lat="45.03112" lon="5.56848">
        <ele>1672.35</ele>
        <time>2013-08-15T12:12:40Z</time>
      </trkpt>
      <trkpt lat="45.03099" lon="5.56857">
        <ele>1676.2</ele>
        <time>2013-08-15T12:12:44Z</time>
      </trkpt>
      <trkpt lat="45.03086" lon="5.56866">
        <ele>1680.04</ele>
        <time>2013-08-15T12:12:48Z</time>
      </trkpt>
      <trkpt lat="45.03072" lon="5.56875">
        <ele>1684.85</ele>
        <time>2013-08-15T12:12:52Z</time>
      </trkpt>
      <trkpt lat="45.03059" lon="5.56883">
        <ele>1688.69</ele>
        <time>2013-08-15T12:12:56Z</time>
      </trkpt>
      <trkpt lat="45.03045" lon="5.56893">
        <ele>1692.06</ele>
        <time>2013-08-15T12:13:00Z</time>
      </trkpt>
      <trkpt lat="45.03032" lon="5.56901">
        <ele>1693.98</ele>
        <time>2013-08-15T12:13:04Z</time>
      </trkpt>
      <trkpt lat="45.03014" lon="5.56913">
        <ele>1697.34</ele>
        <time>2013-08-15T12:13:09Z</time>
      </trkpt>
      <trkpt lat="45.02997" lon="5.56924">
        <ele>1700.71</ele>
        <time>2013-08-15T12:13:14Z</time>
      </trkpt>
      <trkpt lat="45.02986" lon="5.5693">
        <ele>1702.63</ele>
        <time>2013-08-15T12:13:17Z</time>
      </trkpt>
      <trkpt lat="45.02973" lon="5.56938">
        <ele>1704.07</ele>
        <time>2013-08-15T12:13:27Z</time>
      </trkpt>
      <trkpt lat="45.02973" lon="5.56938">
        <ele>1703.59</ele>
        <time>2013-08-15T12:13:42Z</time>
      </trkpt>
      <trkpt lat="45.02973" lon="5.56938">
        <ele>1703.59</ele>
        <time>2013-08-15T12:13:57Z</time>
      </trkpt>
      <trkpt lat="45.02973" lon="5.5694">
        <ele>1704.55</ele>
        <time>2013-08-15T12:14:25Z</time>
      </trkpt>
      <trkpt lat="45.02968" lon="5.56946">
        <ele>1703.59</ele>
        <time>2013-08-15T12:14:44Z</time>
      </trkpt>
      <trkpt lat="45.02968" lon="5.56948">
        <ele>1703.59</ele>
        <time>2013-08-15T12:14:46Z</time>
      </trkpt>
      <trkpt lat="45.02967" lon="5.56956">
        <ele>1703.11</ele>
        <time>2013-08-15T12:15:00Z</time>
      </trkpt>
      <trkpt lat="45.02967" lon="5.56956">
        <ele>1703.59</ele>
        <time>2013-08-15T12:15:21Z</time>
      </trkpt>
      <trkpt lat="45.02967" lon="5.56956">
        <ele>1704.07</ele>
        <time>2013-08-15T12:15:42Z</time>
      </trkpt>
      <trkpt lat="45.02967" lon="5.56956">
        <ele>1704.07</ele>
        <time>2013-08-15T12:16:00Z</time>
      </trkpt>
      <trkpt lat="45.02967" lon="5.56957">
        <ele>1704.07</ele>
        <time>2013-08-15T12:16:24Z</time>
      </trkpt>
      <trkpt lat="45.02968" lon="5.56959">
        <ele>1704.55</ele>
        <time>2013-08-15T12:16:37Z</time>
      </trkpt>
      <trkpt lat="45.02969" lon="5.56969">
        <ele>1704.55</ele>
        <time>2013-08-15T12:16:41Z</time>
      </trkpt>
      <trkpt lat="45.02965" lon="5.57013">
        <ele>1704.07</ele>
        <time>2013-08-15T12:16:54Z</time>
      </trkpt>
      <trkpt lat="45.02957" lon="5.57023">
        <ele>1706.96</ele>
        <time>2013-08-15T12:17:00Z</time>
      </trkpt>
      <trkpt lat="45.02939" lon="5.57036">
        <ele>1709.84</ele>
        <time>2013-08-15T12:17:13Z</time>
      </trkpt>
      <trkpt lat="45.02923" lon="5.57046">
        <ele>1713.21</ele>
        <time>2013-08-15T12:17:24Z</time>
      </trkpt>
      <trkpt lat="45.02914" lon="5.57051">
        <ele>1715.13</ele>
        <time>2013-08-15T12:17:30Z</time>
      </trkpt>
      <trkpt lat="45.0289" lon="5.57059">
        <ele>1718.49</ele>
        <time>2013-08-15T12:17:46Z</time>
      </trkpt>
      <trkpt lat="45.02867" lon="5.57066">
        <ele>1721.38</ele>
        <time>2013-08-15T12:18:01Z</time>
      </trkpt>
      <trkpt lat="45.02844" lon="5.57079">
        <ele>1724.26</ele>
        <time>2013-08-15T12:18:16Z</time>
      </trkpt>
      <trkpt lat="45.02827" lon="5.5709">
        <ele>1727.63</ele>
        <time>2013-08-15T12:18:28Z</time>
      </trkpt>
      <trkpt lat="45.0281" lon="5.57105">
        <ele>1730.51</ele>
        <time>2013-08-15T12:18:42Z</time>
      </trkpt>
      <trkpt lat="45.02791" lon="5.57123">
        <ele>1733.39</ele>
        <time>2013-08-15T12:18:58Z</time>
      </trkpt>
      <trkpt lat="45.02786" lon="5.57135">
        <ele>1733.88</ele>
        <time>2013-08-15T12:19:06Z</time>
      </trkpt>
      <trkpt lat="45.02783" lon="5.57145">
        <ele>1733.39</ele>
        <time>2013-08-15T12:19:10Z</time>
      </trkpt>
      <trkpt lat="45.02771" lon="5.57181">
        <ele>1732.91</ele>
        <time>2013-08-15T12:19:23Z</time>
      </trkpt>
      <trkpt lat="45.02765" lon="5.57228">
        <ele>1734.36</ele>
        <time>2013-08-15T12:19:37Z</time>
      </trkpt>
      <trkpt lat="45.02754" lon="5.57257">
        <ele>1735.32</ele>
        <time>2013-08-15T12:19:50Z</time>
      </trkpt>
      <trkpt lat="45.02754" lon="5.57257">
        <ele>1735.32</ele>
        <time>2013-08-15T12:20:09Z</time>
      </trkpt>
      <trkpt lat="45.02754" lon="5.57257">
        <ele>1736.28</ele>
        <time>2013-08-15T12:20:39Z</time>
      </trkpt>
      <trkpt lat="45.02754" lon="5.57257">
        <ele>1737.24</ele>
        <time>2013-08-15T12:21:10Z</time>
      </trkpt>
      <trkpt lat="45.02749" lon="5.57261">
        <ele>1736.76</ele>
        <time>2013-08-15T12:21:15Z</time>
      </trkpt>
      <trkpt lat="45.02738" lon="5.57278">
        <ele>1733.88</ele>
        <time>2013-08-15T12:21:22Z</time>
      </trkpt>
      <trkpt lat="45.02728" lon="5.57292">
        <ele>1730.51</ele>
        <time>2013-08-15T12:21:27Z</time>
      </trkpt>
      <trkpt lat="45.02722" lon="5.57305">
        <ele>1728.59</ele>
        <time>2013-08-15T12:21:30Z</time>
      </trkpt>
      <trkpt lat="45.02723" lon="5.57347">
        <ele>1725.22</ele>
        <time>2013-08-15T12:21:39Z</time>
      </trkpt>
      <trkpt lat="45.02714" lon="5.57371">
        <ele>1723.3</ele>
        <time>2013-08-15T12:21:45Z</time>
      </trkpt>
      <trkpt lat="45.027" lon="5.57382">
        <ele>1720.42</ele>
        <time>2013-08-15T12:21:51Z</time>
      </trkpt>
      <trkpt lat="45.02678" lon="5.57378">
        <ele>1720.9</ele>
        <time>2013-08-15T12:22:01Z</time>
      </trkpt>
      <trkpt lat="45.02675" lon="5.57376">
        <ele>1719.94</ele>
        <time>2013-08-15T12:22:13Z</time>
      </trkpt>
      <trkpt lat="45.02675" lon="5.57376">
        <ele>1723.3</ele>
        <time>2013-08-15T12:22:15Z</time>
      </trkpt>
      <trkpt lat="45.02675" lon="5.57376">
        <ele>1719.94</ele>
        <time>2013-08-15T12:22:16Z</time>
      </trkpt>
      <trkpt lat="45.02675" lon="5.57376">
        <ele>1723.78</ele>
        <time>2013-08-15T12:22:20Z</time>
      </trkpt>
      <trkpt lat="45.02675" lon="5.57376">
        <ele>1720.42</ele>
        <time>2013-08-15T12:22:21Z</time>
      </trkpt>
      <trkpt lat="45.02674" lon="5.57377">
        <ele>1721.38</ele>
        <time>2013-08-15T12:22:49Z</time>
      </trkpt>
      <trkpt lat="45.02675" lon="5.57377">
        <ele>1721.38</ele>
        <time>2013-08-15T12:23:09Z</time>
      </trkpt>
      <trkpt lat="45.02674" lon="5.57376">
        <ele>1721.38</ele>
        <time>2013-08-15T12:23:21Z</time>
      </trkpt>
      <trkpt lat="45.02662" lon="5.57373">
        <ele>1721.86</ele>
        <time>2013-08-15T12:23:29Z</time>
      </trkpt>
      <trkpt lat="45.0263" lon="5.57379">
        <ele>1723.78</ele>
        <time>2013-08-15T12:23:44Z</time>
      </trkpt>
      <trkpt lat="45.02606" lon="5.57391">
        <ele>1727.15</ele>
        <time>2013-08-15T12:23:56Z</time>
      </trkpt>
      <trkpt lat="45.02585" lon="5.5741">
        <ele>1729.07</ele>
        <time>2013-08-15T12:24:08Z</time>
      </trkpt>
      <trkpt lat="45.0257" lon="5.57419">
        <ele>1730.51</ele>
        <time>2013-08-15T12:24:17Z</time>
      </trkpt>
      <trkpt lat="45.02568" lon="5.5742">
        <ele>1730.99</ele>
        <time>2013-08-15T12:24:20Z</time>
      </trkpt>
      <trkpt lat="45.02555" lon="5.5743">
        <ele>1732.91</ele>
        <time>2013-08-15T12:24:31Z</time>
      </trkpt>
      <trkpt lat="45.02542" lon="5.57438">
        <ele>1733.88</ele>
        <time>2013-08-15T12:24:40Z</time>
      </trkpt>
      <trkpt lat="45.02535" lon="5.57448">
        <ele>1734.84</ele>
        <time>2013-08-15T12:24:47Z</time>
      </trkpt>
      <trkpt lat="45.02525" lon="5.57458">
        <ele>1737.24</ele>
        <time>2013-08-15T12:25:00Z</time>
      </trkpt>
      <trkpt lat="45.02519" lon="5.57463">
        <ele>1739.16</ele>
        <time>2013-08-15T12:25:10Z</time>
      </trkpt>
      <trkpt lat="45.02518" lon="5.57465">
        <ele>1739.64</ele>
        <time>2013-08-15T12:25:12Z</time>
      </trkpt>
      <trkpt lat="45.02513" lon="5.57477">
        <ele>1741.08</ele>
        <time>2013-08-15T12:25:27Z</time>
      </trkpt>
      <trkpt lat="45.02513" lon="5.57477">
        <ele>1744.93</ele>
        <time>2013-08-15T12:25:33Z</time>
      </trkpt>
      <trkpt lat="45.02513" lon="5.57477">
        <ele>1741.08</ele>
        <time>2013-08-15T12:25:34Z</time>
      </trkpt>
      <trkpt lat="45.02513" lon="5.57477">
        <ele>1740.6</ele>
        <time>2013-08-15T12:25:56Z</time>
      </trkpt>
      <trkpt lat="45.02514" lon="5.57473">
        <ele>1741.08</ele>
        <time>2013-08-15T12:26:06Z</time>
      </trkpt>
      <trkpt lat="45.02517" lon="5.57468">
        <ele>1740.12</ele>
        <time>2013-08-15T12:26:09Z</time>
      </trkpt>
      <trkpt lat="45.0253" lon="5.57457">
        <ele>1737.24</ele>
        <time>2013-08-15T12:26:15Z</time>
      </trkpt>
      <trkpt lat="45.02533" lon="5.57452">
        <ele>1736.28</ele>
        <time>2013-08-15T12:26:16Z</time>
      </trkpt>
      <trkpt lat="45.02555" lon="5.57431">
        <ele>1733.39</ele>
        <time>2013-08-15T12:26:23Z</time>
      </trkpt>
      <trkpt lat="45.02569" lon="5.57423">
        <ele>1731.95</ele>
        <time>2013-08-15T12:26:27Z</time>
      </trkpt>
      <trkpt lat="45.02608" lon="5.57388">
        <ele>1728.59</ele>
        <time>2013-08-15T12:26:39Z</time>
      </trkpt>
      <trkpt lat="45.02612" lon="5.57384">
        <ele>1728.11</ele>
        <time>2013-08-15T12:26:40Z</time>
      </trkpt>
      <trkpt lat="45.02616" lon="5.57382">
        <ele>1728.11</ele>
        <time>2013-08-15T12:26:41Z</time>
      </trkpt>
      <trkpt lat="45.02619" lon="5.5738">
        <ele>1727.15</ele>
        <time>2013-08-15T12:26:42Z</time>
      </trkpt>
      <trkpt lat="45.02624" lon="5.57379">
        <ele>1726.67</ele>
        <time>2013-08-15T12:26:43Z</time>
      </trkpt>
      <trkpt lat="45.02628" lon="5.57378">
        <ele>1726.18</ele>
        <time>2013-08-15T12:26:44Z</time>
      </trkpt>
      <trkpt lat="45.02632" lon="5.57376">
        <ele>1725.7</ele>
        <time>2013-08-15T12:26:45Z</time>
      </trkpt>
      <trkpt lat="45.02637" lon="5.57375">
        <ele>1725.22</ele>
        <time>2013-08-15T12:26:46Z</time>
      </trkpt>
      <trkpt lat="45.02642" lon="5.57373">
        <ele>1724.74</ele>
        <time>2013-08-15T12:26:47Z</time>
      </trkpt>
      <trkpt lat="45.02657" lon="5.57371">
        <ele>1722.82</ele>
        <time>2013-08-15T12:26:50Z</time>
      </trkpt>
      <trkpt lat="45.02691" lon="5.57379">
        <ele>1721.86</ele>
        <time>2013-08-15T12:27:01Z</time>
      </trkpt>
      <trkpt lat="45.02711" lon="5.57389">
        <ele>1720.42</ele>
        <time>2013-08-15T12:27:13Z</time>
      </trkpt>
      <trkpt lat="45.02717" lon="5.57386">
        <ele>1720.42</ele>
        <time>2013-08-15T12:27:17Z</time>
      </trkpt>
      <trkpt lat="45.02719" lon="5.57382">
        <ele>1719.94</ele>
        <time>2013-08-15T12:27:20Z</time>
      </trkpt>
      <trkpt lat="45.0272" lon="5.57381">
        <ele>1719.94</ele>
        <time>2013-08-15T12:27:21Z</time>
      </trkpt>
      <trkpt lat="45.02721" lon="5.5738">
        <ele>1719.46</ele>
        <time>2013-08-15T12:27:22Z</time>
      </trkpt>
      <trkpt lat="45.02724" lon="5.57379">
        <ele>1718.97</ele>
        <time>2013-08-15T12:27:25Z</time>
      </trkpt>
      <trkpt lat="45.02726" lon="5.5738">
        <ele>1718.49</ele>
        <time>2013-08-15T12:27:26Z</time>
      </trkpt>
      <trkpt lat="45.02731" lon="5.57385">
        <ele>1717.05</ele>
        <time>2013-08-15T12:27:33Z</time>
      </trkpt>
      <trkpt lat="45.02747" lon="5.57378">
        <ele>1713.69</ele>
        <time>2013-08-15T12:27:40Z</time>
      </trkpt>
      <trkpt lat="45.0275" lon="5.5738">
        <ele>1713.21</ele>
        <time>2013-08-15T12:27:42Z</time>
      </trkpt>
      <trkpt lat="45.02752" lon="5.57383">
        <ele>1713.21</ele>
        <time>2013-08-15T12:27:48Z</time>
      </trkpt>
      <trkpt lat="45.02753" lon="5.57382">
        <ele>1713.21</ele>
        <time>2013-08-15T12:27:49Z</time>
      </trkpt>
      <trkpt lat="45.02755" lon="5.57382">
        <ele>1712.73</ele>
        <time>2013-08-15T12:27:50Z</time>
      </trkpt>
      <trkpt lat="45.02761" lon="5.57382">
        <ele>1711.76</ele>
        <time>2013-08-15T12:27:52Z</time>
      </trkpt>
      <trkpt lat="45.02779" lon="5.57384">
        <ele>1709.36</ele>
        <time>2013-08-15T12:27:57Z</time>
      </trkpt>
      <trkpt lat="45.02794" lon="5.57388">
        <ele>1706.96</ele>
        <time>2013-08-15T12:28:01Z</time>
      </trkpt>
      <trkpt lat="45.02798" lon="5.57389">
        <ele>1706.48</ele>
        <time>2013-08-15T12:28:02Z</time>
      </trkpt>
      <trkpt lat="45.02802" lon="5.57389">
        <ele>1705.52</ele>
        <time>2013-08-15T12:28:03Z</time>
      </trkpt>
      <trkpt lat="45.02806" lon="5.57389">
        <ele>1704.55</ele>
        <time>2013-08-15T12:28:04Z</time>
      </trkpt>
      <trkpt lat="45.0281" lon="5.57389">
        <ele>1704.55</ele>
        <time>2013-08-15T12:28:05Z</time>
      </trkpt>
      <trkpt lat="45.02829" lon="5.57386">
        <ele>1703.11</ele>
        <time>2013-08-15T12:28:15Z</time>
      </trkpt>
      <trkpt lat="45.02841" lon="5.57383">
        <ele>1700.71</ele>
        <time>2013-08-15T12:28:29Z</time>
      </trkpt>
      <trkpt lat="45.02843" lon="5.57383">
        <ele>1700.71</ele>
        <time>2013-08-15T12:28:30Z</time>
      </trkpt>
      <trkpt lat="45.02847" lon="5.5738">
        <ele>1700.23</ele>
        <time>2013-08-15T12:28:33Z</time>
      </trkpt>
      <trkpt lat="45.0285" lon="5.57376">
        <ele>1700.71</ele>
        <time>2013-08-15T12:28:46Z</time>
      </trkpt>
      <trkpt lat="45.02854" lon="5.57374">
        <ele>1700.23</ele>
        <time>2013-08-15T12:28:55Z</time>
      </trkpt>
      <trkpt lat="45.02855" lon="5.57374">
        <ele>1699.75</ele>
        <time>2013-08-15T12:28:56Z</time>
      </trkpt>
      <trkpt lat="45.02856" lon="5.57374">
        <ele>1699.75</ele>
        <time>2013-08-15T12:28:57Z</time>
      </trkpt>
      <trkpt lat="45.02857" lon="5.57374">
        <ele>1699.27</ele>
        <time>2013-08-15T12:28:58Z</time>
      </trkpt>
      <trkpt lat="45.02859" lon="5.57375">
        <ele>1699.27</ele>
        <time>2013-08-15T12:28:59Z</time>
      </trkpt>
      <trkpt lat="45.02861" lon="5.57375">
        <ele>1698.79</ele>
        <time>2013-08-15T12:29:00Z</time>
      </trkpt>
      <trkpt lat="45.02863" lon="5.57374">
        <ele>1698.31</ele>
        <time>2013-08-15T12:29:01Z</time>
      </trkpt>
      <trkpt lat="45.02878" lon="5.57374">
        <ele>1694.94</ele>
        <time>2013-08-15T12:29:09Z</time>
      </trkpt>
      <trkpt lat="45.02892" lon="5.57371">
        <ele>1691.58</ele>
        <time>2013-08-15T12:29:15Z</time>
      </trkpt>
      <trkpt lat="45.029" lon="5.57364">
        <ele>1689.17</ele>
        <time>2013-08-15T12:29:18Z</time>
      </trkpt>
      <trkpt lat="45.02904" lon="5.5736">
        <ele>1688.21</ele>
        <time>2013-08-15T12:29:19Z</time>
      </trkpt>
      <trkpt lat="45.02917" lon="5.57355">
        <ele>1684.85</ele>
        <time>2013-08-15T12:29:23Z</time>
      </trkpt>
      <trkpt lat="45.02929" lon="5.57351">
        <ele>1681.96</ele>
        <time>2013-08-15T12:29:27Z</time>
      </trkpt>
      <trkpt lat="45.02933" lon="5.5735">
        <ele>1681</ele>
        <time>2013-08-15T12:29:29Z</time>
      </trkpt>
      <trkpt lat="45.02942" lon="5.57346">
        <ele>1678.12</ele>
        <time>2013-08-15T12:29:34Z</time>
      </trkpt>
      <trkpt lat="45.02957" lon="5.57341">
        <ele>1674.75</ele>
        <time>2013-08-15T12:29:39Z</time>
      </trkpt>
      <trkpt lat="45.02967" lon="5.5734">
        <ele>1670.91</ele>
        <time>2013-08-15T12:29:44Z</time>
      </trkpt>
      <trkpt lat="45.02976" lon="5.57335">
        <ele>1667.54</ele>
        <time>2013-08-15T12:29:48Z</time>
      </trkpt>
      <trkpt lat="45.02985" lon="5.57334">
        <ele>1664.66</ele>
        <time>2013-08-15T12:29:51Z</time>
      </trkpt>
      <trkpt lat="45.02994" lon="5.57331">
        <ele>1661.3</ele>
        <time>2013-08-15T12:29:54Z</time>
      </trkpt>
      <trkpt lat="45.03004" lon="5.57329">
        <ele>1658.41</ele>
        <time>2013-08-15T12:29:57Z</time>
      </trkpt>
      <trkpt lat="45.03008" lon="5.57329">
        <ele>1656.49</ele>
        <time>2013-08-15T12:29:58Z</time>
      </trkpt>
      <trkpt lat="45.03032" lon="5.57327">
        <ele>1652.64</ele>
        <time>2013-08-15T12:30:03Z</time>
      </trkpt>
      <trkpt lat="45.03051" lon="5.57326">
        <ele>1649.28</ele>
        <time>2013-08-15T12:30:07Z</time>
      </trkpt>
      <trkpt lat="45.03054" lon="5.57326">
        <ele>1649.28</ele>
        <time>2013-08-15T12:30:08Z</time>
      </trkpt>
      <trkpt lat="45.03068" lon="5.5732">
        <ele>1646.4</ele>
        <time>2013-08-15T12:30:13Z</time>
      </trkpt>
      <trkpt lat="45.0309" lon="5.57325">
        <ele>1642.07</ele>
        <time>2013-08-15T12:30:17Z</time>
      </trkpt>
      <trkpt lat="45.03109" lon="5.57331">
        <ele>1638.22</ele>
        <time>2013-08-15T12:30:20Z</time>
      </trkpt>
      <trkpt lat="45.0313" lon="5.57336">
        <ele>1633.9</ele>
        <time>2013-08-15T12:30:23Z</time>
      </trkpt>
      <trkpt lat="45.03142" lon="5.5734">
        <ele>1631.01</ele>
        <time>2013-08-15T12:30:25Z</time>
      </trkpt>
      <trkpt lat="45.03156" lon="5.57342">
        <ele>1627.17</ele>
        <time>2013-08-15T12:30:28Z</time>
      </trkpt>
      <trkpt lat="45.03161" lon="5.57343">
        <ele>1625.73</ele>
        <time>2013-08-15T12:30:32Z</time>
      </trkpt>
      <trkpt lat="45.03161" lon="5.57345">
        <ele>1625.73</ele>
        <time>2013-08-15T12:30:41Z</time>
      </trkpt>
      <trkpt lat="45.03161" lon="5.57345">
        <ele>1625.73</ele>
        <time>2013-08-15T12:31:08Z</time>
      </trkpt>
      <trkpt lat="45.03174" lon="5.57343">
        <ele>1622.36</ele>
        <time>2013-08-15T12:31:16Z</time>
      </trkpt>
      <trkpt lat="45.03176" lon="5.57342">
        <ele>1621.88</ele>
        <time>2013-08-15T12:31:17Z</time>
      </trkpt>
      <trkpt lat="45.03186" lon="5.57333">
        <ele>1620.92</ele>
        <time>2013-08-15T12:31:23Z</time>
      </trkpt>
      <trkpt lat="45.03188" lon="5.57328">
        <ele>1619.48</ele>
        <time>2013-08-15T12:31:33Z</time>
      </trkpt>
      <trkpt lat="45.03192" lon="5.57323">
        <ele>1617.56</ele>
        <time>2013-08-15T12:31:45Z</time>
      </trkpt>
      <trkpt lat="45.03192" lon="5.57322">
        <ele>1617.56</ele>
        <time>2013-08-15T12:31:46Z</time>
      </trkpt>
      <trkpt lat="45.03194" lon="5.57316">
        <ele>1617.56</ele>
        <time>2013-08-15T12:31:50Z</time>
      </trkpt>
      <trkpt lat="45.03198" lon="5.57312">
        <ele>1616.59</ele>
        <time>2013-08-15T12:31:53Z</time>
      </trkpt>
      <trkpt lat="45.03203" lon="5.57306">
        <ele>1615.63</ele>
        <time>2013-08-15T12:31:55Z</time>
      </trkpt>
      <trkpt lat="45.03222" lon="5.57293">
        <ele>1611.31</ele>
        <time>2013-08-15T12:31:59Z</time>
      </trkpt>
      <trkpt lat="45.03241" lon="5.57282">
        <ele>1606.5</ele>
        <time>2013-08-15T12:32:02Z</time>
      </trkpt>
      <trkpt lat="45.03275" lon="5.57266">
        <ele>1601.69</ele>
        <time>2013-08-15T12:32:07Z</time>
      </trkpt>
      <trkpt lat="45.03302" lon="5.57261">
        <ele>1598.33</ele>
        <time>2013-08-15T12:32:11Z</time>
      </trkpt>
      <trkpt lat="45.03318" lon="5.57259">
        <ele>1594.96</ele>
        <time>2013-08-15T12:32:13Z</time>
      </trkpt>
      <trkpt lat="45.0333" lon="5.57257">
        <ele>1593.52</ele>
        <time>2013-08-15T12:32:15Z</time>
      </trkpt>
      <trkpt lat="45.03345" lon="5.57246">
        <ele>1590.64</ele>
        <time>2013-08-15T12:32:22Z</time>
      </trkpt>
      <trkpt lat="45.03347" lon="5.57246">
        <ele>1590.64</ele>
        <time>2013-08-15T12:32:43Z</time>
      </trkpt>
      <trkpt lat="45.03349" lon="5.57246">
        <ele>1590.16</ele>
        <time>2013-08-15T12:32:44Z</time>
      </trkpt>
      <trkpt lat="45.03352" lon="5.57247">
        <ele>1589.2</ele>
        <time>2013-08-15T12:32:45Z</time>
      </trkpt>
      <trkpt lat="45.03356" lon="5.57247">
        <ele>1588.72</ele>
        <time>2013-08-15T12:32:46Z</time>
      </trkpt>
      <trkpt lat="45.0336" lon="5.57247">
        <ele>1587.75</ele>
        <time>2013-08-15T12:32:47Z</time>
      </trkpt>
      <trkpt lat="45.03365" lon="5.57247">
        <ele>1586.79</ele>
        <time>2013-08-15T12:32:48Z</time>
      </trkpt>
      <trkpt lat="45.03369" lon="5.57247">
        <ele>1585.35</ele>
        <time>2013-08-15T12:32:49Z</time>
      </trkpt>
      <trkpt lat="45.03374" lon="5.57246">
        <ele>1583.91</ele>
        <time>2013-08-15T12:32:50Z</time>
      </trkpt>
      <trkpt lat="45.03378" lon="5.57245">
        <ele>1583.43</ele>
        <time>2013-08-15T12:32:51Z</time>
      </trkpt>
      <trkpt lat="45.03383" lon="5.57243">
        <ele>1582.47</ele>
        <time>2013-08-15T12:32:52Z</time>
      </trkpt>
      <trkpt lat="45.034" lon="5.57235">
        <ele>1579.58</ele>
        <time>2013-08-15T12:32:55Z</time>
      </trkpt>
      <trkpt lat="45.03421" lon="5.57226">
        <ele>1575.74</ele>
        <time>2013-08-15T12:32:58Z</time>
      </trkpt>
      <trkpt lat="45.03434" lon="5.5722">
        <ele>1574.3</ele>
        <time>2013-08-15T12:33:00Z</time>
      </trkpt>
      <trkpt lat="45.03446" lon="5.57216">
        <ele>1572.85</ele>
        <time>2013-08-15T12:33:02Z</time>
      </trkpt>
      <trkpt lat="45.03459" lon="5.57217">
        <ele>1570.45</ele>
        <time>2013-08-15T12:33:04Z</time>
      </trkpt>
      <trkpt lat="45.03466" lon="5.57219">
        <ele>1568.05</ele>
        <time>2013-08-15T12:33:05Z</time>
      </trkpt>
      <trkpt lat="45.03472" lon="5.57221">
        <ele>1565.64</ele>
        <time>2013-08-15T12:33:06Z</time>
      </trkpt>
      <trkpt lat="45.03479" lon="5.57225">
        <ele>1561.8</ele>
        <time>2013-08-15T12:33:07Z</time>
      </trkpt>
      <trkpt lat="45.03487" lon="5.57229">
        <ele>1559.4</ele>
        <time>2013-08-15T12:33:08Z</time>
      </trkpt>
      <trkpt lat="45.03496" lon="5.57234">
        <ele>1557.47</ele>
        <time>2013-08-15T12:33:09Z</time>
      </trkpt>
      <trkpt lat="45.03514" lon="5.57246">
        <ele>1555.07</ele>
        <time>2013-08-15T12:33:11Z</time>
      </trkpt>
      <trkpt lat="45.03526" lon="5.5725">
        <ele>1554.11</ele>
        <time>2013-08-15T12:33:12Z</time>
      </trkpt>
      <trkpt lat="45.03559" lon="5.57263">
        <ele>1551.22</ele>
        <time>2013-08-15T12:33:15Z</time>
      </trkpt>
      <trkpt lat="45.03592" lon="5.57274">
        <ele>1548.82</ele>
        <time>2013-08-15T12:33:18Z</time>
      </trkpt>
      <trkpt lat="45.0363" lon="5.57286">
        <ele>1546.9</ele>
        <time>2013-08-15T12:33:22Z</time>
      </trkpt>
      <trkpt lat="45.0365" lon="5.57293">
        <ele>1542.57</ele>
        <time>2013-08-15T12:33:24Z</time>
      </trkpt>
      <trkpt lat="45.03658" lon="5.57294">
        <ele>1542.57</ele>
        <time>2013-08-15T12:33:25Z</time>
      </trkpt>
      <trkpt lat="45.03665" lon="5.57292">
        <ele>1541.61</ele>
        <time>2013-08-15T12:33:26Z</time>
      </trkpt>
      <trkpt lat="45.03681" lon="5.57286">
        <ele>1537.77</ele>
        <time>2013-08-15T12:33:28Z</time>
      </trkpt>
      <trkpt lat="45.03688" lon="5.57281">
        <ele>1535.84</ele>
        <time>2013-08-15T12:33:29Z</time>
      </trkpt>
      <trkpt lat="45.03697" lon="5.57274">
        <ele>1534.4</ele>
        <time>2013-08-15T12:33:30Z</time>
      </trkpt>
      <trkpt lat="45.03719" lon="5.57254">
        <ele>1530.56</ele>
        <time>2013-08-15T12:33:33Z</time>
      </trkpt>
      <trkpt lat="45.03736" lon="5.57237">
        <ele>1527.19</ele>
        <time>2013-08-15T12:33:35Z</time>
      </trkpt>
      <trkpt lat="45.03754" lon="5.57221">
        <ele>1524.31</ele>
        <time>2013-08-15T12:33:37Z</time>
      </trkpt>
      <trkpt lat="45.03782" lon="5.57194">
        <ele>1520.46</ele>
        <time>2013-08-15T12:33:40Z</time>
      </trkpt>
      <trkpt lat="45.03792" lon="5.57187">
        <ele>1519.98</ele>
        <time>2013-08-15T12:33:41Z</time>
      </trkpt>
      <trkpt lat="45.03802" lon="5.57181">
        <ele>1519.02</ele>
        <time>2013-08-15T12:33:42Z</time>
      </trkpt>
      <trkpt lat="45.03828" lon="5.57172">
        <ele>1519.02</ele>
        <time>2013-08-15T12:33:45Z</time>
      </trkpt>
      <trkpt lat="45.03837" lon="5.57171">
        <ele>1519.5</ele>
        <time>2013-08-15T12:33:46Z</time>
      </trkpt>
      <trkpt lat="45.03843" lon="5.57174">
        <ele>1519.98</ele>
        <time>2013-08-15T12:33:47Z</time>
      </trkpt>
      <trkpt lat="45.0386" lon="5.57176">
        <ele>1520.46</ele>
        <time>2013-08-15T12:33:50Z</time>
      </trkpt>
      <trkpt lat="45.03861" lon="5.57175">
        <ele>1520.94</ele>
        <time>2013-08-15T12:34:02Z</time>
      </trkpt>
      <trkpt lat="45.0386" lon="5.57176">
        <ele>1521.42</ele>
        <time>2013-08-15T12:34:11Z</time>
      </trkpt>
      <trkpt lat="45.03859" lon="5.57177">
        <ele>1521.42</ele>
        <time>2013-08-15T12:34:12Z</time>
      </trkpt>
      <trkpt lat="45.03858" lon="5.57176">
        <ele>1521.9</ele>
        <time>2013-08-15T12:34:13Z</time>
      </trkpt>
      <trkpt lat="45.03856" lon="5.57174">
        <ele>1521.42</ele>
        <time>2013-08-15T12:34:14Z</time>
      </trkpt>
      <trkpt lat="45.03855" lon="5.57172">
        <ele>1521.42</ele>
        <time>2013-08-15T12:34:15Z</time>
      </trkpt>
      <trkpt lat="45.03853" lon="5.5717">
        <ele>1521.42</ele>
        <time>2013-08-15T12:34:16Z</time>
      </trkpt>
      <trkpt lat="45.03851" lon="5.57168">
        <ele>1521.42</ele>
        <time>2013-08-15T12:34:17Z</time>
      </trkpt>
      <trkpt lat="45.03819" lon="5.57167">
        <ele>1521.42</ele>
        <time>2013-08-15T12:34:29Z</time>
      </trkpt>
      <trkpt lat="45.03789" lon="5.57192">
        <ele>1522.87</ele>
        <time>2013-08-15T12:34:45Z</time>
      </trkpt>
      <trkpt lat="45.0377" lon="5.57219">
        <ele>1524.31</ele>
        <time>2013-08-15T12:34:59Z</time>
      </trkpt>
      <trkpt lat="45.03754" lon="5.57249">
        <ele>1524.31</ele>
        <time>2013-08-15T12:35:11Z</time>
      </trkpt>
      <trkpt lat="45.0374" lon="5.57302">
        <ele>1526.23</ele>
        <time>2013-08-15T12:35:26Z</time>
      </trkpt>
      <trkpt lat="45.03733" lon="5.57325">
        <ele>1526.71</ele>
        <time>2013-08-15T12:35:35Z</time>
      </trkpt>
      <trkpt lat="45.03733" lon="5.57327">
        <ele>1526.71</ele>
        <time>2013-08-15T12:35:36Z</time>
      </trkpt>
      <trkpt lat="45.03733" lon="5.5733">
        <ele>1526.71</ele>
        <time>2013-08-15T12:35:37Z</time>
      </trkpt>
      <trkpt lat="45.03734" lon="5.57332">
        <ele>1527.19</ele>
        <time>2013-08-15T12:35:38Z</time>
      </trkpt>
      <trkpt lat="45.03735" lon="5.57335">
        <ele>1527.19</ele>
        <time>2013-08-15T12:35:39Z</time>
      </trkpt>
      <trkpt lat="45.03736" lon="5.57337">
        <ele>1527.19</ele>
        <time>2013-08-15T12:35:40Z</time>
      </trkpt>
      <trkpt lat="45.03737" lon="5.57339">
        <ele>1527.19</ele>
        <time>2013-08-15T12:35:41Z</time>
      </trkpt>
      <trkpt lat="45.03738" lon="5.57341">
        <ele>1527.67</ele>
        <time>2013-08-15T12:35:42Z</time>
      </trkpt>
      <trkpt lat="45.03739" lon="5.57341">
        <ele>1527.67</ele>
        <time>2013-08-15T12:35:43Z</time>
      </trkpt>
      <trkpt lat="45.0375" lon="5.57351">
        <ele>1528.15</ele>
        <time>2013-08-15T12:35:55Z</time>
      </trkpt>
      <trkpt lat="45.03749" lon="5.57352">
        <ele>1528.63</ele>
        <time>2013-08-15T12:35:57Z</time>
      </trkpt>
      <trkpt lat="45.03748" lon="5.57351">
        <ele>1528.15</ele>
        <time>2013-08-15T12:35:58Z</time>
      </trkpt>
      <trkpt lat="45.03734" lon="5.57336">
        <ele>1527.67</ele>
        <time>2013-08-15T12:36:11Z</time>
      </trkpt>
      <trkpt lat="45.03733" lon="5.57337">
        <ele>1527.67</ele>
        <time>2013-08-15T12:36:29Z</time>
      </trkpt>
      <trkpt lat="45.03731" lon="5.57337">
        <ele>1527.67</ele>
        <time>2013-08-15T12:36:30Z</time>
      </trkpt>
      <trkpt lat="45.03723" lon="5.57343">
        <ele>1525.27</ele>
        <time>2013-08-15T12:36:35Z</time>
      </trkpt>
      <trkpt lat="45.03701" lon="5.57351">
        <ele>1522.87</ele>
        <time>2013-08-15T12:36:46Z</time>
      </trkpt>
      <trkpt lat="45.03701" lon="5.57352">
        <ele>1522.39</ele>
        <time>2013-08-15T12:36:47Z</time>
      </trkpt>
      <trkpt lat="45.03685" lon="5.57368">
        <ele>1522.87</ele>
        <time>2013-08-15T12:36:59Z</time>
      </trkpt>
      <trkpt lat="45.03682" lon="5.57373">
        <ele>1523.35</ele>
        <time>2013-08-15T12:37:02Z</time>
      </trkpt>
      <trkpt lat="45.03677" lon="5.57378">
        <ele>1522.39</ele>
        <time>2013-08-15T12:37:05Z</time>
      </trkpt>
      <trkpt lat="45.03674" lon="5.57385">
        <ele>1521.9</ele>
        <time>2013-08-15T12:37:08Z</time>
      </trkpt>
      <trkpt lat="45.0366" lon="5.57404">
        <ele>1518.06</ele>
        <time>2013-08-15T12:37:18Z</time>
      </trkpt>
      <trkpt lat="45.03656" lon="5.57408">
        <ele>1514.69</ele>
        <time>2013-08-15T12:37:22Z</time>
      </trkpt>
      <trkpt lat="45.03657" lon="5.5741">
        <ele>1514.21</ele>
        <time>2013-08-15T12:37:23Z</time>
      </trkpt>
      <trkpt lat="45.03658" lon="5.57415">
        <ele>1512.29</ele>
        <time>2013-08-15T12:37:26Z</time>
      </trkpt>
      <trkpt lat="45.03663" lon="5.5742">
        <ele>1510.85</ele>
        <time>2013-08-15T12:37:32Z</time>
      </trkpt>
      <trkpt lat="45.03685" lon="5.57454">
        <ele>1507.97</ele>
        <time>2013-08-15T12:37:43Z</time>
      </trkpt>
      <trkpt lat="45.03687" lon="5.57463">
        <ele>1507.48</ele>
        <time>2013-08-15T12:37:47Z</time>
      </trkpt>
      <trkpt lat="45.03681" lon="5.57474">
        <ele>1504.12</ele>
        <time>2013-08-15T12:37:53Z</time>
      </trkpt>
      <trkpt lat="45.03675" lon="5.5748">
        <ele>1503.16</ele>
        <time>2013-08-15T12:38:03Z</time>
      </trkpt>
      <trkpt lat="45.03675" lon="5.5748">
        <ele>1501.72</ele>
        <time>2013-08-15T12:38:17Z</time>
      </trkpt>
      <trkpt lat="45.03675" lon="5.5748">
        <ele>1505.08</ele>
        <time>2013-08-15T12:38:18Z</time>
      </trkpt>
      <trkpt lat="45.03675" lon="5.57481">
        <ele>1503.64</ele>
        <time>2013-08-15T12:38:44Z</time>
      </trkpt>
      <trkpt lat="45.03675" lon="5.57481">
        <ele>1503.16</ele>
        <time>2013-08-15T12:39:06Z</time>
      </trkpt>
      <trkpt lat="45.03675" lon="5.57481">
        <ele>1503.16</ele>
        <time>2013-08-15T12:39:33Z</time>
      </trkpt>
      <trkpt lat="45.03678" lon="5.57484">
        <ele>1503.64</ele>
        <time>2013-08-15T12:39:45Z</time>
      </trkpt>
      <trkpt lat="45.03677" lon="5.57485">
        <ele>1503.64</ele>
        <time>2013-08-15T12:39:54Z</time>
      </trkpt>
      <trkpt lat="45.03672" lon="5.57497">
        <ele>1502.68</ele>
        <time>2013-08-15T12:40:03Z</time>
      </trkpt>
      <trkpt lat="45.03672" lon="5.57497">
        <ele>1503.64</ele>
        <time>2013-08-15T12:40:06Z</time>
      </trkpt>
      <trkpt lat="45.03673" lon="5.57502">
        <ele>1502.68</ele>
        <time>2013-08-15T12:40:19Z</time>
      </trkpt>
      <trkpt lat="45.03675" lon="5.57509">
        <ele>1501.24</ele>
        <time>2013-08-15T12:40:41Z</time>
      </trkpt>
      <trkpt lat="45.03674" lon="5.57511">
        <ele>1500.27</ele>
        <time>2013-08-15T12:40:44Z</time>
      </trkpt>
      <trkpt lat="45.03668" lon="5.57525">
        <ele>1500.76</ele>
        <time>2013-08-15T12:40:55Z</time>
      </trkpt>
      <trkpt lat="45.03669" lon="5.57527">
        <ele>1501.24</ele>
        <time>2013-08-15T12:41:09Z</time>
      </trkpt>
      <trkpt lat="45.03668" lon="5.57528">
        <ele>1500.76</ele>
        <time>2013-08-15T12:41:11Z</time>
      </trkpt>
      <trkpt lat="45.03665" lon="5.57533">
        <ele>1499.31</ele>
        <time>2013-08-15T12:41:14Z</time>
      </trkpt>
      <trkpt lat="45.03664" lon="5.57536">
        <ele>1497.87</ele>
        <time>2013-08-15T12:41:17Z</time>
      </trkpt>
      <trkpt lat="45.03666" lon="5.57542">
        <ele>1494.99</ele>
        <time>2013-08-15T12:41:24Z</time>
      </trkpt>
      <trkpt lat="45.03668" lon="5.57543">
        <ele>1494.51</ele>
        <time>2013-08-15T12:41:26Z</time>
      </trkpt>
      <trkpt lat="45.0367" lon="5.57547">
        <ele>1491.62</ele>
        <time>2013-08-15T12:41:32Z</time>
      </trkpt>
      <trkpt lat="45.03672" lon="5.57548">
        <ele>1490.66</ele>
        <time>2013-08-15T12:41:33Z</time>
      </trkpt>
      <trkpt lat="45.03675" lon="5.57549">
        <ele>1490.18</ele>
        <time>2013-08-15T12:41:35Z</time>
      </trkpt>
      <trkpt lat="45.03679" lon="5.5755">
        <ele>1488.26</ele>
        <time>2013-08-15T12:41:37Z</time>
      </trkpt>
      <trkpt lat="45.03686" lon="5.57552">
        <ele>1487.3</ele>
        <time>2013-08-15T12:41:40Z</time>
      </trkpt>
      <trkpt lat="45.03693" lon="5.5755">
        <ele>1485.37</ele>
        <time>2013-08-15T12:41:43Z</time>
      </trkpt>
      <trkpt lat="45.03706" lon="5.57555">
        <ele>1482.97</ele>
        <time>2013-08-15T12:41:56Z</time>
      </trkpt>
      <trkpt lat="45.03715" lon="5.57548">
        <ele>1483.93</ele>
        <time>2013-08-15T12:42:10Z</time>
      </trkpt>
      <trkpt lat="45.03723" lon="5.57543">
        <ele>1483.45</ele>
        <time>2013-08-15T12:42:25Z</time>
      </trkpt>
      <trkpt lat="45.03726" lon="5.57551">
        <ele>1481.53</ele>
        <time>2013-08-15T12:42:40Z</time>
      </trkpt>
      <trkpt lat="45.03733" lon="5.57554">
        <ele>1479.13</ele>
        <time>2013-08-15T12:42:51Z</time>
      </trkpt>
      <trkpt lat="45.03738" lon="5.57552">
        <ele>1479.61</ele>
        <time>2013-08-15T12:43:04Z</time>
      </trkpt>
      <trkpt lat="45.03736" lon="5.57554">
        <ele>1480.57</ele>
        <time>2013-08-15T12:43:15Z</time>
      </trkpt>
      <trkpt lat="45.03741" lon="5.57545">
        <ele>1481.05</ele>
        <time>2013-08-15T12:43:37Z</time>
      </trkpt>
      <trkpt lat="45.03743" lon="5.57549">
        <ele>1478.65</ele>
        <time>2013-08-15T12:43:59Z</time>
      </trkpt>
      <trkpt lat="45.03744" lon="5.57553">
        <ele>1477.68</ele>
        <time>2013-08-15T12:44:11Z</time>
      </trkpt>
      <trkpt lat="45.03745" lon="5.57552">
        <ele>1476.72</ele>
        <time>2013-08-15T12:44:22Z</time>
      </trkpt>
      <trkpt lat="45.03744" lon="5.57554">
        <ele>1476.72</ele>
        <time>2013-08-15T12:44:36Z</time>
      </trkpt>
      <trkpt lat="45.03748" lon="5.57556">
        <ele>1475.28</ele>
        <time>2013-08-15T12:44:51Z</time>
      </trkpt>
      <trkpt lat="45.03748" lon="5.57557">
        <ele>1474.8</ele>
        <time>2013-08-15T12:45:10Z</time>
      </trkpt>
      <trkpt lat="45.0375" lon="5.57558">
        <ele>1474.32</ele>
        <time>2013-08-15T12:45:33Z</time>
      </trkpt>
      <trkpt lat="45.03751" lon="5.57558">
        <ele>1474.32</ele>
        <time>2013-08-15T12:45:37Z</time>
      </trkpt>
      <trkpt lat="45.03755" lon="5.57554">
        <ele>1474.32</ele>
        <time>2013-08-15T12:45:50Z</time>
      </trkpt>
      <trkpt lat="45.03755" lon="5.57554">
        <ele>1474.32</ele>
        <time>2013-08-15T12:46:16Z</time>
      </trkpt>
      <trkpt lat="45.03754" lon="5.57554">
        <ele>1474.8</ele>
        <time>2013-08-15T12:46:31Z</time>
      </trkpt>
      <trkpt lat="45.03755" lon="5.57554">
        <ele>1474.8</ele>
        <time>2013-08-15T12:46:59Z</time>
      </trkpt>
      <trkpt lat="45.03756" lon="5.57554">
        <ele>1472.4</ele>
        <time>2013-08-15T12:47:14Z</time>
      </trkpt>
      <trkpt lat="45.03764" lon="5.57553">
        <ele>1470.95</ele>
        <time>2013-08-15T12:47:27Z</time>
      </trkpt>
      <trkpt lat="45.03768" lon="5.57554">
        <ele>1470.47</ele>
        <time>2013-08-15T12:47:41Z</time>
      </trkpt>
      <trkpt lat="45.03772" lon="5.57554">
        <ele>1469.99</ele>
        <time>2013-08-15T12:47:55Z</time>
      </trkpt>
      <trkpt lat="45.03772" lon="5.57555">
        <ele>1469.99</ele>
        <time>2013-08-15T12:48:19Z</time>
      </trkpt>
      <trkpt lat="45.03772" lon="5.57555">
        <ele>1469.99</ele>
        <time>2013-08-15T12:48:20Z</time>
      </trkpt>
      <trkpt lat="45.03771" lon="5.57558">
        <ele>1469.03</ele>
        <time>2013-08-15T12:48:23Z</time>
      </trkpt>
      <trkpt lat="45.03769" lon="5.57562">
        <ele>1467.11</ele>
        <time>2013-08-15T12:48:33Z</time>
      </trkpt>
      <trkpt lat="45.03771" lon="5.57565">
        <ele>1466.15</ele>
        <time>2013-08-15T12:48:43Z</time>
      </trkpt>
      <trkpt lat="45.03771" lon="5.57565">
        <ele>1466.15</ele>
        <time>2013-08-15T12:49:04Z</time>
      </trkpt>
      <trkpt lat="45.03772" lon="5.57567">
        <ele>1465.67</ele>
        <time>2013-08-15T12:49:17Z</time>
      </trkpt>
      <trkpt lat="45.03772" lon="5.57567">
        <ele>1465.19</ele>
        <time>2013-08-15T12:49:19Z</time>
      </trkpt>
      <trkpt lat="45.03779" lon="5.57567">
        <ele>1465.19</ele>
        <time>2013-08-15T12:49:23Z</time>
      </trkpt>
      <trkpt lat="45.03783" lon="5.57571">
        <ele>1463.26</ele>
        <time>2013-08-15T12:49:31Z</time>
      </trkpt>
      <trkpt lat="45.03777" lon="5.57575">
        <ele>1460.38</ele>
        <time>2013-08-15T12:49:44Z</time>
      </trkpt>
      <trkpt lat="45.03777" lon="5.57575">
        <ele>1460.38</ele>
        <time>2013-08-15T12:50:01Z</time>
      </trkpt>
      <trkpt lat="45.03777" lon="5.57575">
        <ele>1459.9</ele>
        <time>2013-08-15T12:50:22Z</time>
      </trkpt>
      <trkpt lat="45.03776" lon="5.57575">
        <ele>1460.38</ele>
        <time>2013-08-15T12:50:41Z</time>
      </trkpt>
      <trkpt lat="45.0377" lon="5.57576">
        <ele>1457.5</ele>
        <time>2013-08-15T12:50:46Z</time>
      </trkpt>
      <trkpt lat="45.03768" lon="5.5758">
        <ele>1454.13</ele>
        <time>2013-08-15T12:50:52Z</time>
      </trkpt>
      <trkpt lat="45.03768" lon="5.57581">
        <ele>1454.13</ele>
        <time>2013-08-15T12:51:14Z</time>
      </trkpt>
      <trkpt lat="45.03768" lon="5.57581">
        <ele>1454.13</ele>
        <time>2013-08-15T12:51:37Z</time>
      </trkpt>
      <trkpt lat="45.03768" lon="5.57581">
        <ele>1454.61</ele>
        <time>2013-08-15T12:52:09Z</time>
      </trkpt>
      <trkpt lat="45.03769" lon="5.57581">
        <ele>1453.17</ele>
        <time>2013-08-15T12:52:32Z</time>
      </trkpt>
      <trkpt lat="45.03769" lon="5.57581">
        <ele>1451.73</ele>
        <time>2013-08-15T12:52:35Z</time>
      </trkpt>
      <trkpt lat="45.03769" lon="5.57586">
        <ele>1450.77</ele>
        <time>2013-08-15T12:52:42Z</time>
      </trkpt>
      <trkpt lat="45.03769" lon="5.57597">
        <ele>1446.92</ele>
        <time>2013-08-15T12:52:49Z</time>
      </trkpt>
      <trkpt lat="45.0377" lon="5.57607">
        <ele>1443.56</ele>
        <time>2013-08-15T12:52:56Z</time>
      </trkpt>
      <trkpt lat="45.0377" lon="5.57607">
        <ele>1443.56</ele>
        <time>2013-08-15T12:52:57Z</time>
      </trkpt>
      <trkpt lat="45.0377" lon="5.57609">
        <ele>1443.56</ele>
        <time>2013-08-15T12:53:16Z</time>
      </trkpt>
      <trkpt lat="45.0377" lon="5.57613">
        <ele>1441.15</ele>
        <time>2013-08-15T12:53:24Z</time>
      </trkpt>
      <trkpt lat="45.03771" lon="5.57619">
        <ele>1440.67</ele>
        <time>2013-08-15T12:53:35Z</time>
      </trkpt>
      <trkpt lat="45.03777" lon="5.57628">
        <ele>1438.27</ele>
        <time>2013-08-15T12:53:47Z</time>
      </trkpt>
      <trkpt lat="45.03777" lon="5.57629">
        <ele>1438.27</ele>
        <time>2013-08-15T12:54:06Z</time>
      </trkpt>
      <trkpt lat="45.03777" lon="5.57629">
        <ele>1437.79</ele>
        <time>2013-08-15T12:54:28Z</time>
      </trkpt>
      <trkpt lat="45.03789" lon="5.57648">
        <ele>1436.35</ele>
        <time>2013-08-15T12:54:36Z</time>
      </trkpt>
      <trkpt lat="45.03794" lon="5.57657">
        <ele>1438.27</ele>
        <time>2013-08-15T12:54:46Z</time>
      </trkpt>
      <trkpt lat="45.03794" lon="5.57673">
        <ele>1439.23</ele>
        <time>2013-08-15T12:54:50Z</time>
      </trkpt>
      <trkpt lat="45.03786" lon="5.57704">
        <ele>1438.75</ele>
        <time>2013-08-15T12:55:01Z</time>
      </trkpt>
      <trkpt lat="45.03786" lon="5.57715">
        <ele>1439.71</ele>
        <time>2013-08-15T12:55:11Z</time>
      </trkpt>
      <trkpt lat="45.03787" lon="5.57723">
        <ele>1440.19</ele>
        <time>2013-08-15T12:55:21Z</time>
      </trkpt>
      <trkpt lat="45.03787" lon="5.57725">
        <ele>1440.19</ele>
        <time>2013-08-15T12:55:39Z</time>
      </trkpt>
      <trkpt lat="45.03787" lon="5.57727">
        <ele>1440.19</ele>
        <time>2013-08-15T12:55:51Z</time>
      </trkpt>
      <trkpt lat="45.03783" lon="5.57744">
        <ele>1437.31</ele>
        <time>2013-08-15T12:55:57Z</time>
      </trkpt>
      <trkpt lat="45.03776" lon="5.5776">
        <ele>1434.91</ele>
        <time>2013-08-15T12:56:02Z</time>
      </trkpt>
      <trkpt lat="45.03768" lon="5.57791">
        <ele>1431.54</ele>
        <time>2013-08-15T12:56:09Z</time>
      </trkpt>
      <trkpt lat="45.0376" lon="5.57811">
        <ele>1430.58</ele>
        <time>2013-08-15T12:56:14Z</time>
      </trkpt>
      <trkpt lat="45.03757" lon="5.57828">
        <ele>1427.7</ele>
        <time>2013-08-15T12:56:18Z</time>
      </trkpt>
      <trkpt lat="45.03754" lon="5.57835">
        <ele>1426.25</ele>
        <time>2013-08-15T12:56:20Z</time>
      </trkpt>
      <trkpt lat="45.0375" lon="5.5785">
        <ele>1424.81</ele>
        <time>2013-08-15T12:56:23Z</time>
      </trkpt>
      <trkpt lat="45.03748" lon="5.57865">
        <ele>1423.85</ele>
        <time>2013-08-15T12:56:28Z</time>
      </trkpt>
      <trkpt lat="45.03747" lon="5.57872">
        <ele>1423.85</ele>
        <time>2013-08-15T12:56:32Z</time>
      </trkpt>
      <trkpt lat="45.03747" lon="5.57877">
        <ele>1423.85</ele>
        <time>2013-08-15T12:56:34Z</time>
      </trkpt>
      <trkpt lat="45.03741" lon="5.57893">
        <ele>1422.41</ele>
        <time>2013-08-15T12:56:39Z</time>
      </trkpt>
      <trkpt lat="45.0374" lon="5.579">
        <ele>1420.49</ele>
        <time>2013-08-15T12:56:41Z</time>
      </trkpt>
      <trkpt lat="45.0374" lon="5.57916">
        <ele>1417.6</ele>
        <time>2013-08-15T12:56:46Z</time>
      </trkpt>
      <trkpt lat="45.03748" lon="5.57926">
        <ele>1417.6</ele>
        <time>2013-08-15T12:56:52Z</time>
      </trkpt>
      <trkpt lat="45.03758" lon="5.5793">
        <ele>1415.68</ele>
        <time>2013-08-15T12:56:57Z</time>
      </trkpt>
      <trkpt lat="45.03766" lon="5.57931">
        <ele>1414.72</ele>
        <time>2013-08-15T12:57:07Z</time>
      </trkpt>
      <trkpt lat="45.03777" lon="5.57927">
        <ele>1411.83</ele>
        <time>2013-08-15T12:57:12Z</time>
      </trkpt>
      <trkpt lat="45.03782" lon="5.57928">
        <ele>1411.35</ele>
        <time>2013-08-15T12:57:14Z</time>
      </trkpt>
      <trkpt lat="45.03791" lon="5.57933">
        <ele>1410.39</ele>
        <time>2013-08-15T12:57:19Z</time>
      </trkpt>
      <trkpt lat="45.03799" lon="5.57939">
        <ele>1407.51</ele>
        <time>2013-08-15T12:57:24Z</time>
      </trkpt>
      <trkpt lat="45.03803" lon="5.57936">
        <ele>1405.58</ele>
        <time>2013-08-15T12:57:31Z</time>
      </trkpt>
      <trkpt lat="45.03812" lon="5.5794">
        <ele>1402.22</ele>
        <time>2013-08-15T12:57:40Z</time>
      </trkpt>
      <trkpt lat="45.03817" lon="5.57952">
        <ele>1402.22</ele>
        <time>2013-08-15T12:57:49Z</time>
      </trkpt>
      <trkpt lat="45.03817" lon="5.57952">
        <ele>1402.22</ele>
        <time>2013-08-15T12:58:09Z</time>
      </trkpt>
      <trkpt lat="45.03817" lon="5.57953">
        <ele>1402.22</ele>
        <time>2013-08-15T12:58:23Z</time>
      </trkpt>
      <trkpt lat="45.03818" lon="5.57959">
        <ele>1402.22</ele>
        <time>2013-08-15T12:58:36Z</time>
      </trkpt>
      <trkpt lat="45.03818" lon="5.57959">
        <ele>1402.22</ele>
        <time>2013-08-15T12:58:47Z</time>
      </trkpt>
      <trkpt lat="45.03818" lon="5.57961">
        <ele>1402.22</ele>
        <time>2013-08-15T12:58:54Z</time>
      </trkpt>
      <trkpt lat="45.03815" lon="5.57971">
        <ele>1399.34</ele>
        <time>2013-08-15T12:59:00Z</time>
      </trkpt>
      <trkpt lat="45.03814" lon="5.57984">
        <ele>1397.89</ele>
        <time>2013-08-15T12:59:10Z</time>
      </trkpt>
      <trkpt lat="45.03833" lon="5.58008">
        <ele>1395.49</ele>
        <time>2013-08-15T12:59:23Z</time>
      </trkpt>
      <trkpt lat="45.03838" lon="5.58014">
        <ele>1392.13</ele>
        <time>2013-08-15T12:59:28Z</time>
      </trkpt>
      <trkpt lat="45.03843" lon="5.58028">
        <ele>1388.28</ele>
        <time>2013-08-15T12:59:32Z</time>
      </trkpt>
      <trkpt lat="45.03848" lon="5.58035">
        <ele>1384.92</ele>
        <time>2013-08-15T12:59:36Z</time>
      </trkpt>
      <trkpt lat="45.0385" lon="5.58036">
        <ele>1383.96</ele>
        <time>2013-08-15T12:59:37Z</time>
      </trkpt>
      <trkpt lat="45.03853" lon="5.58034">
        <ele>1382.99</ele>
        <time>2013-08-15T12:59:39Z</time>
      </trkpt>
      <trkpt lat="45.0388" lon="5.58022">
        <ele>1379.15</ele>
        <time>2013-08-15T12:59:43Z</time>
      </trkpt>
      <trkpt lat="45.03904" lon="5.58012">
        <ele>1375.78</ele>
        <time>2013-08-15T12:59:47Z</time>
      </trkpt>
      <trkpt lat="45.03917" lon="5.58007">
        <ele>1372.42</ele>
        <time>2013-08-15T12:59:49Z</time>
      </trkpt>
      <trkpt lat="45.0392" lon="5.58005">
        <ele>1372.42</ele>
        <time>2013-08-15T12:59:50Z</time>
      </trkpt>
      <trkpt lat="45.03924" lon="5.58003">
        <ele>1371.46</ele>
        <time>2013-08-15T12:59:51Z</time>
      </trkpt>
      <trkpt lat="45.03933" lon="5.57996">
        <ele>1369.54</ele>
        <time>2013-08-15T12:59:53Z</time>
      </trkpt>
      <trkpt lat="45.03937" lon="5.5799">
        <ele>1368.57</ele>
        <time>2013-08-15T12:59:54Z</time>
      </trkpt>
      <trkpt lat="45.03941" lon="5.57985">
        <ele>1367.13</ele>
        <time>2013-08-15T12:59:55Z</time>
      </trkpt>
      <trkpt lat="45.03945" lon="5.57981">
        <ele>1366.17</ele>
        <time>2013-08-15T12:59:56Z</time>
      </trkpt>
      <trkpt lat="45.0395" lon="5.57979">
        <ele>1365.21</ele>
        <time>2013-08-15T12:59:57Z</time>
      </trkpt>
      <trkpt lat="45.03955" lon="5.57978">
        <ele>1363.77</ele>
        <time>2013-08-15T12:59:58Z</time>
      </trkpt>
      <trkpt lat="45.0396" lon="5.57978">
        <ele>1361.36</ele>
        <time>2013-08-15T12:59:59Z</time>
      </trkpt>
      <trkpt lat="45.03966" lon="5.57977">
        <ele>1360.4</ele>
        <time>2013-08-15T13:00:00Z</time>
      </trkpt>
      <trkpt lat="45.03972" lon="5.57976">
        <ele>1358.96</ele>
        <time>2013-08-15T13:00:01Z</time>
      </trkpt>
      <trkpt lat="45.03984" lon="5.57972">
        <ele>1356.56</ele>
        <time>2013-08-15T13:00:03Z</time>
      </trkpt>
      <trkpt lat="45.03997" lon="5.57968">
        <ele>1354.63</ele>
        <time>2013-08-15T13:00:05Z</time>
      </trkpt>
      <trkpt lat="45.04033" lon="5.5797">
        <ele>1352.23</ele>
        <time>2013-08-15T13:00:10Z</time>
      </trkpt>
      <trkpt lat="45.04083" lon="5.57996">
        <ele>1350.79</ele>
        <time>2013-08-15T13:00:20Z</time>
      </trkpt>
      <trkpt lat="45.04128" lon="5.5801">
        <ele>1348.39</ele>
        <time>2013-08-15T13:00:28Z</time>
      </trkpt>
      <trkpt lat="45.04149" lon="5.58008">
        <ele>1346.94</ele>
        <time>2013-08-15T13:00:31Z</time>
      </trkpt>
      <trkpt lat="45.04156" lon="5.58007">
        <ele>1347.43</ele>
        <time>2013-08-15T13:00:32Z</time>
      </trkpt>
      <trkpt lat="45.04162" lon="5.58004">
        <ele>1347.43</ele>
        <time>2013-08-15T13:00:33Z</time>
      </trkpt>
      <trkpt lat="45.04167" lon="5.58002">
        <ele>1347.43</ele>
        <time>2013-08-15T13:00:34Z</time>
      </trkpt>
      <trkpt lat="45.04172" lon="5.58">
        <ele>1347.91</ele>
        <time>2013-08-15T13:00:35Z</time>
      </trkpt>
      <trkpt lat="45.04177" lon="5.57997">
        <ele>1348.39</ele>
        <time>2013-08-15T13:00:36Z</time>
      </trkpt>
      <trkpt lat="45.04249" lon="5.57963">
        <ele>1349.83</ele>
        <time>2013-08-15T13:00:52Z</time>
      </trkpt>
      <trkpt lat="45.04271" lon="5.57957">
        <ele>1348.87</ele>
        <time>2013-08-15T13:00:57Z</time>
      </trkpt>
      <trkpt lat="45.0428" lon="5.57957">
        <ele>1349.35</ele>
        <time>2013-08-15T13:00:59Z</time>
      </trkpt>
      <trkpt lat="45.04293" lon="5.57954">
        <ele>1349.35</ele>
        <time>2013-08-15T13:01:02Z</time>
      </trkpt>
      <trkpt lat="45.04297" lon="5.57954">
        <ele>1349.35</ele>
        <time>2013-08-15T13:01:03Z</time>
      </trkpt>
      <trkpt lat="45.043" lon="5.57953">
        <ele>1348.87</ele>
        <time>2013-08-15T13:01:04Z</time>
      </trkpt>
      <trkpt lat="45.04343" lon="5.57945">
        <ele>1349.83</ele>
        <time>2013-08-15T13:01:17Z</time>
      </trkpt>
      <trkpt lat="45.04376" lon="5.57948">
        <ele>1351.27</ele>
        <time>2013-08-15T13:01:28Z</time>
      </trkpt>
      <trkpt lat="45.04404" lon="5.57945">
        <ele>1353.19</ele>
        <time>2013-08-15T13:01:40Z</time>
      </trkpt>
      <trkpt lat="45.0444" lon="5.5795">
        <ele>1354.15</ele>
        <time>2013-08-15T13:01:54Z</time>
      </trkpt>
      <trkpt lat="45.04467" lon="5.5795">
        <ele>1357.04</ele>
        <time>2013-08-15T13:02:08Z</time>
      </trkpt>
      <trkpt lat="45.04471" lon="5.57953">
        <ele>1356.56</ele>
        <time>2013-08-15T13:02:11Z</time>
      </trkpt>
      <trkpt lat="45.04472" lon="5.57953">
        <ele>1356.56</ele>
        <time>2013-08-15T13:02:12Z</time>
      </trkpt>
      <trkpt lat="45.04474" lon="5.57954">
        <ele>1357.04</ele>
        <time>2013-08-15T13:02:25Z</time>
      </trkpt>
      <trkpt lat="45.04474" lon="5.57953">
        <ele>1357.04</ele>
        <time>2013-08-15T13:02:57Z</time>
      </trkpt>
      <trkpt lat="45.04474" lon="5.57953">
        <ele>1356.56</ele>
        <time>2013-08-15T13:03:30Z</time>
      </trkpt>
      <trkpt lat="45.04475" lon="5.57955">
        <ele>1357.04</ele>
        <time>2013-08-15T13:03:53Z</time>
      </trkpt>
      <trkpt lat="45.04475" lon="5.57958">
        <ele>1357.04</ele>
        <time>2013-08-15T13:03:54Z</time>
      </trkpt>
      <trkpt lat="45.04475" lon="5.57961">
        <ele>1356.56</ele>
        <time>2013-08-15T13:03:55Z</time>
      </trkpt>
      <trkpt lat="45.04475" lon="5.57965">
        <ele>1356.56</ele>
        <time>2013-08-15T13:03:56Z</time>
      </trkpt>
      <trkpt lat="45.04476" lon="5.57969">
        <ele>1356.08</ele>
        <time>2013-08-15T13:03:57Z</time>
      </trkpt>
      <trkpt lat="45.04475" lon="5.57974">
        <ele>1356.08</ele>
        <time>2013-08-15T13:03:58Z</time>
      </trkpt>
      <trkpt lat="45.04474" lon="5.57992">
        <ele>1354.63</ele>
        <time>2013-08-15T13:04:01Z</time>
      </trkpt>
      <trkpt lat="45.04472" lon="5.58039">
        <ele>1351.27</ele>
        <time>2013-08-15T13:04:08Z</time>
      </trkpt>
      <trkpt lat="45.0447" lon="5.58046">
        <ele>1350.31</ele>
        <time>2013-08-15T13:04:09Z</time>
      </trkpt>
      <trkpt lat="45.04463" lon="5.58065">
        <ele>1349.83</ele>
        <time>2013-08-15T13:04:12Z</time>
      </trkpt>
      <trkpt lat="45.04462" lon="5.5807">
        <ele>1349.83</ele>
        <time>2013-08-15T13:04:13Z</time>
      </trkpt>
      <trkpt lat="45.0446" lon="5.58074">
        <ele>1349.83</ele>
        <time>2013-08-15T13:04:14Z</time>
      </trkpt>
      <trkpt lat="45.04463" lon="5.58084">
        <ele>1349.35</ele>
        <time>2013-08-15T13:04:19Z</time>
      </trkpt>
      <trkpt lat="45.04482" lon="5.58111">
        <ele>1351.75</ele>
        <time>2013-08-15T13:04:31Z</time>
      </trkpt>
      <trkpt lat="45.04483" lon="5.58116">
        <ele>1352.71</ele>
        <time>2013-08-15T13:04:33Z</time>
      </trkpt>
      <trkpt lat="45.04508" lon="5.5813">
        <ele>1353.19</ele>
        <time>2013-08-15T13:04:45Z</time>
      </trkpt>
      <trkpt lat="45.04513" lon="5.58129">
        <ele>1352.71</ele>
        <time>2013-08-15T13:04:46Z</time>
      </trkpt>
      <trkpt lat="45.04535" lon="5.58137">
        <ele>1354.15</ele>
        <time>2013-08-15T13:04:55Z</time>
      </trkpt>
      <trkpt lat="45.04559" lon="5.58145">
        <ele>1353.67</ele>
        <time>2013-08-15T13:05:05Z</time>
      </trkpt>
      <trkpt lat="45.0456" lon="5.58145">
        <ele>1353.67</ele>
        <time>2013-08-15T13:05:06Z</time>
      </trkpt>
      <trkpt lat="45.04562" lon="5.58146">
        <ele>1353.67</ele>
        <time>2013-08-15T13:05:07Z</time>
      </trkpt>
      <trkpt lat="45.04563" lon="5.58147">
        <ele>1353.19</ele>
        <time>2013-08-15T13:05:08Z</time>
      </trkpt>
      <trkpt lat="45.04565" lon="5.58148">
        <ele>1353.19</ele>
        <time>2013-08-15T13:05:09Z</time>
      </trkpt>
      <trkpt lat="45.04567" lon="5.5815">
        <ele>1353.19</ele>
        <time>2013-08-15T13:05:10Z</time>
      </trkpt>
      <trkpt lat="45.04569" lon="5.58152">
        <ele>1353.19</ele>
        <time>2013-08-15T13:05:11Z</time>
      </trkpt>
      <trkpt lat="45.0457" lon="5.58154">
        <ele>1353.19</ele>
        <time>2013-08-15T13:05:12Z</time>
      </trkpt>
      <trkpt lat="45.04572" lon="5.58156">
        <ele>1353.19</ele>
        <time>2013-08-15T13:05:13Z</time>
      </trkpt>
      <trkpt lat="45.04589" lon="5.58186">
        <ele>1355.6</ele>
        <time>2013-08-15T13:05:25Z</time>
      </trkpt>
      <trkpt lat="45.04592" lon="5.5819">
        <ele>1355.6</ele>
        <time>2013-08-15T13:05:27Z</time>
      </trkpt>
      <trkpt lat="45.04594" lon="5.58191">
        <ele>1355.6</ele>
        <time>2013-08-15T13:05:28Z</time>
      </trkpt>
      <trkpt lat="45.04595" lon="5.58194">
        <ele>1356.08</ele>
        <time>2013-08-15T13:05:29Z</time>
      </trkpt>
      <trkpt lat="45.04597" lon="5.58196">
        <ele>1356.08</ele>
        <time>2013-08-15T13:05:30Z</time>
      </trkpt>
      <trkpt lat="45.04598" lon="5.58199">
        <ele>1356.08</ele>
        <time>2013-08-15T13:05:31Z</time>
      </trkpt>
      <trkpt lat="45.04599" lon="5.58201">
        <ele>1356.56</ele>
        <time>2013-08-15T13:05:32Z</time>
      </trkpt>
      <trkpt lat="45.04617" lon="5.58228">
        <ele>1358.48</ele>
        <time>2013-08-15T13:05:46Z</time>
      </trkpt>
      <trkpt lat="45.04621" lon="5.58235">
        <ele>1359.44</ele>
        <time>2013-08-15T13:05:50Z</time>
      </trkpt>
      <trkpt lat="45.04622" lon="5.58237">
        <ele>1359.92</ele>
        <time>2013-08-15T13:06:01Z</time>
      </trkpt>
      <trkpt lat="45.04622" lon="5.58239">
        <ele>1359.92</ele>
        <time>2013-08-15T13:06:10Z</time>
      </trkpt>
      <trkpt lat="45.04639" lon="5.58249">
        <ele>1361.84</ele>
        <time>2013-08-15T13:06:22Z</time>
      </trkpt>
      <trkpt lat="45.04657" lon="5.58255">
        <ele>1362.33</ele>
        <time>2013-08-15T13:06:35Z</time>
      </trkpt>
      <trkpt lat="45.04668" lon="5.58256">
        <ele>1363.29</ele>
        <time>2013-08-15T13:06:45Z</time>
      </trkpt>
      <trkpt lat="45.04692" lon="5.58258">
        <ele>1363.29</ele>
        <time>2013-08-15T13:06:55Z</time>
      </trkpt>
      <trkpt lat="45.0471" lon="5.58266">
        <ele>1364.73</ele>
        <time>2013-08-15T13:07:07Z</time>
      </trkpt>
      <trkpt lat="45.04714" lon="5.58271">
        <ele>1367.13</ele>
        <time>2013-08-15T13:07:20Z</time>
      </trkpt>
      <trkpt lat="45.04721" lon="5.58276">
        <ele>1369.05</ele>
        <time>2013-08-15T13:07:32Z</time>
      </trkpt>
      <trkpt lat="45.04724" lon="5.58282">
        <ele>1369.54</ele>
        <time>2013-08-15T13:07:42Z</time>
      </trkpt>
      <trkpt lat="45.04727" lon="5.58291">
        <ele>1370.02</ele>
        <time>2013-08-15T13:07:55Z</time>
      </trkpt>
      <trkpt lat="45.04727" lon="5.58291">
        <ele>1371.46</ele>
        <time>2013-08-15T13:08:11Z</time>
      </trkpt>
      <trkpt lat="45.0473" lon="5.58298">
        <ele>1371.94</ele>
        <time>2013-08-15T13:08:22Z</time>
      </trkpt>
      <trkpt lat="45.04734" lon="5.58309">
        <ele>1371.94</ele>
        <time>2013-08-15T13:08:44Z</time>
      </trkpt>
      <trkpt lat="45.04736" lon="5.58311">
        <ele>1371.94</ele>
        <time>2013-08-15T13:08:45Z</time>
      </trkpt>
      <trkpt lat="45.04738" lon="5.58313">
        <ele>1371.94</ele>
        <time>2013-08-15T13:08:46Z</time>
      </trkpt>
      <trkpt lat="45.04748" lon="5.58316">
        <ele>1373.86</ele>
        <time>2013-08-15T13:08:58Z</time>
      </trkpt>
      <trkpt lat="45.04749" lon="5.58316">
        <ele>1373.86</ele>
        <time>2013-08-15T13:08:59Z</time>
      </trkpt>
      <trkpt lat="45.0475" lon="5.58315">
        <ele>1373.38</ele>
        <time>2013-08-15T13:09:00Z</time>
      </trkpt>
      <trkpt lat="45.04757" lon="5.58311">
        <ele>1373.86</ele>
        <time>2013-08-15T13:09:05Z</time>
      </trkpt>
      <trkpt lat="45.04758" lon="5.58309">
        <ele>1374.34</ele>
        <time>2013-08-15T13:09:06Z</time>
      </trkpt>
      <trkpt lat="45.04759" lon="5.58307">
        <ele>1375.3</ele>
        <time>2013-08-15T13:09:07Z</time>
      </trkpt>
      <trkpt lat="45.04761" lon="5.58306">
        <ele>1375.3</ele>
        <time>2013-08-15T13:09:08Z</time>
      </trkpt>
      <trkpt lat="45.04762" lon="5.58305">
        <ele>1376.75</ele>
        <time>2013-08-15T13:09:09Z</time>
      </trkpt>
      <trkpt lat="45.04769" lon="5.58306">
        <ele>1377.71</ele>
        <time>2013-08-15T13:09:21Z</time>
      </trkpt>
      <trkpt lat="45.04771" lon="5.58309">
        <ele>1379.15</ele>
        <time>2013-08-15T13:09:38Z</time>
      </trkpt>
      <trkpt lat="45.04771" lon="5.58309">
        <ele>1378.67</ele>
        <time>2013-08-15T13:09:56Z</time>
      </trkpt>
      <trkpt lat="45.04772" lon="5.5831">
        <ele>1379.15</ele>
        <time>2013-08-15T13:09:58Z</time>
      </trkpt>
      <trkpt lat="45.04786" lon="5.58343">
        <ele>1381.07</ele>
        <time>2013-08-15T13:10:12Z</time>
      </trkpt>
      <trkpt lat="45.04788" lon="5.58352">
        <ele>1382.03</ele>
        <time>2013-08-15T13:10:28Z</time>
      </trkpt>
      <trkpt lat="45.04789" lon="5.58353">
        <ele>1382.03</ele>
        <time>2013-08-15T13:10:48Z</time>
      </trkpt>
      <trkpt lat="45.04798" lon="5.58368">
        <ele>1384.44</ele>
        <time>2013-08-15T13:10:59Z</time>
      </trkpt>
      <trkpt lat="45.04798" lon="5.58371">
        <ele>1386.36</ele>
        <time>2013-08-15T13:11:10Z</time>
      </trkpt>
      <trkpt lat="45.048" lon="5.58385">
        <ele>1387.32</ele>
        <time>2013-08-15T13:11:23Z</time>
      </trkpt>
      <trkpt lat="45.04801" lon="5.58389">
        <ele>1387.8</ele>
        <time>2013-08-15T13:11:36Z</time>
      </trkpt>
      <trkpt lat="45.04804" lon="5.58404">
        <ele>1389.72</ele>
        <time>2013-08-15T13:11:50Z</time>
      </trkpt>
      <trkpt lat="45.04805" lon="5.58409">
        <ele>1389.72</ele>
        <time>2013-08-15T13:12:00Z</time>
      </trkpt>
      <trkpt lat="45.04807" lon="5.58415">
        <ele>1389.24</ele>
        <time>2013-08-15T13:12:24Z</time>
      </trkpt>
      <trkpt lat="45.04812" lon="5.58434">
        <ele>1390.68</ele>
        <time>2013-08-15T13:12:36Z</time>
      </trkpt>
      <trkpt lat="45.04812" lon="5.58434">
        <ele>1390.2</ele>
        <time>2013-08-15T13:13:02Z</time>
      </trkpt>
      <trkpt lat="45.04818" lon="5.58448">
        <ele>1391.17</ele>
        <time>2013-08-15T13:13:23Z</time>
      </trkpt>
      <trkpt lat="45.0482" lon="5.58452">
        <ele>1391.65</ele>
        <time>2013-08-15T13:13:26Z</time>
      </trkpt>
      <trkpt lat="45.04824" lon="5.58458">
        <ele>1392.61</ele>
        <time>2013-08-15T13:13:37Z</time>
      </trkpt>
      <trkpt lat="45.04827" lon="5.5847">
        <ele>1393.57</ele>
        <time>2013-08-15T13:13:49Z</time>
      </trkpt>
      <trkpt lat="45.04827" lon="5.58475">
        <ele>1394.05</ele>
        <time>2013-08-15T13:14:06Z</time>
      </trkpt>
      <trkpt lat="45.04833" lon="5.585">
        <ele>1395.49</ele>
        <time>2013-08-15T13:14:19Z</time>
      </trkpt>
      <trkpt lat="45.04834" lon="5.58504">
        <ele>1395.97</ele>
        <time>2013-08-15T13:14:35Z</time>
      </trkpt>
      <trkpt lat="45.04833" lon="5.58509">
        <ele>1396.45</ele>
        <time>2013-08-15T13:14:55Z</time>
      </trkpt>
      <trkpt lat="45.04833" lon="5.58509">
        <ele>1394.53</ele>
        <time>2013-08-15T13:15:19Z</time>
      </trkpt>
      <trkpt lat="45.04833" lon="5.58509">
        <ele>1395.97</ele>
        <time>2013-08-15T13:15:21Z</time>
      </trkpt>
      <trkpt lat="45.04834" lon="5.58509">
        <ele>1395.97</ele>
        <time>2013-08-15T13:15:48Z</time>
      </trkpt>
      <trkpt lat="45.04834" lon="5.58509">
        <ele>1395.97</ele>
        <time>2013-08-15T13:16:10Z</time>
      </trkpt>
      <trkpt lat="45.0484" lon="5.58514">
        <ele>1397.41</ele>
        <time>2013-08-15T13:16:27Z</time>
      </trkpt>
      <trkpt lat="45.0484" lon="5.58514">
        <ele>1400.3</ele>
        <time>2013-08-15T13:16:40Z</time>
      </trkpt>
      <trkpt lat="45.04843" lon="5.58512">
        <ele>1402.7</ele>
        <time>2013-08-15T13:16:52Z</time>
      </trkpt>
      <trkpt lat="45.04843" lon="5.58512">
        <ele>1403.18</ele>
        <time>2013-08-15T13:17:01Z</time>
      </trkpt>
      <trkpt lat="45.04859" lon="5.58497">
        <ele>1404.62</ele>
        <time>2013-08-15T13:17:14Z</time>
      </trkpt>
      <trkpt lat="45.0487" lon="5.58488">
        <ele>1405.58</ele>
        <time>2013-08-15T13:17:23Z</time>
      </trkpt>
      <trkpt lat="45.04879" lon="5.58474">
        <ele>1407.03</ele>
        <time>2013-08-15T13:17:30Z</time>
      </trkpt>
      <trkpt lat="45.04888" lon="5.58464">
        <ele>1408.95</ele>
        <time>2013-08-15T13:17:36Z</time>
      </trkpt>
      <trkpt lat="45.04891" lon="5.58459">
        <ele>1409.43</ele>
        <time>2013-08-15T13:17:38Z</time>
      </trkpt>
      <trkpt lat="45.049" lon="5.58442">
        <ele>1411.35</ele>
        <time>2013-08-15T13:17:49Z</time>
      </trkpt>
      <trkpt lat="45.04906" lon="5.58441">
        <ele>1411.83</ele>
        <time>2013-08-15T13:18:06Z</time>
      </trkpt>
      <trkpt lat="45.04909" lon="5.58443">
        <ele>1412.31</ele>
        <time>2013-08-15T13:18:18Z</time>
      </trkpt>
      <trkpt lat="45.04911" lon="5.58444">
        <ele>1411.83</ele>
        <time>2013-08-15T13:18:29Z</time>
      </trkpt>
      <trkpt lat="45.04911" lon="5.58444">
        <ele>1411.83</ele>
        <time>2013-08-15T13:18:36Z</time>
      </trkpt>
      <trkpt lat="45.04914" lon="5.58447">
        <ele>1410.39</ele>
        <time>2013-08-15T13:18:39Z</time>
      </trkpt>
      <trkpt lat="45.04923" lon="5.58453">
        <ele>1412.79</ele>
        <time>2013-08-15T13:18:44Z</time>
      </trkpt>
      <trkpt lat="45.04932" lon="5.58455">
        <ele>1413.28</ele>
        <time>2013-08-15T13:18:53Z</time>
      </trkpt>
      <trkpt lat="45.04947" lon="5.58456">
        <ele>1415.68</ele>
        <time>2013-08-15T13:19:07Z</time>
      </trkpt>
      <trkpt lat="45.04949" lon="5.58455">
        <ele>1415.68</ele>
        <time>2013-08-15T13:19:09Z</time>
      </trkpt>
      <trkpt lat="45.04963" lon="5.58454">
        <ele>1416.64</ele>
        <time>2013-08-15T13:19:22Z</time>
      </trkpt>
      <trkpt lat="45.04974" lon="5.58455">
        <ele>1419.04</ele>
        <time>2013-08-15T13:19:34Z</time>
      </trkpt>
      <trkpt lat="45.04982" lon="5.5845">
        <ele>1420.97</ele>
        <time>2013-08-15T13:19:46Z</time>
      </trkpt>
      <trkpt lat="45.04992" lon="5.58445">
        <ele>1422.41</ele>
        <time>2013-08-15T13:19:58Z</time>
      </trkpt>
      <trkpt lat="45.05002" lon="5.58442">
        <ele>1424.81</ele>
        <time>2013-08-15T13:20:11Z</time>
      </trkpt>
      <trkpt lat="45.05004" lon="5.58441">
        <ele>1424.81</ele>
        <time>2013-08-15T13:20:18Z</time>
      </trkpt>
      <trkpt lat="45.05008" lon="5.58439">
        <ele>1425.29</ele>
        <time>2013-08-15T13:20:21Z</time>
      </trkpt>
      <trkpt lat="45.05021" lon="5.58434">
        <ele>1427.21</ele>
        <time>2013-08-15T13:20:36Z</time>
      </trkpt>
      <trkpt lat="45.05023" lon="5.58435">
        <ele>1427.7</ele>
        <time>2013-08-15T13:20:51Z</time>
      </trkpt>
      <trkpt lat="45.05023" lon="5.58435">
        <ele>1427.21</ele>
        <time>2013-08-15T13:20:52Z</time>
      </trkpt>
      <trkpt lat="45.0504" lon="5.5843">
        <ele>1428.66</ele>
        <time>2013-08-15T13:21:02Z</time>
      </trkpt>
      <trkpt lat="45.05058" lon="5.5843">
        <ele>1430.58</ele>
        <time>2013-08-15T13:21:15Z</time>
      </trkpt>
      <trkpt lat="45.05068" lon="5.58428">
        <ele>1432.5</ele>
        <time>2013-08-15T13:21:26Z</time>
      </trkpt>
      <trkpt lat="45.05072" lon="5.58429">
        <ele>1434.42</ele>
        <time>2013-08-15T13:21:33Z</time>
      </trkpt>
      <trkpt lat="45.05082" lon="5.58436">
        <ele>1435.87</ele>
        <time>2013-08-15T13:21:45Z</time>
      </trkpt>
      <trkpt lat="45.05098" lon="5.58441">
        <ele>1436.83</ele>
        <time>2013-08-15T13:21:55Z</time>
      </trkpt>
      <trkpt lat="45.05108" lon="5.58444">
        <ele>1438.27</ele>
        <time>2013-08-15T13:22:02Z</time>
      </trkpt>
      <trkpt lat="45.05122" lon="5.58451">
        <ele>1440.19</ele>
        <time>2013-08-15T13:22:17Z</time>
      </trkpt>
      <trkpt lat="45.05132" lon="5.58456">
        <ele>1442.11</ele>
        <time>2013-08-15T13:22:31Z</time>
      </trkpt>
      <trkpt lat="45.05139" lon="5.5846">
        <ele>1442.11</ele>
        <time>2013-08-15T13:22:42Z</time>
      </trkpt>
      <trkpt lat="45.05139" lon="5.5846">
        <ele>1442.11</ele>
        <time>2013-08-15T13:23:07Z</time>
      </trkpt>
      <trkpt lat="45.0514" lon="5.5846">
        <ele>1441.63</ele>
        <time>2013-08-15T13:23:30Z</time>
      </trkpt>
      <trkpt lat="45.0514" lon="5.5846">
        <ele>1441.63</ele>
        <time>2013-08-15T13:24:03Z</time>
      </trkpt>
      <trkpt lat="45.0514" lon="5.5846">
        <ele>1441.15</ele>
        <time>2013-08-15T13:24:31Z</time>
      </trkpt>
      <trkpt lat="45.05141" lon="5.5846">
        <ele>1441.15</ele>
        <time>2013-08-15T13:25:00Z</time>
      </trkpt>
      <trkpt lat="45.05141" lon="5.5846">
        <ele>1441.15</ele>
        <time>2013-08-15T13:25:29Z</time>
      </trkpt>
      <trkpt lat="45.05141" lon="5.58462">
        <ele>1441.15</ele>
        <time>2013-08-15T13:25:53Z</time>
      </trkpt>
      <trkpt lat="45.05139" lon="5.58473">
        <ele>1439.23</ele>
        <time>2013-08-15T13:25:57Z</time>
      </trkpt>
      <trkpt lat="45.05127" lon="5.58503">
        <ele>1437.79</ele>
        <time>2013-08-15T13:26:06Z</time>
      </trkpt>
      <trkpt lat="45.05119" lon="5.58515">
        <ele>1434.42</ele>
        <time>2013-08-15T13:26:15Z</time>
      </trkpt>
      <trkpt lat="45.05119" lon="5.58516">
        <ele>1432.98</ele>
        <time>2013-08-15T13:26:16Z</time>
      </trkpt>
      <trkpt lat="45.05118" lon="5.58528">
        <ele>1434.42</ele>
        <time>2013-08-15T13:26:20Z</time>
      </trkpt>
      <trkpt lat="45.0512" lon="5.58562">
        <ele>1434.91</ele>
        <time>2013-08-15T13:26:30Z</time>
      </trkpt>
      <trkpt lat="45.05122" lon="5.58565">
        <ele>1434.42</ele>
        <time>2013-08-15T13:26:32Z</time>
      </trkpt>
      <trkpt lat="45.05116" lon="5.58591">
        <ele>1432.98</ele>
        <time>2013-08-15T13:26:34Z</time>
      </trkpt>
      <trkpt lat="45.05117" lon="5.58597">
        <ele>1433.46</ele>
        <time>2013-08-15T13:26:37Z</time>
      </trkpt>
      <trkpt lat="45.0512" lon="5.58601">
        <ele>1433.46</ele>
        <time>2013-08-15T13:26:41Z</time>
      </trkpt>
      <trkpt lat="45.05125" lon="5.58604">
        <ele>1433.46</ele>
        <time>2013-08-15T13:26:45Z</time>
      </trkpt>
      <trkpt lat="45.05132" lon="5.58611">
        <ele>1433.46</ele>
        <time>2013-08-15T13:26:50Z</time>
      </trkpt>
      <trkpt lat="45.05144" lon="5.58616">
        <ele>1433.46</ele>
        <time>2013-08-15T13:26:58Z</time>
      </trkpt>
      <trkpt lat="45.05152" lon="5.58622">
        <ele>1433.94</ele>
        <time>2013-08-15T13:27:12Z</time>
      </trkpt>
      <trkpt lat="45.05156" lon="5.58633">
        <ele>1433.94</ele>
        <time>2013-08-15T13:27:31Z</time>
      </trkpt>
      <trkpt lat="45.05159" lon="5.58639">
        <ele>1434.91</ele>
        <time>2013-08-15T13:27:35Z</time>
      </trkpt>
      <trkpt lat="45.05164" lon="5.58652">
        <ele>1433.94</ele>
        <time>2013-08-15T13:27:41Z</time>
      </trkpt>
      <trkpt lat="45.05172" lon="5.5866">
        <ele>1434.91</ele>
        <time>2013-08-15T13:27:49Z</time>
      </trkpt>
      <trkpt lat="45.05174" lon="5.58661">
        <ele>1434.91</ele>
        <time>2013-08-15T13:27:51Z</time>
      </trkpt>
      <trkpt lat="45.05187" lon="5.58665">
        <ele>1434.42</ele>
        <time>2013-08-15T13:27:59Z</time>
      </trkpt>
      <trkpt lat="45.05188" lon="5.58665">
        <ele>1434.42</ele>
        <time>2013-08-15T13:28:00Z</time>
      </trkpt>
      <trkpt lat="45.052" lon="5.58658">
        <ele>1435.87</ele>
        <time>2013-08-15T13:28:14Z</time>
      </trkpt>
      <trkpt lat="45.05203" lon="5.58656">
        <ele>1436.35</ele>
        <time>2013-08-15T13:28:19Z</time>
      </trkpt>
      <trkpt lat="45.05207" lon="5.58653">
        <ele>1436.35</ele>
        <time>2013-08-15T13:28:22Z</time>
      </trkpt>
      <trkpt lat="45.05212" lon="5.5865">
        <ele>1437.31</ele>
        <time>2013-08-15T13:28:26Z</time>
      </trkpt>
      <trkpt lat="45.05219" lon="5.58639">
        <ele>1437.79</ele>
        <time>2013-08-15T13:28:34Z</time>
      </trkpt>
      <trkpt lat="45.05225" lon="5.58627">
        <ele>1438.27</ele>
        <time>2013-08-15T13:28:51Z</time>
      </trkpt>
      <trkpt lat="45.0523" lon="5.58622">
        <ele>1438.27</ele>
        <time>2013-08-15T13:29:08Z</time>
      </trkpt>
      <trkpt lat="45.0523" lon="5.58622">
        <ele>1437.79</ele>
        <time>2013-08-15T13:29:28Z</time>
      </trkpt>
      <trkpt lat="45.0523" lon="5.58622">
        <ele>1437.79</ele>
        <time>2013-08-15T13:30:03Z</time>
      </trkpt>
      <trkpt lat="45.0523" lon="5.58621">
        <ele>1437.79</ele>
        <time>2013-08-15T13:30:43Z</time>
      </trkpt>
      <trkpt lat="45.05238" lon="5.58613">
        <ele>1437.79</ele>
        <time>2013-08-15T13:31:10Z</time>
      </trkpt>
      <trkpt lat="45.05239" lon="5.58611">
        <ele>1437.79</ele>
        <time>2013-08-15T13:31:11Z</time>
      </trkpt>
      <trkpt lat="45.05263" lon="5.58599">
        <ele>1438.75</ele>
        <time>2013-08-15T13:31:28Z</time>
      </trkpt>
      <trkpt lat="45.05285" lon="5.58588">
        <ele>1440.67</ele>
        <time>2013-08-15T13:31:44Z</time>
      </trkpt>
      <trkpt lat="45.05295" lon="5.58584">
        <ele>1441.15</ele>
        <time>2013-08-15T13:32:00Z</time>
      </trkpt>
      <trkpt lat="45.05295" lon="5.58584">
        <ele>1440.67</ele>
        <time>2013-08-15T13:32:18Z</time>
      </trkpt>
      <trkpt lat="45.05295" lon="5.58584">
        <ele>1440.67</ele>
        <time>2013-08-15T13:32:45Z</time>
      </trkpt>
      <trkpt lat="45.05295" lon="5.58584">
        <ele>1440.19</ele>
        <time>2013-08-15T13:33:05Z</time>
      </trkpt>
      <trkpt lat="45.05295" lon="5.58584">
        <ele>1441.63</ele>
        <time>2013-08-15T13:33:23Z</time>
      </trkpt>
      <trkpt lat="45.05295" lon="5.58584">
        <ele>1440.67</ele>
        <time>2013-08-15T13:33:45Z</time>
      </trkpt>
      <trkpt lat="45.05295" lon="5.58585">
        <ele>1440.19</ele>
        <time>2013-08-15T13:34:25Z</time>
      </trkpt>
      <trkpt lat="45.05296" lon="5.58585">
        <ele>1439.71</ele>
        <time>2013-08-15T13:35:07Z</time>
      </trkpt>
      <trkpt lat="45.05296" lon="5.58586">
        <ele>1439.71</ele>
        <time>2013-08-15T13:35:49Z</time>
      </trkpt>
      <trkpt lat="45.05296" lon="5.58586">
        <ele>1439.23</ele>
        <time>2013-08-15T13:36:28Z</time>
      </trkpt>
      <trkpt lat="45.05296" lon="5.58587">
        <ele>1439.71</ele>
        <time>2013-08-15T13:37:13Z</time>
      </trkpt>
      <trkpt lat="45.05296" lon="5.58587">
        <ele>1439.23</ele>
        <time>2013-08-15T13:37:46Z</time>
      </trkpt>
      <trkpt lat="45.05296" lon="5.58588">
        <ele>1439.23</ele>
        <time>2013-08-15T13:38:25Z</time>
      </trkpt>
      <trkpt lat="45.05296" lon="5.58588">
        <ele>1438.75</ele>
        <time>2013-08-15T13:39:03Z</time>
      </trkpt>
      <trkpt lat="45.05297" lon="5.58588">
        <ele>1438.75</ele>
        <time>2013-08-15T13:39:36Z</time>
      </trkpt>
      <trkpt lat="45.05297" lon="5.58588">
        <ele>1438.75</ele>
        <time>2013-08-15T13:40:15Z</time>
      </trkpt>
      <trkpt lat="45.05297" lon="5.58588">
        <ele>1438.75</ele>
        <time>2013-08-15T13:40:48Z</time>
      </trkpt>
      <trkpt lat="45.05295" lon="5.58588">
        <ele>1438.27</ele>
        <time>2013-08-15T13:41:26Z</time>
      </trkpt>
      <trkpt lat="45.05295" lon="5.58588">
        <ele>1438.27</ele>
        <time>2013-08-15T13:42:05Z</time>
      </trkpt>
      <trkpt lat="45.05296" lon="5.58587">
        <ele>1438.75</ele>
        <time>2013-08-15T13:42:40Z</time>
      </trkpt>
      <trkpt lat="45.05296" lon="5.58587">
        <ele>1438.27</ele>
        <time>2013-08-15T13:43:16Z</time>
      </trkpt>
      <trkpt lat="45.05295" lon="5.58587">
        <ele>1438.27</ele>
        <time>2013-08-15T13:43:55Z</time>
      </trkpt>
      <trkpt lat="45.05295" lon="5.58587">
        <ele>1438.27</ele>
        <time>2013-08-15T13:44:30Z</time>
      </trkpt>
      <trkpt lat="45.05296" lon="5.58587">
        <ele>1438.27</ele>
        <time>2013-08-15T13:45:03Z</time>
      </trkpt>
      <trkpt lat="45.05296" lon="5.58587">
        <ele>1438.75</ele>
        <time>2013-08-15T13:45:04Z</time>
      </trkpt>
      <trkpt lat="45.05297" lon="5.58586">
        <ele>1438.75</ele>
        <time>2013-08-15T13:45:07Z</time>
      </trkpt>
      <trkpt lat="45.05313" lon="5.58579">
        <ele>1436.35</ele>
        <time>2013-08-15T13:45:15Z</time>
      </trkpt>
      <trkpt lat="45.05319" lon="5.58576">
        <ele>1435.87</ele>
        <time>2013-08-15T13:45:25Z</time>
      </trkpt>
      <trkpt lat="45.05321" lon="5.58577">
        <ele>1436.35</ele>
        <time>2013-08-15T13:45:40Z</time>
      </trkpt>
      <trkpt lat="45.05321" lon="5.58576">
        <ele>1436.35</ele>
        <time>2013-08-15T13:45:52Z</time>
      </trkpt>
      <trkpt lat="45.05325" lon="5.58582">
        <ele>1436.83</ele>
        <time>2013-08-15T13:46:06Z</time>
      </trkpt>
      <trkpt lat="45.05325" lon="5.58583">
        <ele>1436.83</ele>
        <time>2013-08-15T13:46:22Z</time>
      </trkpt>
      <trkpt lat="45.05327" lon="5.58582">
        <ele>1436.83</ele>
        <time>2013-08-15T13:46:46Z</time>
      </trkpt>
      <trkpt lat="45.05328" lon="5.58581">
        <ele>1436.83</ele>
        <time>2013-08-15T13:47:03Z</time>
      </trkpt>
      <trkpt lat="45.0533" lon="5.58578">
        <ele>1436.35</ele>
        <time>2013-08-15T13:47:05Z</time>
      </trkpt>
      <trkpt lat="45.05331" lon="5.58566">
        <ele>1434.42</ele>
        <time>2013-08-15T13:47:08Z</time>
      </trkpt>
      <trkpt lat="45.05328" lon="5.58558">
        <ele>1432.5</ele>
        <time>2013-08-15T13:47:11Z</time>
      </trkpt>
      <trkpt lat="45.05329" lon="5.58541">
        <ele>1428.66</ele>
        <time>2013-08-15T13:47:16Z</time>
      </trkpt>
      <trkpt lat="45.05332" lon="5.58525">
        <ele>1424.81</ele>
        <time>2013-08-15T13:47:21Z</time>
      </trkpt>
      <trkpt lat="45.05334" lon="5.58518">
        <ele>1423.85</ele>
        <time>2013-08-15T13:47:23Z</time>
      </trkpt>
      <trkpt lat="45.05337" lon="5.58514">
        <ele>1422.89</ele>
        <time>2013-08-15T13:47:25Z</time>
      </trkpt>
      <trkpt lat="45.05339" lon="5.5851">
        <ele>1421.93</ele>
        <time>2013-08-15T13:47:26Z</time>
      </trkpt>
      <trkpt lat="45.05341" lon="5.58506">
        <ele>1420.49</ele>
        <time>2013-08-15T13:47:27Z</time>
      </trkpt>
      <trkpt lat="45.05343" lon="5.58502">
        <ele>1420</ele>
        <time>2013-08-15T13:47:28Z</time>
      </trkpt>
      <trkpt lat="45.05364" lon="5.58473">
        <ele>1418.56</ele>
        <time>2013-08-15T13:47:38Z</time>
      </trkpt>
      <trkpt lat="45.05365" lon="5.58455">
        <ele>1416.64</ele>
        <time>2013-08-15T13:47:43Z</time>
      </trkpt>
      <trkpt lat="45.05366" lon="5.58438">
        <ele>1413.76</ele>
        <time>2013-08-15T13:47:53Z</time>
      </trkpt>
      <trkpt lat="45.05366" lon="5.58438">
        <ele>1414.24</ele>
        <time>2013-08-15T13:48:16Z</time>
      </trkpt>
      <trkpt lat="45.05366" lon="5.58437">
        <ele>1414.24</ele>
        <time>2013-08-15T13:48:47Z</time>
      </trkpt>
      <trkpt lat="45.05366" lon="5.58437">
        <ele>1414.24</ele>
        <time>2013-08-15T13:49:23Z</time>
      </trkpt>
      <trkpt lat="45.05366" lon="5.58437">
        <ele>1414.24</ele>
        <time>2013-08-15T13:49:56Z</time>
      </trkpt>
      <trkpt lat="45.05366" lon="5.58438">
        <ele>1414.24</ele>
        <time>2013-08-15T13:50:24Z</time>
      </trkpt>
      <trkpt lat="45.05366" lon="5.58438">
        <ele>1414.72</ele>
        <time>2013-08-15T13:50:55Z</time>
      </trkpt>
      <trkpt lat="45.05366" lon="5.58437">
        <ele>1414.24</ele>
        <time>2013-08-15T13:51:25Z</time>
      </trkpt>
      <trkpt lat="45.05366" lon="5.58437">
        <ele>1414.72</ele>
        <time>2013-08-15T13:51:55Z</time>
      </trkpt>
      <trkpt lat="45.05366" lon="5.58437">
        <ele>1414.72</ele>
        <time>2013-08-15T13:52:24Z</time>
      </trkpt>
      <trkpt lat="45.05366" lon="5.58438">
        <ele>1414.72</ele>
        <time>2013-08-15T13:52:56Z</time>
      </trkpt>
      <trkpt lat="45.05366" lon="5.58438">
        <ele>1414.72</ele>
        <time>2013-08-15T13:53:25Z</time>
      </trkpt>
      <trkpt lat="45.05366" lon="5.58438">
        <ele>1414.72</ele>
        <time>2013-08-15T13:53:59Z</time>
      </trkpt>
      <trkpt lat="45.05366" lon="5.58432">
        <ele>1414.24</ele>
        <time>2013-08-15T13:54:19Z</time>
      </trkpt>
      <trkpt lat="45.05366" lon="5.58432">
        <ele>1414.24</ele>
        <time>2013-08-15T13:54:20Z</time>
      </trkpt>
      <trkpt lat="45.05367" lon="5.58428">
        <ele>1413.76</ele>
        <time>2013-08-15T13:54:23Z</time>
      </trkpt>
      <trkpt lat="45.0538" lon="5.58408">
        <ele>1409.91</ele>
        <time>2013-08-15T13:54:31Z</time>
      </trkpt>
      <trkpt lat="45.05384" lon="5.58401">
        <ele>1408.47</ele>
        <time>2013-08-15T13:54:34Z</time>
      </trkpt>
      <trkpt lat="45.05401" lon="5.58374">
        <ele>1405.58</ele>
        <time>2013-08-15T13:54:41Z</time>
      </trkpt>
      <trkpt lat="45.05408" lon="5.58364">
        <ele>1402.7</ele>
        <time>2013-08-15T13:54:46Z</time>
      </trkpt>
      <trkpt lat="45.05414" lon="5.58358">
        <ele>1399.82</ele>
        <time>2013-08-15T13:54:50Z</time>
      </trkpt>
      <trkpt lat="45.05416" lon="5.58356">
        <ele>1398.86</ele>
        <time>2013-08-15T13:54:52Z</time>
      </trkpt>
      <trkpt lat="45.0542" lon="5.58335">
        <ele>1394.05</ele>
        <time>2013-08-15T13:54:58Z</time>
      </trkpt>
      <trkpt lat="45.05421" lon="5.58331">
        <ele>1393.57</ele>
        <time>2013-08-15T13:54:59Z</time>
      </trkpt>
      <trkpt lat="45.05424" lon="5.58318">
        <ele>1391.65</ele>
        <time>2013-08-15T13:55:02Z</time>
      </trkpt>
      <trkpt lat="45.05426" lon="5.58312">
        <ele>1390.2</ele>
        <time>2013-08-15T13:55:04Z</time>
      </trkpt>
      <trkpt lat="45.05432" lon="5.58306">
        <ele>1386.36</ele>
        <time>2013-08-15T13:55:09Z</time>
      </trkpt>
      <trkpt lat="45.05443" lon="5.58302">
        <ele>1383.47</ele>
        <time>2013-08-15T13:55:15Z</time>
      </trkpt>
      <trkpt lat="45.05444" lon="5.58301">
        <ele>1382.99</ele>
        <time>2013-08-15T13:55:16Z</time>
      </trkpt>
      <trkpt lat="45.05455" lon="5.58302">
        <ele>1379.15</ele>
        <time>2013-08-15T13:55:23Z</time>
      </trkpt>
      <trkpt lat="45.05466" lon="5.58321">
        <ele>1376.75</ele>
        <time>2013-08-15T13:55:27Z</time>
      </trkpt>
      <trkpt lat="45.05493" lon="5.58333">
        <ele>1374.82</ele>
        <time>2013-08-15T13:55:37Z</time>
      </trkpt>
      <trkpt lat="45.05503" lon="5.58327">
        <ele>1373.38</ele>
        <time>2013-08-15T13:55:42Z</time>
      </trkpt>
      <trkpt lat="45.05523" lon="5.58319">
        <ele>1370.02</ele>
        <time>2013-08-15T13:55:49Z</time>
      </trkpt>
      <trkpt lat="45.05545" lon="5.58308">
        <ele>1368.57</ele>
        <time>2013-08-15T13:55:55Z</time>
      </trkpt>
      <trkpt lat="45.05569" lon="5.58299">
        <ele>1366.65</ele>
        <time>2013-08-15T13:55:59Z</time>
      </trkpt>
      <trkpt lat="45.05574" lon="5.58294">
        <ele>1365.69</ele>
        <time>2013-08-15T13:56:00Z</time>
      </trkpt>
      <trkpt lat="45.05594" lon="5.58272">
        <ele>1362.33</ele>
        <time>2013-08-15T13:56:05Z</time>
      </trkpt>
      <trkpt lat="45.05596" lon="5.58262">
        <ele>1361.84</ele>
        <time>2013-08-15T13:56:07Z</time>
      </trkpt>
      <trkpt lat="45.05596" lon="5.58258">
        <ele>1360.88</ele>
        <time>2013-08-15T13:56:08Z</time>
      </trkpt>
      <trkpt lat="45.05597" lon="5.58254">
        <ele>1360.88</ele>
        <time>2013-08-15T13:56:09Z</time>
      </trkpt>
      <trkpt lat="45.05599" lon="5.58251">
        <ele>1360.4</ele>
        <time>2013-08-15T13:56:10Z</time>
      </trkpt>
      <trkpt lat="45.056" lon="5.58248">
        <ele>1359.92</ele>
        <time>2013-08-15T13:56:11Z</time>
      </trkpt>
      <trkpt lat="45.05601" lon="5.58245">
        <ele>1359.44</ele>
        <time>2013-08-15T13:56:12Z</time>
      </trkpt>
      <trkpt lat="45.05602" lon="5.58241">
        <ele>1358</ele>
        <time>2013-08-15T13:56:13Z</time>
      </trkpt>
      <trkpt lat="45.05603" lon="5.58239">
        <ele>1357.52</ele>
        <time>2013-08-15T13:56:14Z</time>
      </trkpt>
      <trkpt lat="45.05605" lon="5.58235">
        <ele>1357.04</ele>
        <time>2013-08-15T13:56:15Z</time>
      </trkpt>
      <trkpt lat="45.05606" lon="5.58233">
        <ele>1356.56</ele>
        <time>2013-08-15T13:56:16Z</time>
      </trkpt>
      <trkpt lat="45.05613" lon="5.58219">
        <ele>1354.63</ele>
        <time>2013-08-15T13:56:21Z</time>
      </trkpt>
      <trkpt lat="45.05616" lon="5.58217">
        <ele>1354.15</ele>
        <time>2013-08-15T13:56:23Z</time>
      </trkpt>
      <trkpt lat="45.05632" lon="5.58211">
        <ele>1351.27</ele>
        <time>2013-08-15T13:56:29Z</time>
      </trkpt>
      <trkpt lat="45.05665" lon="5.58187">
        <ele>1347.43</ele>
        <time>2013-08-15T13:56:39Z</time>
      </trkpt>
      <trkpt lat="45.05671" lon="5.5818">
        <ele>1346.46</ele>
        <time>2013-08-15T13:56:41Z</time>
      </trkpt>
      <trkpt lat="45.05678" lon="5.58174">
        <ele>1345.02</ele>
        <time>2013-08-15T13:56:43Z</time>
      </trkpt>
      <trkpt lat="45.05692" lon="5.58161">
        <ele>1341.66</ele>
        <time>2013-08-15T13:56:47Z</time>
      </trkpt>
      <trkpt lat="45.05709" lon="5.58144">
        <ele>1338.29</ele>
        <time>2013-08-15T13:56:51Z</time>
      </trkpt>
      <trkpt lat="45.05718" lon="5.58133">
        <ele>1335.89</ele>
        <time>2013-08-15T13:56:54Z</time>
      </trkpt>
      <trkpt lat="45.05722" lon="5.58131">
        <ele>1335.41</ele>
        <time>2013-08-15T13:56:55Z</time>
      </trkpt>
      <trkpt lat="45.05726" lon="5.58128">
        <ele>1334.93</ele>
        <time>2013-08-15T13:56:56Z</time>
      </trkpt>
      <trkpt lat="45.05729" lon="5.58125">
        <ele>1333.97</ele>
        <time>2013-08-15T13:56:57Z</time>
      </trkpt>
      <trkpt lat="45.05742" lon="5.58111">
        <ele>1331.56</ele>
        <time>2013-08-15T13:57:01Z</time>
      </trkpt>
      <trkpt lat="45.05745" lon="5.58103">
        <ele>1329.16</ele>
        <time>2013-08-15T13:57:03Z</time>
      </trkpt>
      <trkpt lat="45.0575" lon="5.58097">
        <ele>1327.72</ele>
        <time>2013-08-15T13:57:05Z</time>
      </trkpt>
      <trkpt lat="45.05752" lon="5.58095">
        <ele>1327.24</ele>
        <time>2013-08-15T13:57:06Z</time>
      </trkpt>
      <trkpt lat="45.05754" lon="5.58092">
        <ele>1326.28</ele>
        <time>2013-08-15T13:57:07Z</time>
      </trkpt>
      <trkpt lat="45.05757" lon="5.58088">
        <ele>1326.28</ele>
        <time>2013-08-15T13:57:08Z</time>
      </trkpt>
      <trkpt lat="45.05763" lon="5.58075">
        <ele>1323.87</ele>
        <time>2013-08-15T13:57:12Z</time>
      </trkpt>
      <trkpt lat="45.05766" lon="5.5807">
        <ele>1322.91</ele>
        <time>2013-08-15T13:57:13Z</time>
      </trkpt>
      <trkpt lat="45.05768" lon="5.58065">
        <ele>1322.91</ele>
        <time>2013-08-15T13:57:14Z</time>
      </trkpt>
      <trkpt lat="45.05772" lon="5.58058">
        <ele>1321.47</ele>
        <time>2013-08-15T13:57:16Z</time>
      </trkpt>
      <trkpt lat="45.05773" lon="5.58053">
        <ele>1320.99</ele>
        <time>2013-08-15T13:57:17Z</time>
      </trkpt>
      <trkpt lat="45.05774" lon="5.58049">
        <ele>1320.51</ele>
        <time>2013-08-15T13:57:18Z</time>
      </trkpt>
      <trkpt lat="45.05775" lon="5.58046">
        <ele>1319.55</ele>
        <time>2013-08-15T13:57:19Z</time>
      </trkpt>
      <trkpt lat="45.05778" lon="5.58043">
        <ele>1319.07</ele>
        <time>2013-08-15T13:57:20Z</time>
      </trkpt>
      <trkpt lat="45.05781" lon="5.58039">
        <ele>1319.07</ele>
        <time>2013-08-15T13:57:21Z</time>
      </trkpt>
      <trkpt lat="45.05793" lon="5.58023">
        <ele>1315.7</ele>
        <time>2013-08-15T13:57:25Z</time>
      </trkpt>
      <trkpt lat="45.05804" lon="5.58006">
        <ele>1311.86</ele>
        <time>2013-08-15T13:57:30Z</time>
      </trkpt>
      <trkpt lat="45.05816" lon="5.57989">
        <ele>1308.49</ele>
        <time>2013-08-15T13:57:36Z</time>
      </trkpt>
      <trkpt lat="45.05818" lon="5.57987">
        <ele>1307.53</ele>
        <time>2013-08-15T13:57:37Z</time>
      </trkpt>
      <trkpt lat="45.0582" lon="5.57986">
        <ele>1307.05</ele>
        <time>2013-08-15T13:57:38Z</time>
      </trkpt>
      <trkpt lat="45.05822" lon="5.57984">
        <ele>1306.09</ele>
        <time>2013-08-15T13:57:39Z</time>
      </trkpt>
      <trkpt lat="45.05826" lon="5.57977">
        <ele>1304.65</ele>
        <time>2013-08-15T13:57:41Z</time>
      </trkpt>
      <trkpt lat="45.05828" lon="5.57973">
        <ele>1304.17</ele>
        <time>2013-08-15T13:57:42Z</time>
      </trkpt>
      <trkpt lat="45.05829" lon="5.57969">
        <ele>1303.69</ele>
        <time>2013-08-15T13:57:43Z</time>
      </trkpt>
      <trkpt lat="45.05832" lon="5.57962">
        <ele>1302.72</ele>
        <time>2013-08-15T13:57:45Z</time>
      </trkpt>
      <trkpt lat="45.05834" lon="5.57959">
        <ele>1302.24</ele>
        <time>2013-08-15T13:57:46Z</time>
      </trkpt>
      <trkpt lat="45.05836" lon="5.57956">
        <ele>1301.28</ele>
        <time>2013-08-15T13:57:47Z</time>
      </trkpt>
      <trkpt lat="45.05843" lon="5.57938">
        <ele>1297.92</ele>
        <time>2013-08-15T13:57:51Z</time>
      </trkpt>
      <trkpt lat="45.05847" lon="5.57925">
        <ele>1295.51</ele>
        <time>2013-08-15T13:57:54Z</time>
      </trkpt>
      <trkpt lat="45.05849" lon="5.5792">
        <ele>1295.03</ele>
        <time>2013-08-15T13:57:55Z</time>
      </trkpt>
      <trkpt lat="45.05852" lon="5.57916">
        <ele>1294.07</ele>
        <time>2013-08-15T13:57:56Z</time>
      </trkpt>
      <trkpt lat="45.05854" lon="5.57912">
        <ele>1293.59</ele>
        <time>2013-08-15T13:57:57Z</time>
      </trkpt>
      <trkpt lat="45.05859" lon="5.57902">
        <ele>1292.15</ele>
        <time>2013-08-15T13:57:59Z</time>
      </trkpt>
      <trkpt lat="45.05867" lon="5.57883">
        <ele>1288.78</ele>
        <time>2013-08-15T13:58:04Z</time>
      </trkpt>
      <trkpt lat="45.05872" lon="5.57863">
        <ele>1286.38</ele>
        <time>2013-08-15T13:58:08Z</time>
      </trkpt>
      <trkpt lat="45.05874" lon="5.57861">
        <ele>1285.9</ele>
        <time>2013-08-15T13:58:09Z</time>
      </trkpt>
      <trkpt lat="45.05876" lon="5.57859">
        <ele>1284.94</ele>
        <time>2013-08-15T13:58:10Z</time>
      </trkpt>
      <trkpt lat="45.05885" lon="5.57844">
        <ele>1282.06</ele>
        <time>2013-08-15T13:58:14Z</time>
      </trkpt>
      <trkpt lat="45.05887" lon="5.5784">
        <ele>1282.06</ele>
        <time>2013-08-15T13:58:15Z</time>
      </trkpt>
      <trkpt lat="45.05897" lon="5.57813">
        <ele>1278.21</ele>
        <time>2013-08-15T13:58:21Z</time>
      </trkpt>
      <trkpt lat="45.059" lon="5.5779">
        <ele>1274.85</ele>
        <time>2013-08-15T13:58:26Z</time>
      </trkpt>
      <trkpt lat="45.05902" lon="5.57765">
        <ele>1271.48</ele>
        <time>2013-08-15T13:58:30Z</time>
      </trkpt>
      <trkpt lat="45.05903" lon="5.57753">
        <ele>1271</ele>
        <time>2013-08-15T13:58:32Z</time>
      </trkpt>
      <trkpt lat="45.05905" lon="5.57736">
        <ele>1269.08</ele>
        <time>2013-08-15T13:58:34Z</time>
      </trkpt>
      <trkpt lat="45.05906" lon="5.57727">
        <ele>1268.12</ele>
        <time>2013-08-15T13:58:35Z</time>
      </trkpt>
      <trkpt lat="45.05908" lon="5.57694">
        <ele>1264.27</ele>
        <time>2013-08-15T13:58:39Z</time>
      </trkpt>
      <trkpt lat="45.0591" lon="5.57687">
        <ele>1264.27</ele>
        <time>2013-08-15T13:58:40Z</time>
      </trkpt>
      <trkpt lat="45.05911" lon="5.57681">
        <ele>1263.31</ele>
        <time>2013-08-15T13:58:41Z</time>
      </trkpt>
      <trkpt lat="45.05912" lon="5.57675">
        <ele>1262.35</ele>
        <time>2013-08-15T13:58:42Z</time>
      </trkpt>
      <trkpt lat="45.05917" lon="5.57651">
        <ele>1258.98</ele>
        <time>2013-08-15T13:58:46Z</time>
      </trkpt>
      <trkpt lat="45.05917" lon="5.57645">
        <ele>1258.5</ele>
        <time>2013-08-15T13:58:47Z</time>
      </trkpt>
      <trkpt lat="45.05917" lon="5.57638">
        <ele>1258.02</ele>
        <time>2013-08-15T13:58:48Z</time>
      </trkpt>
      <trkpt lat="45.05918" lon="5.57635">
        <ele>1257.54</ele>
        <time>2013-08-15T13:58:49Z</time>
      </trkpt>
      <trkpt lat="45.0592" lon="5.57634">
        <ele>1257.54</ele>
        <time>2013-08-15T13:59:04Z</time>
      </trkpt>
      <trkpt lat="45.05921" lon="5.57641">
        <ele>1259.46</ele>
        <time>2013-08-15T13:59:24Z</time>
      </trkpt>
      <trkpt lat="45.05921" lon="5.57641">
        <ele>1259.94</ele>
        <time>2013-08-15T13:59:41Z</time>
      </trkpt>
      <trkpt lat="45.05921" lon="5.57641">
        <ele>1259.46</ele>
        <time>2013-08-15T13:59:43Z</time>
      </trkpt>
      <trkpt lat="45.0592" lon="5.57642">
        <ele>1259.46</ele>
        <time>2013-08-15T13:59:44Z</time>
      </trkpt>
      <trkpt lat="45.05918" lon="5.57644">
        <ele>1258.98</ele>
        <time>2013-08-15T13:59:45Z</time>
      </trkpt>
      <trkpt lat="45.05915" lon="5.57647">
        <ele>1258.02</ele>
        <time>2013-08-15T13:59:46Z</time>
      </trkpt>
      <trkpt lat="45.05909" lon="5.57661">
        <ele>1256.58</ele>
        <time>2013-08-15T13:59:52Z</time>
      </trkpt>
      <trkpt lat="45.05907" lon="5.57663">
        <ele>1255.62</ele>
        <time>2013-08-15T13:59:53Z</time>
      </trkpt>
      <trkpt lat="45.05903" lon="5.57667">
        <ele>1254.66</ele>
        <time>2013-08-15T13:59:55Z</time>
      </trkpt>
      <trkpt lat="45.05898" lon="5.57672">
        <ele>1253.7</ele>
        <time>2013-08-15T13:59:58Z</time>
      </trkpt>
      <trkpt lat="45.05894" lon="5.57678">
        <ele>1253.22</ele>
        <time>2013-08-15T14:00:01Z</time>
      </trkpt>
      <trkpt lat="45.05885" lon="5.57693">
        <ele>1253.22</ele>
        <time>2013-08-15T14:00:08Z</time>
      </trkpt>
      <trkpt lat="45.05883" lon="5.57695">
        <ele>1252.74</ele>
        <time>2013-08-15T14:00:09Z</time>
      </trkpt>
      <trkpt lat="45.05881" lon="5.57698">
        <ele>1252.74</ele>
        <time>2013-08-15T14:00:10Z</time>
      </trkpt>
      <trkpt lat="45.05879" lon="5.57701">
        <ele>1252.74</ele>
        <time>2013-08-15T14:00:11Z</time>
      </trkpt>
      <trkpt lat="45.05877" lon="5.57705">
        <ele>1252.74</ele>
        <time>2013-08-15T14:00:12Z</time>
      </trkpt>
      <trkpt lat="45.05875" lon="5.57708">
        <ele>1253.22</ele>
        <time>2013-08-15T14:00:13Z</time>
      </trkpt>
      <trkpt lat="45.05866" lon="5.5773">
        <ele>1251.77</ele>
        <time>2013-08-15T14:00:23Z</time>
      </trkpt>
      <trkpt lat="45.05864" lon="5.57732">
        <ele>1251.29</ele>
        <time>2013-08-15T14:00:24Z</time>
      </trkpt>
      <trkpt lat="45.05862" lon="5.57733">
        <ele>1250.81</ele>
        <time>2013-08-15T14:00:25Z</time>
      </trkpt>
      <trkpt lat="45.0586" lon="5.57734">
        <ele>1250.81</ele>
        <time>2013-08-15T14:00:26Z</time>
      </trkpt>
      <trkpt lat="45.05857" lon="5.57735">
        <ele>1250.81</ele>
        <time>2013-08-15T14:00:27Z</time>
      </trkpt>
      <trkpt lat="45.05854" lon="5.57737">
        <ele>1250.81</ele>
        <time>2013-08-15T14:00:28Z</time>
      </trkpt>
      <trkpt lat="45.05851" lon="5.57738">
        <ele>1250.81</ele>
        <time>2013-08-15T14:00:29Z</time>
      </trkpt>
      <trkpt lat="45.05848" lon="5.57739">
        <ele>1250.33</ele>
        <time>2013-08-15T14:00:30Z</time>
      </trkpt>
      <trkpt lat="45.05823" lon="5.57747">
        <ele>1247.45</ele>
        <time>2013-08-15T14:00:37Z</time>
      </trkpt>
      <trkpt lat="45.05819" lon="5.5775">
        <ele>1246.97</ele>
        <time>2013-08-15T14:00:38Z</time>
      </trkpt>
      <trkpt lat="45.05768" lon="5.57792">
        <ele>1248.41</ele>
        <time>2013-08-15T14:00:51Z</time>
      </trkpt>
      <trkpt lat="45.05753" lon="5.57807">
        <ele>1249.85</ele>
        <time>2013-08-15T14:01:04Z</time>
      </trkpt>
      <trkpt lat="45.05748" lon="5.57811">
        <ele>1250.33</ele>
        <time>2013-08-15T14:01:14Z</time>
      </trkpt>
      <trkpt lat="45.05738" lon="5.57819">
        <ele>1251.29</ele>
        <time>2013-08-15T14:01:26Z</time>
      </trkpt>
      <trkpt lat="45.05713" lon="5.57839">
        <ele>1251.29</ele>
        <time>2013-08-15T14:01:38Z</time>
      </trkpt>
      <trkpt lat="45.05704" lon="5.57845">
        <ele>1251.77</ele>
        <time>2013-08-15T14:01:45Z</time>
      </trkpt>
      <trkpt lat="45.05703" lon="5.57849">
        <ele>1251.77</ele>
        <time>2013-08-15T14:01:46Z</time>
      </trkpt>
      <trkpt lat="45.05702" lon="5.57853">
        <ele>1252.25</ele>
        <time>2013-08-15T14:01:47Z</time>
      </trkpt>
      <trkpt lat="45.05699" lon="5.57854">
        <ele>1252.25</ele>
        <time>2013-08-15T14:01:48Z</time>
      </trkpt>
      <trkpt lat="45.05698" lon="5.57858">
        <ele>1252.74</ele>
        <time>2013-08-15T14:01:49Z</time>
      </trkpt>
      <trkpt lat="45.05697" lon="5.57861">
        <ele>1252.25</ele>
        <time>2013-08-15T14:01:50Z</time>
      </trkpt>
      <trkpt lat="45.0569" lon="5.57865">
        <ele>1251.77</ele>
        <time>2013-08-15T14:01:53Z</time>
      </trkpt>
      <trkpt lat="45.05668" lon="5.57844">
        <ele>1248.89</ele>
        <time>2013-08-15T14:02:02Z</time>
      </trkpt>
      <trkpt lat="45.05658" lon="5.57825">
        <ele>1246.01</ele>
        <time>2013-08-15T14:02:10Z</time>
      </trkpt>
      <trkpt lat="45.05656" lon="5.57824">
        <ele>1246.01</ele>
        <time>2013-08-15T14:02:11Z</time>
      </trkpt>
      <trkpt lat="45.05654" lon="5.57822">
        <ele>1245.04</ele>
        <time>2013-08-15T14:02:12Z</time>
      </trkpt>
      <trkpt lat="45.05648" lon="5.57812">
        <ele>1242.16</ele>
        <time>2013-08-15T14:02:17Z</time>
      </trkpt>
      <trkpt lat="45.05648" lon="5.57807">
        <ele>1242.16</ele>
        <time>2013-08-15T14:02:19Z</time>
      </trkpt>
      <trkpt lat="45.05639" lon="5.57792">
        <ele>1243.12</ele>
        <time>2013-08-15T14:02:28Z</time>
      </trkpt>
      <trkpt lat="45.05623" lon="5.57785">
        <ele>1243.6</ele>
        <time>2013-08-15T14:02:33Z</time>
      </trkpt>
      <trkpt lat="45.05616" lon="5.57775">
        <ele>1244.56</ele>
        <time>2013-08-15T14:02:46Z</time>
      </trkpt>
      <trkpt lat="45.05617" lon="5.57775">
        <ele>1245.04</ele>
        <time>2013-08-15T14:02:57Z</time>
      </trkpt>
      <trkpt lat="45.05617" lon="5.57775">
        <ele>1246.97</ele>
        <time>2013-08-15T14:03:02Z</time>
      </trkpt>
      <trkpt lat="45.05617" lon="5.57775">
        <ele>1244.56</ele>
        <time>2013-08-15T14:03:03Z</time>
      </trkpt>
      <trkpt lat="45.05617" lon="5.57775">
        <ele>1244.56</ele>
        <time>2013-08-15T14:03:20Z</time>
      </trkpt>
      <trkpt lat="45.05617" lon="5.57775">
        <ele>1244.56</ele>
        <time>2013-08-15T14:03:21Z</time>
      </trkpt>
      <trkpt lat="45.05628" lon="5.57784">
        <ele>1242.16</ele>
        <time>2013-08-15T14:03:29Z</time>
      </trkpt>
      <trkpt lat="45.0563" lon="5.57782">
        <ele>1241.68</ele>
        <time>2013-08-15T14:03:31Z</time>
      </trkpt>
      <trkpt lat="45.0563" lon="5.57778">
        <ele>1241.68</ele>
        <time>2013-08-15T14:03:33Z</time>
      </trkpt>
      <trkpt lat="45.05638" lon="5.57768">
        <ele>1240.72</ele>
        <time>2013-08-15T14:03:43Z</time>
      </trkpt>
      <trkpt lat="45.05641" lon="5.57766">
        <ele>1240.24</ele>
        <time>2013-08-15T14:03:44Z</time>
      </trkpt>
      <trkpt lat="45.05658" lon="5.57766">
        <ele>1238.8</ele>
        <time>2013-08-15T14:03:48Z</time>
      </trkpt>
      <trkpt lat="45.05689" lon="5.57768">
        <ele>1236.87</ele>
        <time>2013-08-15T14:03:59Z</time>
      </trkpt>
      <trkpt lat="45.05716" lon="5.57761">
        <ele>1235.91</ele>
        <time>2013-08-15T14:04:06Z</time>
      </trkpt>
      <trkpt lat="45.05727" lon="5.5776">
        <ele>1234.95</ele>
        <time>2013-08-15T14:04:08Z</time>
      </trkpt>
      <trkpt lat="45.05733" lon="5.57761">
        <ele>1234.47</ele>
        <time>2013-08-15T14:04:09Z</time>
      </trkpt>
      <trkpt lat="45.05737" lon="5.57762">
        <ele>1233.99</ele>
        <time>2013-08-15T14:04:10Z</time>
      </trkpt>
      <trkpt lat="45.05772" lon="5.5775">
        <ele>1233.51</ele>
        <time>2013-08-15T14:04:20Z</time>
      </trkpt>
      <trkpt lat="45.05799" lon="5.57727">
        <ele>1233.03</ele>
        <time>2013-08-15T14:04:34Z</time>
      </trkpt>
      <trkpt lat="45.05826" lon="5.5769">
        <ele>1231.11</ele>
        <time>2013-08-15T14:04:46Z</time>
      </trkpt>
      <trkpt lat="45.05853" lon="5.57644">
        <ele>1232.07</ele>
        <time>2013-08-15T14:04:56Z</time>
      </trkpt>
      <trkpt lat="45.05847" lon="5.57634">
        <ele>1232.55</ele>
        <time>2013-08-15T14:05:11Z</time>
      </trkpt>
      <trkpt lat="45.05846" lon="5.57635">
        <ele>1232.55</ele>
        <time>2013-08-15T14:05:33Z</time>
      </trkpt>
      <trkpt lat="45.05837" lon="5.57622">
        <ele>1229.66</ele>
        <time>2013-08-15T14:05:45Z</time>
      </trkpt>
      <trkpt lat="45.05836" lon="5.57619">
        <ele>1228.7</ele>
        <time>2013-08-15T14:05:46Z</time>
      </trkpt>
      <trkpt lat="45.05835" lon="5.57616">
        <ele>1227.74</ele>
        <time>2013-08-15T14:05:47Z</time>
      </trkpt>
      <trkpt lat="45.05834" lon="5.57612">
        <ele>1227.26</ele>
        <time>2013-08-15T14:05:48Z</time>
      </trkpt>
      <trkpt lat="45.05827" lon="5.57603">
        <ele>1227.74</ele>
        <time>2013-08-15T14:06:02Z</time>
      </trkpt>
      <trkpt lat="45.05816" lon="5.57601">
        <ele>1230.14</ele>
        <time>2013-08-15T14:06:17Z</time>
      </trkpt>
      <trkpt lat="45.05815" lon="5.57594">
        <ele>1229.18</ele>
        <time>2013-08-15T14:06:24Z</time>
      </trkpt>
      <trkpt lat="45.05815" lon="5.5759">
        <ele>1228.7</ele>
        <time>2013-08-15T14:06:25Z</time>
      </trkpt>
      <trkpt lat="45.05815" lon="5.57587">
        <ele>1228.22</ele>
        <time>2013-08-15T14:06:26Z</time>
      </trkpt>
      <trkpt lat="45.05815" lon="5.57584">
        <ele>1227.26</ele>
        <time>2013-08-15T14:06:27Z</time>
      </trkpt>
      <trkpt lat="45.05816" lon="5.5758">
        <ele>1226.78</ele>
        <time>2013-08-15T14:06:28Z</time>
      </trkpt>
      <trkpt lat="45.05816" lon="5.57575">
        <ele>1225.82</ele>
        <time>2013-08-15T14:06:29Z</time>
      </trkpt>
      <trkpt lat="45.05815" lon="5.5757">
        <ele>1225.34</ele>
        <time>2013-08-15T14:06:30Z</time>
      </trkpt>
      <trkpt lat="45.05815" lon="5.57565">
        <ele>1224.86</ele>
        <time>2013-08-15T14:06:31Z</time>
      </trkpt>
      <trkpt lat="45.05815" lon="5.5756">
        <ele>1224.38</ele>
        <time>2013-08-15T14:06:32Z</time>
      </trkpt>
      <trkpt lat="45.05816" lon="5.57542">
        <ele>1221.01</ele>
        <time>2013-08-15T14:06:37Z</time>
      </trkpt>
      <trkpt lat="45.05818" lon="5.57537">
        <ele>1219.57</ele>
        <time>2013-08-15T14:06:39Z</time>
      </trkpt>
      <trkpt lat="45.05819" lon="5.57535">
        <ele>1219.09</ele>
        <time>2013-08-15T14:06:40Z</time>
      </trkpt>
      <trkpt lat="45.05822" lon="5.57533">
        <ele>1218.61</ele>
        <time>2013-08-15T14:06:41Z</time>
      </trkpt>
      <trkpt lat="45.05823" lon="5.57532">
        <ele>1218.13</ele>
        <time>2013-08-15T14:06:42Z</time>
      </trkpt>
      <trkpt lat="45.05825" lon="5.57529">
        <ele>1217.17</ele>
        <time>2013-08-15T14:06:44Z</time>
      </trkpt>
      <trkpt lat="45.05827" lon="5.57516">
        <ele>1213.8</ele>
        <time>2013-08-15T14:06:50Z</time>
      </trkpt>
      <trkpt lat="45.05827" lon="5.57513">
        <ele>1213.32</ele>
        <time>2013-08-15T14:06:51Z</time>
      </trkpt>
      <trkpt lat="45.05828" lon="5.57509">
        <ele>1212.84</ele>
        <time>2013-08-15T14:06:52Z</time>
      </trkpt>
      <trkpt lat="45.05833" lon="5.575">
        <ele>1211.88</ele>
        <time>2013-08-15T14:06:57Z</time>
      </trkpt>
      <trkpt lat="45.05834" lon="5.57497">
        <ele>1211.4</ele>
        <time>2013-08-15T14:06:58Z</time>
      </trkpt>
      <trkpt lat="45.05835" lon="5.57491">
        <ele>1209</ele>
        <time>2013-08-15T14:07:00Z</time>
      </trkpt>
      <trkpt lat="45.05837" lon="5.57487">
        <ele>1208.51</ele>
        <time>2013-08-15T14:07:01Z</time>
      </trkpt>
      <trkpt lat="45.05838" lon="5.57485">
        <ele>1208.03</ele>
        <time>2013-08-15T14:07:02Z</time>
      </trkpt>
      <trkpt lat="45.0584" lon="5.57482">
        <ele>1208.03</ele>
        <time>2013-08-15T14:07:14Z</time>
      </trkpt>
      <trkpt lat="45.05847" lon="5.57471">
        <ele>1205.63</ele>
        <time>2013-08-15T14:07:25Z</time>
      </trkpt>
      <trkpt lat="45.05851" lon="5.57457">
        <ele>1203.23</ele>
        <time>2013-08-15T14:07:36Z</time>
      </trkpt>
      <trkpt lat="45.05851" lon="5.57466">
        <ele>1201.79</ele>
        <time>2013-08-15T14:07:45Z</time>
      </trkpt>
      <trkpt lat="45.05853" lon="5.57481">
        <ele>1201.79</ele>
        <time>2013-08-15T14:08:01Z</time>
      </trkpt>
      <trkpt lat="45.05853" lon="5.57479">
        <ele>1201.3</ele>
        <time>2013-08-15T14:08:15Z</time>
      </trkpt>
      <trkpt lat="45.0585" lon="5.57461">
        <ele>1203.23</ele>
        <time>2013-08-15T14:08:21Z</time>
      </trkpt>
      <trkpt lat="45.05849" lon="5.57453">
        <ele>1203.23</ele>
        <time>2013-08-15T14:08:25Z</time>
      </trkpt>
      <trkpt lat="45.0585" lon="5.57447">
        <ele>1202.27</ele>
        <time>2013-08-15T14:08:35Z</time>
      </trkpt>
      <trkpt lat="45.05851" lon="5.57435">
        <ele>1201.3</ele>
        <time>2013-08-15T14:08:40Z</time>
      </trkpt>
      <trkpt lat="45.0585" lon="5.57409">
        <ele>1197.94</ele>
        <time>2013-08-15T14:08:49Z</time>
      </trkpt>
      <trkpt lat="45.05849" lon="5.57386">
        <ele>1196.02</ele>
        <time>2013-08-15T14:08:53Z</time>
      </trkpt>
      <trkpt lat="45.05828" lon="5.573">
        <ele>1194.09</ele>
        <time>2013-08-15T14:09:05Z</time>
      </trkpt>
      <trkpt lat="45.05816" lon="5.57227">
        <ele>1194.09</ele>
        <time>2013-08-15T14:09:18Z</time>
      </trkpt>
      <trkpt lat="45.05825" lon="5.57167">
        <ele>1193.13</ele>
        <time>2013-08-15T14:09:31Z</time>
      </trkpt>
      <trkpt lat="45.05838" lon="5.57149">
        <ele>1191.69</ele>
        <time>2013-08-15T14:09:37Z</time>
      </trkpt>
      <trkpt lat="45.0584" lon="5.57147">
        <ele>1191.69</ele>
        <time>2013-08-15T14:09:38Z</time>
      </trkpt>
      <trkpt lat="45.05857" lon="5.57136">
        <ele>1188.81</ele>
        <time>2013-08-15T14:09:43Z</time>
      </trkpt>
      <trkpt lat="45.05867" lon="5.57128">
        <ele>1187.85</ele>
        <time>2013-08-15T14:09:45Z</time>
      </trkpt>
      <trkpt lat="45.0594" lon="5.57082">
        <ele>1184.96</ele>
        <time>2013-08-15T14:09:57Z</time>
      </trkpt>
      <trkpt lat="45.05964" lon="5.57068">
        <ele>1181.6</ele>
        <time>2013-08-15T14:10:02Z</time>
      </trkpt>
      <trkpt lat="45.05969" lon="5.57068">
        <ele>1181.12</ele>
        <time>2013-08-15T14:10:03Z</time>
      </trkpt>
      <trkpt lat="45.05974" lon="5.57067">
        <ele>1181.12</ele>
        <time>2013-08-15T14:10:04Z</time>
      </trkpt>
      <trkpt lat="45.06008" lon="5.57063">
        <ele>1177.27</ele>
        <time>2013-08-15T14:10:11Z</time>
      </trkpt>
      <trkpt lat="45.06013" lon="5.5706">
        <ele>1176.79</ele>
        <time>2013-08-15T14:10:12Z</time>
      </trkpt>
      <trkpt lat="45.06019" lon="5.57057">
        <ele>1175.83</ele>
        <time>2013-08-15T14:10:13Z</time>
      </trkpt>
      <trkpt lat="45.06062" lon="5.57028">
        <ele>1172.47</ele>
        <time>2013-08-15T14:10:20Z</time>
      </trkpt>
      <trkpt lat="45.06061" lon="5.57015">
        <ele>1171.98</ele>
        <time>2013-08-15T14:10:21Z</time>
      </trkpt>
      <trkpt lat="45.06062" lon="5.57007">
        <ele>1171.5</ele>
        <time>2013-08-15T14:10:22Z</time>
      </trkpt>
      <trkpt lat="45.06065" lon="5.56992">
        <ele>1170.06</ele>
        <time>2013-08-15T14:10:24Z</time>
      </trkpt>
      <trkpt lat="45.06067" lon="5.56973">
        <ele>1169.58</ele>
        <time>2013-08-15T14:10:26Z</time>
      </trkpt>
      <trkpt lat="45.06074" lon="5.56918">
        <ele>1169.1</ele>
        <time>2013-08-15T14:10:36Z</time>
      </trkpt>
      <trkpt lat="45.06091" lon="5.56889">
        <ele>1165.74</ele>
        <time>2013-08-15T14:10:47Z</time>
      </trkpt>
      <trkpt lat="45.06099" lon="5.56855">
        <ele>1162.37</ele>
        <time>2013-08-15T14:10:56Z</time>
      </trkpt>
      <trkpt lat="45.06099" lon="5.56848">
        <ele>1159.01</ele>
        <time>2013-08-15T14:11:00Z</time>
      </trkpt>
      <trkpt lat="45.061" lon="5.56847">
        <ele>1159.01</ele>
        <time>2013-08-15T14:11:01Z</time>
      </trkpt>
      <trkpt lat="45.06101" lon="5.56846">
        <ele>1158.53</ele>
        <time>2013-08-15T14:11:02Z</time>
      </trkpt>
      <trkpt lat="45.06107" lon="5.56844">
        <ele>1155.16</ele>
        <time>2013-08-15T14:11:08Z</time>
      </trkpt>
      <trkpt lat="45.0611" lon="5.56841">
        <ele>1154.68</ele>
        <time>2013-08-15T14:11:10Z</time>
      </trkpt>
      <trkpt lat="45.06126" lon="5.56828">
        <ele>1150.84</ele>
        <time>2013-08-15T14:11:18Z</time>
      </trkpt>
      <trkpt lat="45.06137" lon="5.56818">
        <ele>1147.47</ele>
        <time>2013-08-15T14:11:23Z</time>
      </trkpt>
      <trkpt lat="45.06161" lon="5.56808">
        <ele>1144.59</ele>
        <time>2013-08-15T14:11:29Z</time>
      </trkpt>
      <trkpt lat="45.06177" lon="5.56805">
        <ele>1140.74</ele>
        <time>2013-08-15T14:11:34Z</time>
      </trkpt>
      <trkpt lat="45.06195" lon="5.56795">
        <ele>1137.38</ele>
        <time>2013-08-15T14:11:40Z</time>
      </trkpt>
      <trkpt lat="45.06225" lon="5.56779">
        <ele>1134.01</ele>
        <time>2013-08-15T14:11:45Z</time>
      </trkpt>
      <trkpt lat="45.06286" lon="5.56749">
        <ele>1131.61</ele>
        <time>2013-08-15T14:11:55Z</time>
      </trkpt>
      <trkpt lat="45.06312" lon="5.56732">
        <ele>1132.09</ele>
        <time>2013-08-15T14:12:00Z</time>
      </trkpt>
      <trkpt lat="45.06315" lon="5.56727">
        <ele>1131.61</ele>
        <time>2013-08-15T14:12:01Z</time>
      </trkpt>
      <trkpt lat="45.06317" lon="5.5672">
        <ele>1131.61</ele>
        <time>2013-08-15T14:12:02Z</time>
      </trkpt>
      <trkpt lat="45.06319" lon="5.56712">
        <ele>1131.61</ele>
        <time>2013-08-15T14:12:03Z</time>
      </trkpt>
      <trkpt lat="45.06321" lon="5.56706">
        <ele>1131.13</ele>
        <time>2013-08-15T14:12:04Z</time>
      </trkpt>
      <trkpt lat="45.06335" lon="5.56663">
        <ele>1133.05</ele>
        <time>2013-08-15T14:12:12Z</time>
      </trkpt>
      <trkpt lat="45.06335" lon="5.56638">
        <ele>1135.45</ele>
        <time>2013-08-15T14:12:18Z</time>
      </trkpt>
      <trkpt lat="45.0631" lon="5.566">
        <ele>1135.45</ele>
        <time>2013-08-15T14:12:36Z</time>
      </trkpt>
      <trkpt lat="45.0631" lon="5.56598">
        <ele>1134.49</ele>
        <time>2013-08-15T14:12:37Z</time>
      </trkpt>
      <trkpt lat="45.0631" lon="5.56596">
        <ele>1134.01</ele>
        <time>2013-08-15T14:12:38Z</time>
      </trkpt>
      <trkpt lat="45.0631" lon="5.56593">
        <ele>1133.05</ele>
        <time>2013-08-15T14:12:39Z</time>
      </trkpt>
      <trkpt lat="45.0631" lon="5.56591">
        <ele>1132.09</ele>
        <time>2013-08-15T14:12:40Z</time>
      </trkpt>
      <trkpt lat="45.06311" lon="5.56589">
        <ele>1131.61</ele>
        <time>2013-08-15T14:12:41Z</time>
      </trkpt>
      <trkpt lat="45.0631" lon="5.56587">
        <ele>1131.13</ele>
        <time>2013-08-15T14:12:42Z</time>
      </trkpt>
      <trkpt lat="45.06309" lon="5.56584">
        <ele>1130.17</ele>
        <time>2013-08-15T14:12:43Z</time>
      </trkpt>
      <trkpt lat="45.06305" lon="5.56577">
        <ele>1128.73</ele>
        <time>2013-08-15T14:12:46Z</time>
      </trkpt>
      <trkpt lat="45.063" lon="5.56569">
        <ele>1127.28</ele>
        <time>2013-08-15T14:12:49Z</time>
      </trkpt>
      <trkpt lat="45.063" lon="5.56568">
        <ele>1126.8</ele>
        <time>2013-08-15T14:12:50Z</time>
      </trkpt>
      <trkpt lat="45.06296" lon="5.56565">
        <ele>1126.8</ele>
        <time>2013-08-15T14:12:51Z</time>
      </trkpt>
      <trkpt lat="45.06297" lon="5.56558">
        <ele>1126.8</ele>
        <time>2013-08-15T14:12:52Z</time>
      </trkpt>
      <trkpt lat="45.06298" lon="5.56552">
        <ele>1126.8</ele>
        <time>2013-08-15T14:12:53Z</time>
      </trkpt>
      <trkpt lat="45.06282" lon="5.56461">
        <ele>1123.44</ele>
        <time>2013-08-15T14:13:06Z</time>
      </trkpt>
      <trkpt lat="45.06274" lon="5.56443">
        <ele>1123.44</ele>
        <time>2013-08-15T14:13:18Z</time>
      </trkpt>
      <trkpt lat="45.06275" lon="5.56449">
        <ele>1124.4</ele>
        <time>2013-08-15T14:13:27Z</time>
      </trkpt>
      <trkpt lat="45.06274" lon="5.5645">
        <ele>1124.4</ele>
        <time>2013-08-15T14:13:28Z</time>
      </trkpt>
      <trkpt lat="45.06275" lon="5.56465">
        <ele>1126.8</ele>
        <time>2013-08-15T14:13:42Z</time>
      </trkpt>
      <trkpt lat="45.06274" lon="5.5648">
        <ele>1126.8</ele>
        <time>2013-08-15T14:13:57Z</time>
      </trkpt>
      <trkpt lat="45.06273" lon="5.56515">
        <ele>1127.76</ele>
        <time>2013-08-15T14:14:14Z</time>
      </trkpt>
      <trkpt lat="45.06271" lon="5.56543">
        <ele>1130.17</ele>
        <time>2013-08-15T14:14:28Z</time>
      </trkpt>
      <trkpt lat="45.06263" lon="5.56555">
        <ele>1131.61</ele>
        <time>2013-08-15T14:14:41Z</time>
      </trkpt>
      <trkpt lat="45.06255" lon="5.5657">
        <ele>1133.53</ele>
        <time>2013-08-15T14:14:55Z</time>
      </trkpt>
      <trkpt lat="45.06255" lon="5.56573">
        <ele>1134.01</ele>
        <time>2013-08-15T14:14:58Z</time>
      </trkpt>
      <trkpt lat="45.06249" lon="5.56575">
        <ele>1136.42</ele>
        <time>2013-08-15T14:15:13Z</time>
      </trkpt>
      <trkpt lat="45.06249" lon="5.56573">
        <ele>1136.42</ele>
        <time>2013-08-15T14:15:16Z</time>
      </trkpt>
      <trkpt lat="45.06252" lon="5.5657">
        <ele>1136.42</ele>
        <time>2013-08-15T14:15:33Z</time>
      </trkpt>
      <trkpt lat="45.06252" lon="5.5657">
        <ele>1136.42</ele>
        <time>2013-08-15T14:15:40Z</time>
      </trkpt>
      <trkpt lat="45.06253" lon="5.56559">
        <ele>1137.38</ele>
        <time>2013-08-15T14:15:45Z</time>
      </trkpt>
      <trkpt lat="45.0625" lon="5.56528">
        <ele>1137.38</ele>
        <time>2013-08-15T14:15:54Z</time>
      </trkpt>
      <trkpt lat="45.06261" lon="5.56475">
        <ele>1135.45</ele>
        <time>2013-08-15T14:16:08Z</time>
      </trkpt>
      <trkpt lat="45.06261" lon="5.56425">
        <ele>1135.45</ele>
        <time>2013-08-15T14:16:20Z</time>
      </trkpt>
      <trkpt lat="45.0626" lon="5.56394">
        <ele>1135.94</ele>
        <time>2013-08-15T14:16:34Z</time>
      </trkpt>
      <trkpt lat="45.06275" lon="5.56352">
        <ele>1134.49</ele>
        <time>2013-08-15T14:16:46Z</time>
      </trkpt>
      <trkpt lat="45.06276" lon="5.56345">
        <ele>1134.01</ele>
        <time>2013-08-15T14:16:47Z</time>
      </trkpt>
      <trkpt lat="45.06276" lon="5.56324">
        <ele>1134.49</ele>
        <time>2013-08-15T14:16:57Z</time>
      </trkpt>
      <trkpt lat="45.06271" lon="5.5632">
        <ele>1134.01</ele>
        <time>2013-08-15T14:17:04Z</time>
      </trkpt>
      <trkpt lat="45.06269" lon="5.56302">
        <ele>1131.61</ele>
        <time>2013-08-15T14:17:08Z</time>
      </trkpt>
      <trkpt lat="45.06269" lon="5.56294">
        <ele>1130.65</ele>
        <time>2013-08-15T14:17:09Z</time>
      </trkpt>
      <trkpt lat="45.0627" lon="5.56287">
        <ele>1130.65</ele>
        <time>2013-08-15T14:17:10Z</time>
      </trkpt>
      <trkpt lat="45.06282" lon="5.5623">
        <ele>1129.21</ele>
        <time>2013-08-15T14:17:20Z</time>
      </trkpt>
      <trkpt lat="45.06284" lon="5.56209">
        <ele>1127.28</ele>
        <time>2013-08-15T14:17:23Z</time>
      </trkpt>
      <trkpt lat="45.06287" lon="5.5619">
        <ele>1128.24</ele>
        <time>2013-08-15T14:17:26Z</time>
      </trkpt>
      <trkpt lat="45.06289" lon="5.56184">
        <ele>1127.76</ele>
        <time>2013-08-15T14:17:27Z</time>
      </trkpt>
      <trkpt lat="45.06292" lon="5.56162">
        <ele>1126.32</ele>
        <time>2013-08-15T14:17:30Z</time>
      </trkpt>
      <trkpt lat="45.06301" lon="5.56127">
        <ele>1124.88</ele>
        <time>2013-08-15T14:17:40Z</time>
      </trkpt>
      <trkpt lat="45.06302" lon="5.56125">
        <ele>1124.4</ele>
        <time>2013-08-15T14:17:41Z</time>
      </trkpt>
      <trkpt lat="45.06302" lon="5.56123">
        <ele>1124.4</ele>
        <time>2013-08-15T14:17:42Z</time>
      </trkpt>
      <trkpt lat="45.06303" lon="5.5612">
        <ele>1123.92</ele>
        <time>2013-08-15T14:17:43Z</time>
      </trkpt>
      <trkpt lat="45.06303" lon="5.56112">
        <ele>1123.92</ele>
        <time>2013-08-15T14:17:48Z</time>
      </trkpt>
      <trkpt lat="45.06303" lon="5.5611">
        <ele>1123.44</ele>
        <time>2013-08-15T14:17:49Z</time>
      </trkpt>
      <trkpt lat="45.06303" lon="5.56108">
        <ele>1123.44</ele>
        <time>2013-08-15T14:17:50Z</time>
      </trkpt>
      <trkpt lat="45.06304" lon="5.56106">
        <ele>1123.44</ele>
        <time>2013-08-15T14:17:51Z</time>
      </trkpt>
      <trkpt lat="45.06304" lon="5.56104">
        <ele>1123.44</ele>
        <time>2013-08-15T14:17:52Z</time>
      </trkpt>
      <trkpt lat="45.06304" lon="5.56084">
        <ele>1121.03</ele>
        <time>2013-08-15T14:17:57Z</time>
      </trkpt>
      <trkpt lat="45.06301" lon="5.56077">
        <ele>1120.55</ele>
        <time>2013-08-15T14:17:58Z</time>
      </trkpt>
      <trkpt lat="45.06292" lon="5.56052">
        <ele>1118.63</ele>
        <time>2013-08-15T14:18:01Z</time>
      </trkpt>
      <trkpt lat="45.06284" lon="5.56016">
        <ele>1117.19</ele>
        <time>2013-08-15T14:18:07Z</time>
      </trkpt>
      <trkpt lat="45.06287" lon="5.56001">
        <ele>1115.27</ele>
        <time>2013-08-15T14:18:09Z</time>
      </trkpt>
      <trkpt lat="45.06292" lon="5.55964">
        <ele>1111.42</ele>
        <time>2013-08-15T14:18:13Z</time>
      </trkpt>
      <trkpt lat="45.06294" lon="5.55933">
        <ele>1108.06</ele>
        <time>2013-08-15T14:18:18Z</time>
      </trkpt>
      <trkpt lat="45.06296" lon="5.55908">
        <ele>1105.17</ele>
        <time>2013-08-15T14:18:30Z</time>
      </trkpt>
      <trkpt lat="45.063" lon="5.559">
        <ele>1104.21</ele>
        <time>2013-08-15T14:18:35Z</time>
      </trkpt>
      <trkpt lat="45.063" lon="5.55898">
        <ele>1103.25</ele>
        <time>2013-08-15T14:18:36Z</time>
      </trkpt>
      <trkpt lat="45.063" lon="5.55896">
        <ele>1103.25</ele>
        <time>2013-08-15T14:18:37Z</time>
      </trkpt>
      <trkpt lat="45.06299" lon="5.55892">
        <ele>1102.77</ele>
        <time>2013-08-15T14:18:38Z</time>
      </trkpt>
      <trkpt lat="45.06298" lon="5.55888">
        <ele>1102.29</ele>
        <time>2013-08-15T14:18:39Z</time>
      </trkpt>
      <trkpt lat="45.06293" lon="5.55868">
        <ele>1099.89</ele>
        <time>2013-08-15T14:18:42Z</time>
      </trkpt>
      <trkpt lat="45.06284" lon="5.55814">
        <ele>1101.33</ele>
        <time>2013-08-15T14:18:52Z</time>
      </trkpt>
      <trkpt lat="45.06278" lon="5.55759">
        <ele>1101.81</ele>
        <time>2013-08-15T14:19:06Z</time>
      </trkpt>
      <trkpt lat="45.06265" lon="5.55723">
        <ele>1098.92</ele>
        <time>2013-08-15T14:19:14Z</time>
      </trkpt>
      <trkpt lat="45.06238" lon="5.55681">
        <ele>1095.56</ele>
        <time>2013-08-15T14:19:24Z</time>
      </trkpt>
      <trkpt lat="45.06218" lon="5.55646">
        <ele>1092.2</ele>
        <time>2013-08-15T14:19:29Z</time>
      </trkpt>
      <trkpt lat="45.06195" lon="5.55608">
        <ele>1088.83</ele>
        <time>2013-08-15T14:19:34Z</time>
      </trkpt>
      <trkpt lat="45.06164" lon="5.55552">
        <ele>1085.95</ele>
        <time>2013-08-15T14:19:44Z</time>
      </trkpt>
      <trkpt lat="45.06164" lon="5.55547">
        <ele>1084.99</ele>
        <time>2013-08-15T14:19:45Z</time>
      </trkpt>
      <trkpt lat="45.06165" lon="5.55541">
        <ele>1084.99</ele>
        <time>2013-08-15T14:19:46Z</time>
      </trkpt>
      <trkpt lat="45.06167" lon="5.55536">
        <ele>1084.5</ele>
        <time>2013-08-15T14:19:47Z</time>
      </trkpt>
      <trkpt lat="45.06169" lon="5.5553">
        <ele>1084.5</ele>
        <time>2013-08-15T14:19:48Z</time>
      </trkpt>
      <trkpt lat="45.06201" lon="5.55465">
        <ele>1081.14</ele>
        <time>2013-08-15T14:20:00Z</time>
      </trkpt>
      <trkpt lat="45.06235" lon="5.55431">
        <ele>1077.29</ele>
        <time>2013-08-15T14:20:07Z</time>
      </trkpt>
      <trkpt lat="45.06241" lon="5.55426">
        <ele>1077.29</ele>
        <time>2013-08-15T14:20:08Z</time>
      </trkpt>
      <trkpt lat="45.063" lon="5.55411">
        <ele>1077.78</ele>
        <time>2013-08-15T14:20:19Z</time>
      </trkpt>
      <trkpt lat="45.06304" lon="5.55411">
        <ele>1077.78</ele>
        <time>2013-08-15T14:20:20Z</time>
      </trkpt>
      <trkpt lat="45.06371" lon="5.55429">
        <ele>1078.74</ele>
        <time>2013-08-15T14:20:36Z</time>
      </trkpt>
      <trkpt lat="45.06424" lon="5.55455">
        <ele>1079.22</ele>
        <time>2013-08-15T14:20:52Z</time>
      </trkpt>
      <trkpt lat="45.06433" lon="5.55485">
        <ele>1079.22</ele>
        <time>2013-08-15T14:21:03Z</time>
      </trkpt>
      <trkpt lat="45.06424" lon="5.55537">
        <ele>1077.78</ele>
        <time>2013-08-15T14:21:16Z</time>
      </trkpt>
      <trkpt lat="45.06424" lon="5.5555">
        <ele>1077.29</ele>
        <time>2013-08-15T14:21:25Z</time>
      </trkpt>
      <trkpt lat="45.06425" lon="5.55551">
        <ele>1077.29</ele>
        <time>2013-08-15T14:21:26Z</time>
      </trkpt>
      <trkpt lat="45.06426" lon="5.55553">
        <ele>1076.81</ele>
        <time>2013-08-15T14:21:27Z</time>
      </trkpt>
      <trkpt lat="45.06437" lon="5.55562">
        <ele>1072.49</ele>
        <time>2013-08-15T14:21:32Z</time>
      </trkpt>
      <trkpt lat="45.06451" lon="5.55567">
        <ele>1068.16</ele>
        <time>2013-08-15T14:21:35Z</time>
      </trkpt>
      <trkpt lat="45.06461" lon="5.5557">
        <ele>1065.28</ele>
        <time>2013-08-15T14:21:37Z</time>
      </trkpt>
      <trkpt lat="45.06475" lon="5.55574">
        <ele>1061.43</ele>
        <time>2013-08-15T14:21:40Z</time>
      </trkpt>
      <trkpt lat="45.06486" lon="5.55576">
        <ele>1058.07</ele>
        <time>2013-08-15T14:21:43Z</time>
      </trkpt>
      <trkpt lat="45.06506" lon="5.5558">
        <ele>1053.74</ele>
        <time>2013-08-15T14:21:46Z</time>
      </trkpt>
      <trkpt lat="45.06532" lon="5.55586">
        <ele>1051.34</ele>
        <time>2013-08-15T14:21:49Z</time>
      </trkpt>
      <trkpt lat="45.06566" lon="5.55595">
        <ele>1049.9</ele>
        <time>2013-08-15T14:21:53Z</time>
      </trkpt>
      <trkpt lat="45.06594" lon="5.55599">
        <ele>1047.97</ele>
        <time>2013-08-15T14:21:56Z</time>
      </trkpt>
      <trkpt lat="45.06621" lon="5.55614">
        <ele>1047.01</ele>
        <time>2013-08-15T14:22:00Z</time>
      </trkpt>
      <trkpt lat="45.06639" lon="5.55639">
        <ele>1047.49</ele>
        <time>2013-08-15T14:22:09Z</time>
      </trkpt>
      <trkpt lat="45.0664" lon="5.55641">
        <ele>1047.49</ele>
        <time>2013-08-15T14:22:14Z</time>
      </trkpt>
      <trkpt lat="45.0663" lon="5.55686">
        <ele>1049.42</ele>
        <time>2013-08-15T14:22:27Z</time>
      </trkpt>
      <trkpt lat="45.06642" lon="5.55725">
        <ele>1050.86</ele>
        <time>2013-08-15T14:22:39Z</time>
      </trkpt>
      <trkpt lat="45.06664" lon="5.55745">
        <ele>1052.78</ele>
        <time>2013-08-15T14:22:50Z</time>
      </trkpt>
      <trkpt lat="45.06691" lon="5.55762">
        <ele>1055.18</ele>
        <time>2013-08-15T14:23:03Z</time>
      </trkpt>
      <trkpt lat="45.06714" lon="5.5579">
        <ele>1057.11</ele>
        <time>2013-08-15T14:23:17Z</time>
      </trkpt>
      <trkpt lat="45.0674" lon="5.55776">
        <ele>1057.59</ele>
        <time>2013-08-15T14:23:28Z</time>
      </trkpt>
      <trkpt lat="45.06773" lon="5.55767">
        <ele>1059.03</ele>
        <time>2013-08-15T14:23:40Z</time>
      </trkpt>
      <trkpt lat="45.06816" lon="5.5575">
        <ele>1060.47</ele>
        <time>2013-08-15T14:23:55Z</time>
      </trkpt>
      <trkpt lat="45.0683" lon="5.55739">
        <ele>1059.99</ele>
        <time>2013-08-15T14:23:59Z</time>
      </trkpt>
      <trkpt lat="45.06833" lon="5.55734">
        <ele>1059.51</ele>
        <time>2013-08-15T14:24:00Z</time>
      </trkpt>
      <trkpt lat="45.06902" lon="5.55647">
        <ele>1058.07</ele>
        <time>2013-08-15T14:24:19Z</time>
      </trkpt>
      <trkpt lat="45.06949" lon="5.55591">
        <ele>1059.99</ele>
        <time>2013-08-15T14:24:32Z</time>
      </trkpt>
      <trkpt lat="45.06974" lon="5.55558">
        <ele>1059.51</ele>
        <time>2013-08-15T14:24:42Z</time>
      </trkpt>
      <trkpt lat="45.06996" lon="5.55499">
        <ele>1057.59</ele>
        <time>2013-08-15T14:24:51Z</time>
      </trkpt>
      <trkpt lat="45.07012" lon="5.5546">
        <ele>1056.63</ele>
        <time>2013-08-15T14:24:59Z</time>
      </trkpt>
      <trkpt lat="45.07013" lon="5.55454">
        <ele>1056.63</ele>
        <time>2013-08-15T14:25:00Z</time>
      </trkpt>
      <trkpt lat="45.07015" lon="5.55397">
        <ele>1053.26</ele>
        <time>2013-08-15T14:25:07Z</time>
      </trkpt>
      <trkpt lat="45.07023" lon="5.55317">
        <ele>1051.82</ele>
        <time>2013-08-15T14:25:17Z</time>
      </trkpt>
      <trkpt lat="45.07022" lon="5.55315">
        <ele>1051.82</ele>
        <time>2013-08-15T14:25:18Z</time>
      </trkpt>
      <trkpt lat="45.07021" lon="5.55312">
        <ele>1051.82</ele>
        <time>2013-08-15T14:25:19Z</time>
      </trkpt>
      <trkpt lat="45.07018" lon="5.55311">
        <ele>1051.82</ele>
        <time>2013-08-15T14:25:20Z</time>
      </trkpt>
      <trkpt lat="45.06993" lon="5.55299">
        <ele>1050.86</ele>
        <time>2013-08-15T14:25:28Z</time>
      </trkpt>
      <trkpt lat="45.06991" lon="5.55295">
        <ele>1050.38</ele>
        <time>2013-08-15T14:25:29Z</time>
      </trkpt>
      <trkpt lat="45.0699" lon="5.55289">
        <ele>1050.38</ele>
        <time>2013-08-15T14:25:30Z</time>
      </trkpt>
      <trkpt lat="45.06989" lon="5.55283">
        <ele>1050.38</ele>
        <time>2013-08-15T14:25:31Z</time>
      </trkpt>
      <trkpt lat="45.06989" lon="5.55276">
        <ele>1049.9</ele>
        <time>2013-08-15T14:25:32Z</time>
      </trkpt>
      <trkpt lat="45.06989" lon="5.5527">
        <ele>1050.38</ele>
        <time>2013-08-15T14:25:33Z</time>
      </trkpt>
      <trkpt lat="45.06989" lon="5.55264">
        <ele>1049.9</ele>
        <time>2013-08-15T14:25:34Z</time>
      </trkpt>
      <trkpt lat="45.06989" lon="5.55227">
        <ele>1049.42</ele>
        <time>2013-08-15T14:25:40Z</time>
      </trkpt>
      <trkpt lat="45.06989" lon="5.55201">
        <ele>1048.45</ele>
        <time>2013-08-15T14:25:44Z</time>
      </trkpt>
      <trkpt lat="45.06989" lon="5.55195">
        <ele>1048.45</ele>
        <time>2013-08-15T14:25:45Z</time>
      </trkpt>
      <trkpt lat="45.06991" lon="5.55189">
        <ele>1047.97</ele>
        <time>2013-08-15T14:25:46Z</time>
      </trkpt>
      <trkpt lat="45.06995" lon="5.5517">
        <ele>1047.49</ele>
        <time>2013-08-15T14:25:49Z</time>
      </trkpt>
      <trkpt lat="45.07" lon="5.55145">
        <ele>1046.53</ele>
        <time>2013-08-15T14:25:53Z</time>
      </trkpt>
      <trkpt lat="45.07002" lon="5.55139">
        <ele>1046.53</ele>
        <time>2013-08-15T14:25:54Z</time>
      </trkpt>
      <trkpt lat="45.07004" lon="5.55134">
        <ele>1046.05</ele>
        <time>2013-08-15T14:25:55Z</time>
      </trkpt>
      <trkpt lat="45.07006" lon="5.55128">
        <ele>1046.05</ele>
        <time>2013-08-15T14:25:56Z</time>
      </trkpt>
      <trkpt lat="45.07007" lon="5.55121">
        <ele>1045.57</ele>
        <time>2013-08-15T14:25:57Z</time>
      </trkpt>
      <trkpt lat="45.07016" lon="5.55095">
        <ele>1044.61</ele>
        <time>2013-08-15T14:26:04Z</time>
      </trkpt>
      <trkpt lat="45.07017" lon="5.55094">
        <ele>1044.61</ele>
        <time>2013-08-15T14:26:05Z</time>
      </trkpt>
      <trkpt lat="45.07043" lon="5.55104">
        <ele>1043.65</ele>
        <time>2013-08-15T14:26:17Z</time>
      </trkpt>
      <trkpt lat="45.07047" lon="5.55104">
        <ele>1043.65</ele>
        <time>2013-08-15T14:26:18Z</time>
      </trkpt>
      <trkpt lat="45.07049" lon="5.55103">
        <ele>1043.65</ele>
        <time>2013-08-15T14:26:19Z</time>
      </trkpt>
      <trkpt lat="45.07052" lon="5.55101">
        <ele>1044.13</ele>
        <time>2013-08-15T14:26:20Z</time>
      </trkpt>
      <trkpt lat="45.07055" lon="5.551">
        <ele>1044.13</ele>
        <time>2013-08-15T14:26:31Z</time>
      </trkpt>
      <trkpt lat="45.07055" lon="5.551">
        <ele>1043.65</ele>
        <time>2013-08-15T14:26:53Z</time>
      </trkpt>
      <trkpt lat="45.07056" lon="5.55099">
        <ele>1043.65</ele>
        <time>2013-08-15T14:27:22Z</time>
      </trkpt>
      <trkpt lat="45.07055" lon="5.55099">
        <ele>1043.17</ele>
        <time>2013-08-15T14:27:57Z</time>
      </trkpt>
    </trkseg>
  </trk>
</gpx>